<?xml version="1.0" encoding="UTF-8" standalone="no" ?>
<gpx xmlns="http://www.topografix.com/GPX/1/1" xmlns:xsi="http://www.w3.org/2001/XMLSchema-instance" xsi:schemaLocation="http://www.topografix.com/GPX/1/1 http://www.topografix.com/GPX/1/1/gpx.xsd" version="1.1" creator="VisuGPX - https://www.visugpx.com">
  <metadata>
    <name>Brevet Alpin du Mounier</name>
    <desc><![CDATA[Randonnée trail organisée par le CAF de Nice au départ d'Auron. Ascension du Mounier pour retour rallongé vers St-Sauveur. Descentes très difficiles à la fin.]]></desc>
  </metadata>
  <trk>
    <name><![CDATA[Track 001]]></name>
    <trkseg>
      <trkpt lat="44.22139" lon="6.92633">
        <ele>1656.5</ele>
        <time>2009-07-05T01:06:35Z</time>
      </trkpt>
      <trkpt lat="44.22112" lon="6.92611">
        <ele>1659.4</ele>
        <time>2009-07-05T01:09:52Z</time>
      </trkpt>
      <trkpt lat="44.22087" lon="6.92595">
        <ele>1658.9</ele>
        <time>2009-07-05T01:10:09Z</time>
      </trkpt>
      <trkpt lat="44.22064" lon="6.92574">
        <ele>1658.9</ele>
        <time>2009-07-05T01:10:26Z</time>
      </trkpt>
      <trkpt lat="44.22049" lon="6.92545">
        <ele>1657</ele>
        <time>2009-07-05T01:10:42Z</time>
      </trkpt>
      <trkpt lat="44.22025" lon="6.92535">
        <ele>1657.5</ele>
        <time>2009-07-05T01:11:00Z</time>
      </trkpt>
      <trkpt lat="44.22003" lon="6.92512">
        <ele>1656</ele>
        <time>2009-07-05T01:11:17Z</time>
      </trkpt>
      <trkpt lat="44.21983" lon="6.92507">
        <ele>1654.6</ele>
        <time>2009-07-05T01:11:35Z</time>
      </trkpt>
      <trkpt lat="44.21963" lon="6.92534">
        <ele>1649.3</ele>
        <time>2009-07-05T01:11:53Z</time>
      </trkpt>
      <trkpt lat="44.21956" lon="6.92567">
        <ele>1644</ele>
        <time>2009-07-05T01:12:13Z</time>
      </trkpt>
      <trkpt lat="44.21971" lon="6.92599">
        <ele>1637.7</ele>
        <time>2009-07-05T01:12:31Z</time>
      </trkpt>
      <trkpt lat="44.21981" lon="6.92638">
        <ele>1629.6</ele>
        <time>2009-07-05T01:12:51Z</time>
      </trkpt>
      <trkpt lat="44.21984" lon="6.92681">
        <ele>1623.8</ele>
        <time>2009-07-05T01:13:10Z</time>
      </trkpt>
      <trkpt lat="44.21986" lon="6.92723">
        <ele>1624.3</ele>
        <time>2009-07-05T01:13:28Z</time>
      </trkpt>
      <trkpt lat="44.21985" lon="6.92762">
        <ele>1622.8</ele>
        <time>2009-07-05T01:13:46Z</time>
      </trkpt>
      <trkpt lat="44.21978" lon="6.92802">
        <ele>1621.9</ele>
        <time>2009-07-05T01:14:04Z</time>
      </trkpt>
      <trkpt lat="44.21979" lon="6.92839">
        <ele>1623.8</ele>
        <time>2009-07-05T01:14:22Z</time>
      </trkpt>
      <trkpt lat="44.21985" lon="6.92875">
        <ele>1624.3</ele>
        <time>2009-07-05T01:14:40Z</time>
      </trkpt>
      <trkpt lat="44.21971" lon="6.92908">
        <ele>1626.2</ele>
        <time>2009-07-05T01:15:00Z</time>
      </trkpt>
      <trkpt lat="44.21947" lon="6.92918">
        <ele>1626.7</ele>
        <time>2009-07-05T01:15:19Z</time>
      </trkpt>
      <trkpt lat="44.21919" lon="6.92924">
        <ele>1629.6</ele>
        <time>2009-07-05T01:15:38Z</time>
      </trkpt>
      <trkpt lat="44.21892" lon="6.92908">
        <ele>1635.3</ele>
        <time>2009-07-05T01:15:59Z</time>
      </trkpt>
      <trkpt lat="44.21876" lon="6.92875">
        <ele>1639.2</ele>
        <time>2009-07-05T01:16:17Z</time>
      </trkpt>
      <trkpt lat="44.21861" lon="6.92845">
        <ele>1640.6</ele>
        <time>2009-07-05T01:16:35Z</time>
      </trkpt>
      <trkpt lat="44.21846" lon="6.92813">
        <ele>1641.1</ele>
        <time>2009-07-05T01:16:52Z</time>
      </trkpt>
      <trkpt lat="44.21839" lon="6.92826">
        <ele>1640.6</ele>
        <time>2009-07-05T01:17:17Z</time>
      </trkpt>
      <trkpt lat="44.21837" lon="6.92864">
        <ele>1647.4</ele>
        <time>2009-07-05T01:17:36Z</time>
      </trkpt>
      <trkpt lat="44.21837" lon="6.92905">
        <ele>1658.4</ele>
        <time>2009-07-05T01:18:01Z</time>
      </trkpt>
      <trkpt lat="44.21829" lon="6.92949">
        <ele>1670.9</ele>
        <time>2009-07-05T01:18:45Z</time>
      </trkpt>
      <trkpt lat="44.21827" lon="6.92987">
        <ele>1670.9</ele>
        <time>2009-07-05T01:19:24Z</time>
      </trkpt>
      <trkpt lat="44.21828" lon="6.93027">
        <ele>1675.2</ele>
        <time>2009-07-05T01:19:57Z</time>
      </trkpt>
      <trkpt lat="44.21824" lon="6.93072">
        <ele>1682.4</ele>
        <time>2009-07-05T01:20:32Z</time>
      </trkpt>
      <trkpt lat="44.21815" lon="6.93109">
        <ele>1694</ele>
        <time>2009-07-05T01:21:04Z</time>
      </trkpt>
      <trkpt lat="44.21812" lon="6.93147">
        <ele>1702.6</ele>
        <time>2009-07-05T01:21:32Z</time>
      </trkpt>
      <trkpt lat="44.21795" lon="6.93179">
        <ele>1705.5</ele>
        <time>2009-07-05T01:22:00Z</time>
      </trkpt>
      <trkpt lat="44.21784" lon="6.93213">
        <ele>1712.7</ele>
        <time>2009-07-05T01:22:27Z</time>
      </trkpt>
      <trkpt lat="44.21767" lon="6.93242">
        <ele>1709.8</ele>
        <time>2009-07-05T01:22:47Z</time>
      </trkpt>
      <trkpt lat="44.21748" lon="6.93266">
        <ele>1702.6</ele>
        <time>2009-07-05T01:23:04Z</time>
      </trkpt>
      <trkpt lat="44.21723" lon="6.9327">
        <ele>1698.3</ele>
        <time>2009-07-05T01:23:22Z</time>
      </trkpt>
      <trkpt lat="44.2169" lon="6.93277">
        <ele>1697.3</ele>
        <time>2009-07-05T01:23:42Z</time>
      </trkpt>
      <trkpt lat="44.21658" lon="6.93292">
        <ele>1695.4</ele>
        <time>2009-07-05T01:24:07Z</time>
      </trkpt>
      <trkpt lat="44.21616" lon="6.93306">
        <ele>1694</ele>
        <time>2009-07-05T01:24:31Z</time>
      </trkpt>
      <trkpt lat="44.21584" lon="6.9333">
        <ele>1694.5</ele>
        <time>2009-07-05T01:25:00Z</time>
      </trkpt>
      <trkpt lat="44.21555" lon="6.93362">
        <ele>1699.7</ele>
        <time>2009-07-05T01:25:31Z</time>
      </trkpt>
      <trkpt lat="44.21531" lon="6.93408">
        <ele>1706.5</ele>
        <time>2009-07-05T01:26:04Z</time>
      </trkpt>
      <trkpt lat="44.21504" lon="6.93443">
        <ele>1720.9</ele>
        <time>2009-07-05T01:26:34Z</time>
      </trkpt>
      <trkpt lat="44.21575" lon="6.93467">
        <ele>1738.7</ele>
        <time>2009-07-05T01:27:36Z</time>
      </trkpt>
      <trkpt lat="44.21586" lon="6.93571">
        <ele>1755.5</ele>
        <time>2009-07-05T01:28:58Z</time>
      </trkpt>
      <trkpt lat="44.21546" lon="6.93633">
        <ele>1761.3</ele>
        <time>2009-07-05T01:29:45Z</time>
      </trkpt>
      <trkpt lat="44.21507" lon="6.93664">
        <ele>1767</ele>
        <time>2009-07-05T01:30:13Z</time>
      </trkpt>
      <trkpt lat="44.21464" lon="6.93688">
        <ele>1777.6</ele>
        <time>2009-07-05T01:30:36Z</time>
      </trkpt>
      <trkpt lat="44.21431" lon="6.93718">
        <ele>1793.5</ele>
        <time>2009-07-05T01:31:11Z</time>
      </trkpt>
      <trkpt lat="44.21443" lon="6.93755">
        <ele>1799.2</ele>
        <time>2009-07-05T01:32:03Z</time>
      </trkpt>
      <trkpt lat="44.21477" lon="6.93801">
        <ele>1799.7</ele>
        <time>2009-07-05T01:32:28Z</time>
      </trkpt>
      <trkpt lat="44.21504" lon="6.93852">
        <ele>1802.1</ele>
        <time>2009-07-05T01:32:55Z</time>
      </trkpt>
      <trkpt lat="44.21526" lon="6.93902">
        <ele>1801.2</ele>
        <time>2009-07-05T01:33:26Z</time>
      </trkpt>
      <trkpt lat="44.21527" lon="6.93955">
        <ele>1803.1</ele>
        <time>2009-07-05T01:33:56Z</time>
      </trkpt>
      <trkpt lat="44.21519" lon="6.94005">
        <ele>1807.9</ele>
        <time>2009-07-05T01:34:21Z</time>
      </trkpt>
      <trkpt lat="44.21401" lon="6.9393">
        <ele>1820.9</ele>
        <time>2009-07-05T01:36:25Z</time>
      </trkpt>
      <trkpt lat="44.21389" lon="6.93927">
        <ele>1837.2</ele>
        <time>2009-07-05T01:36:48Z</time>
      </trkpt>
      <trkpt lat="44.21391" lon="6.93962">
        <ele>1847.8</ele>
        <time>2009-07-05T01:37:08Z</time>
      </trkpt>
      <trkpt lat="44.21379" lon="6.93995">
        <ele>1854</ele>
        <time>2009-07-05T01:37:31Z</time>
      </trkpt>
      <trkpt lat="44.21357" lon="6.94019">
        <ele>1855.5</ele>
        <time>2009-07-05T01:37:52Z</time>
      </trkpt>
      <trkpt lat="44.21335" lon="6.9404">
        <ele>1859.8</ele>
        <time>2009-07-05T01:38:12Z</time>
      </trkpt>
      <trkpt lat="44.21313" lon="6.94064">
        <ele>1860.3</ele>
        <time>2009-07-05T01:38:31Z</time>
      </trkpt>
      <trkpt lat="44.21295" lon="6.94093">
        <ele>1861.2</ele>
        <time>2009-07-05T01:38:49Z</time>
      </trkpt>
      <trkpt lat="44.21276" lon="6.9412">
        <ele>1861.2</ele>
        <time>2009-07-05T01:39:03Z</time>
      </trkpt>
      <trkpt lat="44.21259" lon="6.94149">
        <ele>1864.1</ele>
        <time>2009-07-05T01:39:20Z</time>
      </trkpt>
      <trkpt lat="44.21243" lon="6.94179">
        <ele>1869.4</ele>
        <time>2009-07-05T01:39:37Z</time>
      </trkpt>
      <trkpt lat="44.21227" lon="6.9421">
        <ele>1872.3</ele>
        <time>2009-07-05T01:39:55Z</time>
      </trkpt>
      <trkpt lat="44.21211" lon="6.94243">
        <ele>1874.7</ele>
        <time>2009-07-05T01:40:13Z</time>
      </trkpt>
      <trkpt lat="44.21201" lon="6.94284">
        <ele>1879</ele>
        <time>2009-07-05T01:40:37Z</time>
      </trkpt>
      <trkpt lat="44.21201" lon="6.94333">
        <ele>1886.7</ele>
        <time>2009-07-05T01:41:02Z</time>
      </trkpt>
      <trkpt lat="44.21196" lon="6.94378">
        <ele>1898.7</ele>
        <time>2009-07-05T01:41:29Z</time>
      </trkpt>
      <trkpt lat="44.21188" lon="6.94428">
        <ele>1917.5</ele>
        <time>2009-07-05T01:42:02Z</time>
      </trkpt>
      <trkpt lat="44.21177" lon="6.94478">
        <ele>1925.2</ele>
        <time>2009-07-05T01:42:35Z</time>
      </trkpt>
      <trkpt lat="44.21151" lon="6.9451">
        <ele>1931.4</ele>
        <time>2009-07-05T01:43:10Z</time>
      </trkpt>
      <trkpt lat="44.21144" lon="6.94479">
        <ele>1931.4</ele>
        <time>2009-07-05T01:43:29Z</time>
      </trkpt>
      <trkpt lat="44.21132" lon="6.94449">
        <ele>1932.9</ele>
        <time>2009-07-05T01:43:51Z</time>
      </trkpt>
      <trkpt lat="44.21115" lon="6.94417">
        <ele>1941.5</ele>
        <time>2009-07-05T01:44:13Z</time>
      </trkpt>
      <trkpt lat="44.211" lon="6.94381">
        <ele>1951.6</ele>
        <time>2009-07-05T01:44:35Z</time>
      </trkpt>
      <trkpt lat="44.21091" lon="6.94345">
        <ele>1960.3</ele>
        <time>2009-07-05T01:44:55Z</time>
      </trkpt>
      <trkpt lat="44.21081" lon="6.94382">
        <ele>1971.8</ele>
        <time>2009-07-05T01:45:33Z</time>
      </trkpt>
      <trkpt lat="44.21073" lon="6.94427">
        <ele>1969.9</ele>
        <time>2009-07-05T01:46:02Z</time>
      </trkpt>
      <trkpt lat="44.21063" lon="6.94458">
        <ele>1972.3</ele>
        <time>2009-07-05T01:46:34Z</time>
      </trkpt>
      <trkpt lat="44.21037" lon="6.9443">
        <ele>1980.5</ele>
        <time>2009-07-05T01:47:04Z</time>
      </trkpt>
      <trkpt lat="44.21018" lon="6.9439">
        <ele>1991</ele>
        <time>2009-07-05T01:47:37Z</time>
      </trkpt>
      <trkpt lat="44.20982" lon="6.9435">
        <ele>1996.8</ele>
        <time>2009-07-05T01:48:10Z</time>
      </trkpt>
      <trkpt lat="44.20957" lon="6.94318">
        <ele>2003</ele>
        <time>2009-07-05T01:48:43Z</time>
      </trkpt>
      <trkpt lat="44.20937" lon="6.94293">
        <ele>2009.8</ele>
        <time>2009-07-05T01:49:21Z</time>
      </trkpt>
      <trkpt lat="44.20907" lon="6.94315">
        <ele>2013.6</ele>
        <time>2009-07-05T01:49:54Z</time>
      </trkpt>
      <trkpt lat="44.20892" lon="6.94323">
        <ele>2013.6</ele>
        <time>2009-07-05T01:51:02Z</time>
      </trkpt>
      <trkpt lat="44.20863" lon="6.94304">
        <ele>2006.4</ele>
        <time>2009-07-05T01:51:22Z</time>
      </trkpt>
      <trkpt lat="44.20837" lon="6.9428">
        <ele>2001.6</ele>
        <time>2009-07-05T01:51:44Z</time>
      </trkpt>
      <trkpt lat="44.20811" lon="6.94265">
        <ele>1996.8</ele>
        <time>2009-07-05T01:52:03Z</time>
      </trkpt>
      <trkpt lat="44.20789" lon="6.9424">
        <ele>1996.3</ele>
        <time>2009-07-05T01:52:23Z</time>
      </trkpt>
      <trkpt lat="44.20774" lon="6.94205">
        <ele>1998.2</ele>
        <time>2009-07-05T01:52:43Z</time>
      </trkpt>
      <trkpt lat="44.20758" lon="6.94168">
        <ele>1996.8</ele>
        <time>2009-07-05T01:53:04Z</time>
      </trkpt>
      <trkpt lat="44.20738" lon="6.94138">
        <ele>1994.9</ele>
        <time>2009-07-05T01:53:23Z</time>
      </trkpt>
      <trkpt lat="44.20722" lon="6.94104">
        <ele>1989.1</ele>
        <time>2009-07-05T01:53:42Z</time>
      </trkpt>
      <trkpt lat="44.20701" lon="6.94077">
        <ele>1987.2</ele>
        <time>2009-07-05T01:54:01Z</time>
      </trkpt>
      <trkpt lat="44.20681" lon="6.9405">
        <ele>1980.9</ele>
        <time>2009-07-05T01:54:20Z</time>
      </trkpt>
      <trkpt lat="44.20655" lon="6.94033">
        <ele>1972.3</ele>
        <time>2009-07-05T01:54:39Z</time>
      </trkpt>
      <trkpt lat="44.20629" lon="6.94016">
        <ele>1966</ele>
        <time>2009-07-05T01:54:57Z</time>
      </trkpt>
      <trkpt lat="44.20604" lon="6.94002">
        <ele>1958.8</ele>
        <time>2009-07-05T01:55:15Z</time>
      </trkpt>
      <trkpt lat="44.20578" lon="6.93992">
        <ele>1955.9</ele>
        <time>2009-07-05T01:55:34Z</time>
      </trkpt>
      <trkpt lat="44.20549" lon="6.93987">
        <ele>1952.1</ele>
        <time>2009-07-05T01:55:52Z</time>
      </trkpt>
      <trkpt lat="44.20521" lon="6.93986">
        <ele>1951.6</ele>
        <time>2009-07-05T01:56:11Z</time>
      </trkpt>
      <trkpt lat="44.20494" lon="6.9398">
        <ele>1951.1</ele>
        <time>2009-07-05T01:56:30Z</time>
      </trkpt>
      <trkpt lat="44.20467" lon="6.93981">
        <ele>1947.8</ele>
        <time>2009-07-05T01:56:49Z</time>
      </trkpt>
      <trkpt lat="44.20441" lon="6.93973">
        <ele>1940.6</ele>
        <time>2009-07-05T01:57:06Z</time>
      </trkpt>
      <trkpt lat="44.2042" lon="6.93961">
        <ele>1936.7</ele>
        <time>2009-07-05T01:57:33Z</time>
      </trkpt>
      <trkpt lat="44.20417" lon="6.93996">
        <ele>1922.8</ele>
        <time>2009-07-05T01:57:57Z</time>
      </trkpt>
      <trkpt lat="44.20392" lon="6.93977">
        <ele>1913.2</ele>
        <time>2009-07-05T01:58:20Z</time>
      </trkpt>
      <trkpt lat="44.20369" lon="6.93954">
        <ele>1911.2</ele>
        <time>2009-07-05T01:58:39Z</time>
      </trkpt>
      <trkpt lat="44.20343" lon="6.93945">
        <ele>1903.5</ele>
        <time>2009-07-05T01:58:59Z</time>
      </trkpt>
      <trkpt lat="44.20316" lon="6.93943">
        <ele>1895.4</ele>
        <time>2009-07-05T01:59:19Z</time>
      </trkpt>
      <trkpt lat="44.20288" lon="6.93946">
        <ele>1891.1</ele>
        <time>2009-07-05T01:59:42Z</time>
      </trkpt>
      <trkpt lat="44.2026" lon="6.93957">
        <ele>1884.8</ele>
        <time>2009-07-05T02:00:02Z</time>
      </trkpt>
      <trkpt lat="44.20232" lon="6.93974">
        <ele>1879.5</ele>
        <time>2009-07-05T02:00:21Z</time>
      </trkpt>
      <trkpt lat="44.20209" lon="6.93983">
        <ele>1874.2</ele>
        <time>2009-07-05T02:00:40Z</time>
      </trkpt>
      <trkpt lat="44.20181" lon="6.93987">
        <ele>1869.9</ele>
        <time>2009-07-05T02:00:59Z</time>
      </trkpt>
      <trkpt lat="44.20152" lon="6.93985">
        <ele>1865.6</ele>
        <time>2009-07-05T02:01:18Z</time>
      </trkpt>
      <trkpt lat="44.20124" lon="6.93986">
        <ele>1861.2</ele>
        <time>2009-07-05T02:01:37Z</time>
      </trkpt>
      <trkpt lat="44.20096" lon="6.9399">
        <ele>1863.2</ele>
        <time>2009-07-05T02:01:56Z</time>
      </trkpt>
      <trkpt lat="44.20075" lon="6.93966">
        <ele>1862.2</ele>
        <time>2009-07-05T02:02:16Z</time>
      </trkpt>
      <trkpt lat="44.20065" lon="6.93931">
        <ele>1858.4</ele>
        <time>2009-07-05T02:02:35Z</time>
      </trkpt>
      <trkpt lat="44.20053" lon="6.93895">
        <ele>1853.1</ele>
        <time>2009-07-05T02:02:53Z</time>
      </trkpt>
      <trkpt lat="44.20046" lon="6.9386">
        <ele>1848.3</ele>
        <time>2009-07-05T02:03:10Z</time>
      </trkpt>
      <trkpt lat="44.20055" lon="6.93831">
        <ele>1839.6</ele>
        <time>2009-07-05T02:03:26Z</time>
      </trkpt>
      <trkpt lat="44.20065" lon="6.93799">
        <ele>1834.8</ele>
        <time>2009-07-05T02:03:41Z</time>
      </trkpt>
      <trkpt lat="44.20073" lon="6.93769">
        <ele>1832.9</ele>
        <time>2009-07-05T02:03:56Z</time>
      </trkpt>
      <trkpt lat="44.20077" lon="6.93741">
        <ele>1827.6</ele>
        <time>2009-07-05T02:04:09Z</time>
      </trkpt>
      <trkpt lat="44.20086" lon="6.93713">
        <ele>1831</ele>
        <time>2009-07-05T02:04:24Z</time>
      </trkpt>
      <trkpt lat="44.20084" lon="6.93676">
        <ele>1828.1</ele>
        <time>2009-07-05T02:04:42Z</time>
      </trkpt>
      <trkpt lat="44.20068" lon="6.9365">
        <ele>1824.7</ele>
        <time>2009-07-05T02:05:00Z</time>
      </trkpt>
      <trkpt lat="44.20053" lon="6.93616">
        <ele>1820.9</ele>
        <time>2009-07-05T02:05:18Z</time>
      </trkpt>
      <trkpt lat="44.20047" lon="6.93581">
        <ele>1820.4</ele>
        <time>2009-07-05T02:05:36Z</time>
      </trkpt>
      <trkpt lat="44.20037" lon="6.93547">
        <ele>1815.6</ele>
        <time>2009-07-05T02:05:54Z</time>
      </trkpt>
      <trkpt lat="44.20023" lon="6.93517">
        <ele>1812.7</ele>
        <time>2009-07-05T02:06:13Z</time>
      </trkpt>
      <trkpt lat="44.20005" lon="6.93481">
        <ele>1809.3</ele>
        <time>2009-07-05T02:06:32Z</time>
      </trkpt>
      <trkpt lat="44.19993" lon="6.93444">
        <ele>1806.5</ele>
        <time>2009-07-05T02:06:52Z</time>
      </trkpt>
      <trkpt lat="44.1997" lon="6.93411">
        <ele>1801.6</ele>
        <time>2009-07-05T02:07:18Z</time>
      </trkpt>
      <trkpt lat="44.19976" lon="6.93371">
        <ele>1795.9</ele>
        <time>2009-07-05T02:07:41Z</time>
      </trkpt>
      <trkpt lat="44.19992" lon="6.93336">
        <ele>1790.6</ele>
        <time>2009-07-05T02:08:00Z</time>
      </trkpt>
      <trkpt lat="44.20011" lon="6.9331">
        <ele>1784.3</ele>
        <time>2009-07-05T02:08:18Z</time>
      </trkpt>
      <trkpt lat="44.20028" lon="6.93281">
        <ele>1782.9</ele>
        <time>2009-07-05T02:08:38Z</time>
      </trkpt>
      <trkpt lat="44.20023" lon="6.93243">
        <ele>1777.6</ele>
        <time>2009-07-05T02:08:57Z</time>
      </trkpt>
      <trkpt lat="44.20025" lon="6.93205">
        <ele>1772.3</ele>
        <time>2009-07-05T02:09:16Z</time>
      </trkpt>
      <trkpt lat="44.20032" lon="6.93168">
        <ele>1774.3</ele>
        <time>2009-07-05T02:09:35Z</time>
      </trkpt>
      <trkpt lat="44.2003" lon="6.93128">
        <ele>1773.8</ele>
        <time>2009-07-05T02:09:54Z</time>
      </trkpt>
      <trkpt lat="44.20028" lon="6.93091">
        <ele>1771.8</ele>
        <time>2009-07-05T02:10:13Z</time>
      </trkpt>
      <trkpt lat="44.20029" lon="6.93053">
        <ele>1768.5</ele>
        <time>2009-07-05T02:10:34Z</time>
      </trkpt>
      <trkpt lat="44.20034" lon="6.93015">
        <ele>1768</ele>
        <time>2009-07-05T02:10:54Z</time>
      </trkpt>
      <trkpt lat="44.20035" lon="6.92976">
        <ele>1768</ele>
        <time>2009-07-05T02:11:14Z</time>
      </trkpt>
      <trkpt lat="44.20031" lon="6.92933">
        <ele>1769.9</ele>
        <time>2009-07-05T02:11:38Z</time>
      </trkpt>
      <trkpt lat="44.20035" lon="6.92892">
        <ele>1768</ele>
        <time>2009-07-05T02:12:00Z</time>
      </trkpt>
      <trkpt lat="44.20041" lon="6.92858">
        <ele>1764.6</ele>
        <time>2009-07-05T02:12:20Z</time>
      </trkpt>
      <trkpt lat="44.20021" lon="6.9283">
        <ele>1768</ele>
        <time>2009-07-05T02:12:43Z</time>
      </trkpt>
      <trkpt lat="44.20003" lon="6.92801">
        <ele>1773.3</ele>
        <time>2009-07-05T02:12:58Z</time>
      </trkpt>
      <trkpt lat="44.19992" lon="6.92778">
        <ele>1773.3</ele>
        <time>2009-07-05T02:13:11Z</time>
      </trkpt>
      <trkpt lat="44.19977" lon="6.92756">
        <ele>1771.8</ele>
        <time>2009-07-05T02:13:25Z</time>
      </trkpt>
      <trkpt lat="44.19962" lon="6.92733">
        <ele>1766.1</ele>
        <time>2009-07-05T02:13:41Z</time>
      </trkpt>
      <trkpt lat="44.19953" lon="6.92702">
        <ele>1759.4</ele>
        <time>2009-07-05T02:14:01Z</time>
      </trkpt>
      <trkpt lat="44.19935" lon="6.92678">
        <ele>1759.8</ele>
        <time>2009-07-05T02:14:22Z</time>
      </trkpt>
      <trkpt lat="44.19906" lon="6.92706">
        <ele>1757.9</ele>
        <time>2009-07-05T02:14:50Z</time>
      </trkpt>
      <trkpt lat="44.19888" lon="6.9273">
        <ele>1759.8</ele>
        <time>2009-07-05T02:15:13Z</time>
      </trkpt>
      <trkpt lat="44.19844" lon="6.92749">
        <ele>1767.5</ele>
        <time>2009-07-05T02:17:05Z</time>
      </trkpt>
      <trkpt lat="44.1983" lon="6.92788">
        <ele>1779.5</ele>
        <time>2009-07-05T02:17:27Z</time>
      </trkpt>
      <trkpt lat="44.19807" lon="6.92805">
        <ele>1781.5</ele>
        <time>2009-07-05T02:17:46Z</time>
      </trkpt>
      <trkpt lat="44.19779" lon="6.9281">
        <ele>1782.9</ele>
        <time>2009-07-05T02:18:04Z</time>
      </trkpt>
      <trkpt lat="44.1975" lon="6.92808">
        <ele>1781.9</ele>
        <time>2009-07-05T02:18:23Z</time>
      </trkpt>
      <trkpt lat="44.19721" lon="6.928">
        <ele>1776.2</ele>
        <time>2009-07-05T02:18:46Z</time>
      </trkpt>
      <trkpt lat="44.1969" lon="6.92798">
        <ele>1773.3</ele>
        <time>2009-07-05T02:19:28Z</time>
      </trkpt>
      <trkpt lat="44.19686" lon="6.92766">
        <ele>1778.1</ele>
        <time>2009-07-05T02:20:15Z</time>
      </trkpt>
      <trkpt lat="44.19705" lon="6.92736">
        <ele>1782.9</ele>
        <time>2009-07-05T02:20:55Z</time>
      </trkpt>
      <trkpt lat="44.19697" lon="6.92742">
        <ele>1783.4</ele>
        <time>2009-07-05T02:21:41Z</time>
      </trkpt>
      <trkpt lat="44.19685" lon="6.92784">
        <ele>1780.5</ele>
        <time>2009-07-05T02:22:16Z</time>
      </trkpt>
      <trkpt lat="44.19661" lon="6.92817">
        <ele>1775.7</ele>
        <time>2009-07-05T02:22:47Z</time>
      </trkpt>
      <trkpt lat="44.19634" lon="6.92825">
        <ele>1770.4</ele>
        <time>2009-07-05T02:23:07Z</time>
      </trkpt>
      <trkpt lat="44.19613" lon="6.92847">
        <ele>1758.4</ele>
        <time>2009-07-05T02:23:40Z</time>
      </trkpt>
      <trkpt lat="44.19583" lon="6.9285">
        <ele>1751.7</ele>
        <time>2009-07-05T02:23:59Z</time>
      </trkpt>
      <trkpt lat="44.19564" lon="6.92834">
        <ele>1745.4</ele>
        <time>2009-07-05T02:24:20Z</time>
      </trkpt>
      <trkpt lat="44.19537" lon="6.92847">
        <ele>1730.5</ele>
        <time>2009-07-05T02:24:49Z</time>
      </trkpt>
      <trkpt lat="44.19506" lon="6.92863">
        <ele>1723.3</ele>
        <time>2009-07-05T02:25:19Z</time>
      </trkpt>
      <trkpt lat="44.19478" lon="6.92876">
        <ele>1713.2</ele>
        <time>2009-07-05T02:25:59Z</time>
      </trkpt>
      <trkpt lat="44.19466" lon="6.92913">
        <ele>1708.4</ele>
        <time>2009-07-05T02:26:20Z</time>
      </trkpt>
      <trkpt lat="44.19459" lon="6.92951">
        <ele>1698.8</ele>
        <time>2009-07-05T02:26:44Z</time>
      </trkpt>
      <trkpt lat="44.19434" lon="6.92932">
        <ele>1694</ele>
        <time>2009-07-05T02:27:04Z</time>
      </trkpt>
      <trkpt lat="44.19412" lon="6.92906">
        <ele>1691.1</ele>
        <time>2009-07-05T02:27:21Z</time>
      </trkpt>
      <trkpt lat="44.1939" lon="6.92877">
        <ele>1687.7</ele>
        <time>2009-07-05T02:27:39Z</time>
      </trkpt>
      <trkpt lat="44.19369" lon="6.92852">
        <ele>1686.3</ele>
        <time>2009-07-05T02:27:56Z</time>
      </trkpt>
      <trkpt lat="44.19353" lon="6.92829">
        <ele>1682.9</ele>
        <time>2009-07-05T02:28:18Z</time>
      </trkpt>
      <trkpt lat="44.1932" lon="6.92846">
        <ele>1677.2</ele>
        <time>2009-07-05T02:28:38Z</time>
      </trkpt>
      <trkpt lat="44.19292" lon="6.92858">
        <ele>1671.9</ele>
        <time>2009-07-05T02:28:55Z</time>
      </trkpt>
      <trkpt lat="44.19271" lon="6.92884">
        <ele>1665.1</ele>
        <time>2009-07-05T02:29:15Z</time>
      </trkpt>
      <trkpt lat="44.1925" lon="6.9291">
        <ele>1662.7</ele>
        <time>2009-07-05T02:29:31Z</time>
      </trkpt>
      <trkpt lat="44.19227" lon="6.92937">
        <ele>1654.1</ele>
        <time>2009-07-05T02:29:53Z</time>
      </trkpt>
      <trkpt lat="44.19221" lon="6.92971">
        <ele>1651.7</ele>
        <time>2009-07-05T02:30:09Z</time>
      </trkpt>
      <trkpt lat="44.19204" lon="6.92963">
        <ele>1649.3</ele>
        <time>2009-07-05T02:30:34Z</time>
      </trkpt>
      <trkpt lat="44.19182" lon="6.92969">
        <ele>1644.5</ele>
        <time>2009-07-05T02:30:57Z</time>
      </trkpt>
      <trkpt lat="44.19161" lon="6.92982">
        <ele>1633.9</ele>
        <time>2009-07-05T02:31:24Z</time>
      </trkpt>
      <trkpt lat="44.19143" lon="6.92998">
        <ele>1618.5</ele>
        <time>2009-07-05T02:31:58Z</time>
      </trkpt>
      <trkpt lat="44.19117" lon="6.92976">
        <ele>1602.2</ele>
        <time>2009-07-05T02:32:35Z</time>
      </trkpt>
      <trkpt lat="44.19107" lon="6.9296">
        <ele>1592.6</ele>
        <time>2009-07-05T02:33:32Z</time>
      </trkpt>
      <trkpt lat="44.19092" lon="6.92958">
        <ele>1588.7</ele>
        <time>2009-07-05T02:34:04Z</time>
      </trkpt>
      <trkpt lat="44.19096" lon="6.92918">
        <ele>1582.5</ele>
        <time>2009-07-05T02:34:24Z</time>
      </trkpt>
      <trkpt lat="44.19093" lon="6.92881">
        <ele>1572.9</ele>
        <time>2009-07-05T02:34:44Z</time>
      </trkpt>
      <trkpt lat="44.19073" lon="6.92845">
        <ele>1561.3</ele>
        <time>2009-07-05T02:35:09Z</time>
      </trkpt>
      <trkpt lat="44.19065" lon="6.92806">
        <ele>1549.8</ele>
        <time>2009-07-05T02:35:32Z</time>
      </trkpt>
      <trkpt lat="44.19052" lon="6.92774">
        <ele>1540.6</ele>
        <time>2009-07-05T02:35:50Z</time>
      </trkpt>
      <trkpt lat="44.19049" lon="6.92733">
        <ele>1533</ele>
        <time>2009-07-05T02:36:08Z</time>
      </trkpt>
      <trkpt lat="44.19029" lon="6.9272">
        <ele>1532.5</ele>
        <time>2009-07-05T02:36:25Z</time>
      </trkpt>
      <trkpt lat="44.1901" lon="6.9269">
        <ele>1527.2</ele>
        <time>2009-07-05T02:36:42Z</time>
      </trkpt>
      <trkpt lat="44.1899" lon="6.92671">
        <ele>1525.3</ele>
        <time>2009-07-05T02:36:58Z</time>
      </trkpt>
      <trkpt lat="44.18971" lon="6.92644">
        <ele>1521.9</ele>
        <time>2009-07-05T02:37:15Z</time>
      </trkpt>
      <trkpt lat="44.18955" lon="6.92618">
        <ele>1522.4</ele>
        <time>2009-07-05T02:37:32Z</time>
      </trkpt>
      <trkpt lat="44.18946" lon="6.92645">
        <ele>1526.2</ele>
        <time>2009-07-05T02:37:49Z</time>
      </trkpt>
      <trkpt lat="44.18969" lon="6.92683">
        <ele>1523.3</ele>
        <time>2009-07-05T02:38:10Z</time>
      </trkpt>
      <trkpt lat="44.18963" lon="6.92728">
        <ele>1520.9</ele>
        <time>2009-07-05T02:38:28Z</time>
      </trkpt>
      <trkpt lat="44.18965" lon="6.92769">
        <ele>1517.6</ele>
        <time>2009-07-05T02:38:44Z</time>
      </trkpt>
      <trkpt lat="44.18961" lon="6.9281">
        <ele>1515.2</ele>
        <time>2009-07-05T02:38:58Z</time>
      </trkpt>
      <trkpt lat="44.18968" lon="6.92842">
        <ele>1512.3</ele>
        <time>2009-07-05T02:39:14Z</time>
      </trkpt>
      <trkpt lat="44.18937" lon="6.92884">
        <ele>1511.8</ele>
        <time>2009-07-05T02:40:03Z</time>
      </trkpt>
      <trkpt lat="44.18955" lon="6.92892">
        <ele>1511.3</ele>
        <time>2009-07-05T02:40:27Z</time>
      </trkpt>
      <trkpt lat="44.18938" lon="6.92865">
        <ele>1501.2</ele>
        <time>2009-07-05T02:41:32Z</time>
      </trkpt>
      <trkpt lat="44.1893" lon="6.92848">
        <ele>1499.3</ele>
        <time>2009-07-05T02:42:02Z</time>
      </trkpt>
      <trkpt lat="44.18891" lon="6.92858">
        <ele>1504.6</ele>
        <time>2009-07-05T02:44:37Z</time>
      </trkpt>
      <trkpt lat="44.18896" lon="6.92816">
        <ele>1504.6</ele>
        <time>2009-07-05T02:44:54Z</time>
      </trkpt>
      <trkpt lat="44.18896" lon="6.92776">
        <ele>1503.2</ele>
        <time>2009-07-05T02:45:09Z</time>
      </trkpt>
      <trkpt lat="44.18875" lon="6.92767">
        <ele>1497.4</ele>
        <time>2009-07-05T02:45:33Z</time>
      </trkpt>
      <trkpt lat="44.18852" lon="6.9279">
        <ele>1489.2</ele>
        <time>2009-07-05T02:45:49Z</time>
      </trkpt>
      <trkpt lat="44.18827" lon="6.92811">
        <ele>1477.7</ele>
        <time>2009-07-05T02:46:11Z</time>
      </trkpt>
      <trkpt lat="44.18794" lon="6.92805">
        <ele>1471</ele>
        <time>2009-07-05T02:46:45Z</time>
      </trkpt>
      <trkpt lat="44.18784" lon="6.92763">
        <ele>1467.1</ele>
        <time>2009-07-05T02:47:07Z</time>
      </trkpt>
      <trkpt lat="44.18754" lon="6.92741">
        <ele>1466.1</ele>
        <time>2009-07-05T02:47:28Z</time>
      </trkpt>
      <trkpt lat="44.18724" lon="6.92722">
        <ele>1468.1</ele>
        <time>2009-07-05T02:47:58Z</time>
      </trkpt>
      <trkpt lat="44.18729" lon="6.92755">
        <ele>1474.3</ele>
        <time>2009-07-05T02:48:28Z</time>
      </trkpt>
      <trkpt lat="44.18701" lon="6.9276">
        <ele>1485.9</ele>
        <time>2009-07-05T02:49:13Z</time>
      </trkpt>
      <trkpt lat="44.18684" lon="6.92751">
        <ele>1492.1</ele>
        <time>2009-07-05T02:49:52Z</time>
      </trkpt>
      <trkpt lat="44.18664" lon="6.92724">
        <ele>1495.9</ele>
        <time>2009-07-05T02:50:23Z</time>
      </trkpt>
      <trkpt lat="44.18645" lon="6.92688">
        <ele>1500.3</ele>
        <time>2009-07-05T02:50:45Z</time>
      </trkpt>
      <trkpt lat="44.18616" lon="6.92663">
        <ele>1504.6</ele>
        <time>2009-07-05T02:51:10Z</time>
      </trkpt>
      <trkpt lat="44.18579" lon="6.9266">
        <ele>1502.7</ele>
        <time>2009-07-05T02:51:31Z</time>
      </trkpt>
      <trkpt lat="44.18544" lon="6.92661">
        <ele>1505.1</ele>
        <time>2009-07-05T02:51:58Z</time>
      </trkpt>
      <trkpt lat="44.18505" lon="6.92668">
        <ele>1515.7</ele>
        <time>2009-07-05T02:52:29Z</time>
      </trkpt>
      <trkpt lat="44.18478" lon="6.92655">
        <ele>1519.5</ele>
        <time>2009-07-05T02:52:58Z</time>
      </trkpt>
      <trkpt lat="44.18423" lon="6.92652">
        <ele>1526.7</ele>
        <time>2009-07-05T02:53:39Z</time>
      </trkpt>
      <trkpt lat="44.18386" lon="6.92653">
        <ele>1530.1</ele>
        <time>2009-07-05T02:54:07Z</time>
      </trkpt>
      <trkpt lat="44.18362" lon="6.9265">
        <ele>1543.5</ele>
        <time>2009-07-05T02:54:40Z</time>
      </trkpt>
      <trkpt lat="44.18324" lon="6.92682">
        <ele>1567.6</ele>
        <time>2009-07-05T02:56:02Z</time>
      </trkpt>
      <trkpt lat="44.18241" lon="6.927">
        <ele>1586.8</ele>
        <time>2009-07-05T02:57:39Z</time>
      </trkpt>
      <trkpt lat="44.18146" lon="6.92692">
        <ele>1595.4</ele>
        <time>2009-07-05T02:58:54Z</time>
      </trkpt>
      <trkpt lat="44.18132" lon="6.92737">
        <ele>1595.9</ele>
        <time>2009-07-05T02:59:15Z</time>
      </trkpt>
      <trkpt lat="44.18087" lon="6.927">
        <ele>1602.7</ele>
        <time>2009-07-05T02:59:43Z</time>
      </trkpt>
      <trkpt lat="44.18033" lon="6.92679">
        <ele>1614.2</ele>
        <time>2009-07-05T03:00:28Z</time>
      </trkpt>
      <trkpt lat="44.17961" lon="6.92668">
        <ele>1624.3</ele>
        <time>2009-07-05T03:01:20Z</time>
      </trkpt>
      <trkpt lat="44.17907" lon="6.92675">
        <ele>1626.2</ele>
        <time>2009-07-05T03:01:53Z</time>
      </trkpt>
      <trkpt lat="44.17868" lon="6.92668">
        <ele>1626.2</ele>
        <time>2009-07-05T03:02:18Z</time>
      </trkpt>
      <trkpt lat="44.17851" lon="6.92709">
        <ele>1621.4</ele>
        <time>2009-07-05T03:02:43Z</time>
      </trkpt>
      <trkpt lat="44.17834" lon="6.92744">
        <ele>1623.3</ele>
        <time>2009-07-05T03:03:08Z</time>
      </trkpt>
      <trkpt lat="44.17816" lon="6.92773">
        <ele>1630.5</ele>
        <time>2009-07-05T03:03:31Z</time>
      </trkpt>
      <trkpt lat="44.17709" lon="6.92781">
        <ele>1656</ele>
        <time>2009-07-05T03:05:09Z</time>
      </trkpt>
      <trkpt lat="44.17612" lon="6.92812">
        <ele>1667.1</ele>
        <time>2009-07-05T03:06:56Z</time>
      </trkpt>
      <trkpt lat="44.17564" lon="6.92842">
        <ele>1680.5</ele>
        <time>2009-07-05T03:07:57Z</time>
      </trkpt>
      <trkpt lat="44.17538" lon="6.92833">
        <ele>1690.1</ele>
        <time>2009-07-05T03:08:41Z</time>
      </trkpt>
      <trkpt lat="44.17504" lon="6.92837">
        <ele>1691.1</ele>
        <time>2009-07-05T03:09:07Z</time>
      </trkpt>
      <trkpt lat="44.17473" lon="6.92847">
        <ele>1692.5</ele>
        <time>2009-07-05T03:09:26Z</time>
      </trkpt>
      <trkpt lat="44.17445" lon="6.92852">
        <ele>1695.9</ele>
        <time>2009-07-05T03:09:48Z</time>
      </trkpt>
      <trkpt lat="44.17422" lon="6.92873">
        <ele>1698.3</ele>
        <time>2009-07-05T03:10:09Z</time>
      </trkpt>
      <trkpt lat="44.17405" lon="6.92905">
        <ele>1700.7</ele>
        <time>2009-07-05T03:10:33Z</time>
      </trkpt>
      <trkpt lat="44.17377" lon="6.92925">
        <ele>1707</ele>
        <time>2009-07-05T03:11:03Z</time>
      </trkpt>
      <trkpt lat="44.17356" lon="6.92945">
        <ele>1709.8</ele>
        <time>2009-07-05T03:11:28Z</time>
      </trkpt>
      <trkpt lat="44.17337" lon="6.92974">
        <ele>1712.7</ele>
        <time>2009-07-05T03:11:52Z</time>
      </trkpt>
      <trkpt lat="44.17313" lon="6.92996">
        <ele>1716.6</ele>
        <time>2009-07-05T03:12:13Z</time>
      </trkpt>
      <trkpt lat="44.17301" lon="6.9303">
        <ele>1720.9</ele>
        <time>2009-07-05T03:12:34Z</time>
      </trkpt>
      <trkpt lat="44.17271" lon="6.93056">
        <ele>1728.1</ele>
        <time>2009-07-05T03:13:09Z</time>
      </trkpt>
      <trkpt lat="44.17248" lon="6.93096">
        <ele>1735.3</ele>
        <time>2009-07-05T03:13:52Z</time>
      </trkpt>
      <trkpt lat="44.17232" lon="6.93137">
        <ele>1739.6</ele>
        <time>2009-07-05T03:14:29Z</time>
      </trkpt>
      <trkpt lat="44.17231" lon="6.93156">
        <ele>1752.1</ele>
        <time>2009-07-05T03:15:19Z</time>
      </trkpt>
      <trkpt lat="44.1734" lon="6.93239">
        <ele>1813.7</ele>
        <time>2009-07-05T03:20:11Z</time>
      </trkpt>
      <trkpt lat="44.17352" lon="6.9335">
        <ele>1847.3</ele>
        <time>2009-07-05T03:22:53Z</time>
      </trkpt>
      <trkpt lat="44.17326" lon="6.93407">
        <ele>1866.5</ele>
        <time>2009-07-05T03:24:19Z</time>
      </trkpt>
      <trkpt lat="44.1728" lon="6.93443">
        <ele>1872.8</ele>
        <time>2009-07-05T03:25:34Z</time>
      </trkpt>
      <trkpt lat="44.17246" lon="6.93479">
        <ele>1880.5</ele>
        <time>2009-07-05T03:26:24Z</time>
      </trkpt>
      <trkpt lat="44.1723" lon="6.93512">
        <ele>1882.9</ele>
        <time>2009-07-05T03:26:50Z</time>
      </trkpt>
      <trkpt lat="44.17214" lon="6.9354">
        <ele>1886.2</ele>
        <time>2009-07-05T03:27:18Z</time>
      </trkpt>
      <trkpt lat="44.17193" lon="6.93571">
        <ele>1890.6</ele>
        <time>2009-07-05T03:27:45Z</time>
      </trkpt>
      <trkpt lat="44.17174" lon="6.93592">
        <ele>1893.9</ele>
        <time>2009-07-05T03:28:09Z</time>
      </trkpt>
      <trkpt lat="44.17148" lon="6.93606">
        <ele>1899.7</ele>
        <time>2009-07-05T03:28:31Z</time>
      </trkpt>
      <trkpt lat="44.17115" lon="6.93619">
        <ele>1911.7</ele>
        <time>2009-07-05T03:29:07Z</time>
      </trkpt>
      <trkpt lat="44.17095" lon="6.9364">
        <ele>1919.4</ele>
        <time>2009-07-05T03:29:32Z</time>
      </trkpt>
      <trkpt lat="44.17068" lon="6.93664">
        <ele>1927.6</ele>
        <time>2009-07-05T03:30:04Z</time>
      </trkpt>
      <trkpt lat="44.17032" lon="6.93671">
        <ele>1935.8</ele>
        <time>2009-07-05T03:30:43Z</time>
      </trkpt>
      <trkpt lat="44.17007" lon="6.93687">
        <ele>1941</ele>
        <time>2009-07-05T03:31:10Z</time>
      </trkpt>
      <trkpt lat="44.16983" lon="6.9371">
        <ele>1945.4</ele>
        <time>2009-07-05T03:31:38Z</time>
      </trkpt>
      <trkpt lat="44.16963" lon="6.93728">
        <ele>1952.6</ele>
        <time>2009-07-05T03:32:00Z</time>
      </trkpt>
      <trkpt lat="44.16925" lon="6.93733">
        <ele>1967.5</ele>
        <time>2009-07-05T03:32:42Z</time>
      </trkpt>
      <trkpt lat="44.16881" lon="6.93742">
        <ele>1966</ele>
        <time>2009-07-05T03:33:43Z</time>
      </trkpt>
      <trkpt lat="44.16856" lon="6.93754">
        <ele>1957.9</ele>
        <time>2009-07-05T03:34:18Z</time>
      </trkpt>
      <trkpt lat="44.16817" lon="6.93782">
        <ele>1958.8</ele>
        <time>2009-07-05T03:34:54Z</time>
      </trkpt>
      <trkpt lat="44.1679" lon="6.93805">
        <ele>1957.9</ele>
        <time>2009-07-05T03:35:14Z</time>
      </trkpt>
      <trkpt lat="44.16771" lon="6.9383">
        <ele>1957.4</ele>
        <time>2009-07-05T03:35:34Z</time>
      </trkpt>
      <trkpt lat="44.16753" lon="6.93851">
        <ele>1957.9</ele>
        <time>2009-07-05T03:35:52Z</time>
      </trkpt>
      <trkpt lat="44.16734" lon="6.93882">
        <ele>1959.8</ele>
        <time>2009-07-05T03:36:12Z</time>
      </trkpt>
      <trkpt lat="44.16716" lon="6.939">
        <ele>1960.3</ele>
        <time>2009-07-05T03:36:36Z</time>
      </trkpt>
      <trkpt lat="44.16699" lon="6.93936">
        <ele>1958.8</ele>
        <time>2009-07-05T03:37:03Z</time>
      </trkpt>
      <trkpt lat="44.16688" lon="6.93973">
        <ele>1954</ele>
        <time>2009-07-05T03:37:26Z</time>
      </trkpt>
      <trkpt lat="44.16678" lon="6.94013">
        <ele>1948.7</ele>
        <time>2009-07-05T03:37:46Z</time>
      </trkpt>
      <trkpt lat="44.16673" lon="6.94053">
        <ele>1945.8</ele>
        <time>2009-07-05T03:38:02Z</time>
      </trkpt>
      <trkpt lat="44.16663" lon="6.94089">
        <ele>1944.9</ele>
        <time>2009-07-05T03:38:17Z</time>
      </trkpt>
      <trkpt lat="44.16654" lon="6.94127">
        <ele>1945.8</ele>
        <time>2009-07-05T03:38:32Z</time>
      </trkpt>
      <trkpt lat="44.16641" lon="6.94159">
        <ele>1947.8</ele>
        <time>2009-07-05T03:38:48Z</time>
      </trkpt>
      <trkpt lat="44.16626" lon="6.94189">
        <ele>1949.7</ele>
        <time>2009-07-05T03:39:08Z</time>
      </trkpt>
      <trkpt lat="44.16606" lon="6.94221">
        <ele>1954.5</ele>
        <time>2009-07-05T03:39:35Z</time>
      </trkpt>
      <trkpt lat="44.16602" lon="6.94256">
        <ele>1960.3</ele>
        <time>2009-07-05T03:39:59Z</time>
      </trkpt>
      <trkpt lat="44.16596" lon="6.9429">
        <ele>1967</ele>
        <time>2009-07-05T03:40:23Z</time>
      </trkpt>
      <trkpt lat="44.16583" lon="6.94327">
        <ele>1972.3</ele>
        <time>2009-07-05T03:40:43Z</time>
      </trkpt>
      <trkpt lat="44.16576" lon="6.94362">
        <ele>1978.5</ele>
        <time>2009-07-05T03:41:04Z</time>
      </trkpt>
      <trkpt lat="44.16565" lon="6.944">
        <ele>1986.7</ele>
        <time>2009-07-05T03:41:26Z</time>
      </trkpt>
      <trkpt lat="44.16554" lon="6.94432">
        <ele>1994.4</ele>
        <time>2009-07-05T03:41:50Z</time>
      </trkpt>
      <trkpt lat="44.16536" lon="6.94472">
        <ele>2002.6</ele>
        <time>2009-07-05T03:42:22Z</time>
      </trkpt>
      <trkpt lat="44.16518" lon="6.9452">
        <ele>2001.6</ele>
        <time>2009-07-05T03:43:03Z</time>
      </trkpt>
      <trkpt lat="44.16507" lon="6.94557">
        <ele>2006.4</ele>
        <time>2009-07-05T03:43:29Z</time>
      </trkpt>
      <trkpt lat="44.16509" lon="6.94618">
        <ele>2017.5</ele>
        <time>2009-07-05T03:44:36Z</time>
      </trkpt>
      <trkpt lat="44.16512" lon="6.94671">
        <ele>2018.9</ele>
        <time>2009-07-05T03:51:19Z</time>
      </trkpt>
      <trkpt lat="44.1651" lon="6.94703">
        <ele>2024.2</ele>
        <time>2009-07-05T03:51:54Z</time>
      </trkpt>
      <trkpt lat="44.16537" lon="6.94711">
        <ele>2030</ele>
        <time>2009-07-05T03:52:41Z</time>
      </trkpt>
      <trkpt lat="44.16577" lon="6.94698">
        <ele>2036.2</ele>
        <time>2009-07-05T03:53:18Z</time>
      </trkpt>
      <trkpt lat="44.16595" lon="6.94711">
        <ele>2048.2</ele>
        <time>2009-07-05T03:54:09Z</time>
      </trkpt>
      <trkpt lat="44.16577" lon="6.94773">
        <ele>2059.3</ele>
        <time>2009-07-05T03:55:31Z</time>
      </trkpt>
      <trkpt lat="44.16551" lon="6.94804">
        <ele>2058.3</ele>
        <time>2009-07-05T03:56:08Z</time>
      </trkpt>
      <trkpt lat="44.16524" lon="6.94838">
        <ele>2054.5</ele>
        <time>2009-07-05T03:56:55Z</time>
      </trkpt>
      <trkpt lat="44.16504" lon="6.94871">
        <ele>2051.1</ele>
        <time>2009-07-05T03:57:29Z</time>
      </trkpt>
      <trkpt lat="44.16536" lon="6.94878">
        <ele>2047.3</ele>
        <time>2009-07-05T03:58:09Z</time>
      </trkpt>
      <trkpt lat="44.1652" lon="6.94919">
        <ele>2035.2</ele>
        <time>2009-07-05T03:58:58Z</time>
      </trkpt>
      <trkpt lat="44.16552" lon="6.94944">
        <ele>2035.2</ele>
        <time>2009-07-05T04:00:01Z</time>
      </trkpt>
      <trkpt lat="44.16586" lon="6.94964">
        <ele>2053.5</ele>
        <time>2009-07-05T04:01:48Z</time>
      </trkpt>
      <trkpt lat="44.16596" lon="6.95001">
        <ele>2062.6</ele>
        <time>2009-07-05T04:02:58Z</time>
      </trkpt>
      <trkpt lat="44.16602" lon="6.9503">
        <ele>2072.7</ele>
        <time>2009-07-05T04:04:10Z</time>
      </trkpt>
      <trkpt lat="44.16542" lon="6.95096">
        <ele>2088.6</ele>
        <time>2009-07-05T04:06:33Z</time>
      </trkpt>
      <trkpt lat="44.16517" lon="6.95117">
        <ele>2089.6</ele>
        <time>2009-07-05T04:07:15Z</time>
      </trkpt>
      <trkpt lat="44.16491" lon="6.95133">
        <ele>2092</ele>
        <time>2009-07-05T04:07:50Z</time>
      </trkpt>
      <trkpt lat="44.16467" lon="6.95138">
        <ele>2103</ele>
        <time>2009-07-05T04:08:25Z</time>
      </trkpt>
      <trkpt lat="44.1643" lon="6.95138">
        <ele>2116.5</ele>
        <time>2009-07-05T04:09:10Z</time>
      </trkpt>
      <trkpt lat="44.16414" lon="6.95177">
        <ele>2133.8</ele>
        <time>2009-07-05T04:10:05Z</time>
      </trkpt>
      <trkpt lat="44.16382" lon="6.95207">
        <ele>2176.6</ele>
        <time>2009-07-05T04:10:40Z</time>
      </trkpt>
      <trkpt lat="44.16376" lon="6.9525">
        <ele>2224.6</ele>
        <time>2009-07-05T04:11:53Z</time>
      </trkpt>
      <trkpt lat="44.16381" lon="6.95278">
        <ele>2245.3</ele>
        <time>2009-07-05T04:12:56Z</time>
      </trkpt>
      <trkpt lat="44.16349" lon="6.95313">
        <ele>2247.7</ele>
        <time>2009-07-05T04:13:47Z</time>
      </trkpt>
      <trkpt lat="44.16319" lon="6.95344">
        <ele>2253.5</ele>
        <time>2009-07-05T04:14:23Z</time>
      </trkpt>
      <trkpt lat="44.16288" lon="6.95362">
        <ele>2251.1</ele>
        <time>2009-07-05T04:14:59Z</time>
      </trkpt>
      <trkpt lat="44.1626" lon="6.95384">
        <ele>2254.4</ele>
        <time>2009-07-05T04:15:24Z</time>
      </trkpt>
      <trkpt lat="44.16236" lon="6.95405">
        <ele>2253.5</ele>
        <time>2009-07-05T04:15:42Z</time>
      </trkpt>
      <trkpt lat="44.16208" lon="6.9541">
        <ele>2250.6</ele>
        <time>2009-07-05T04:16:03Z</time>
      </trkpt>
      <trkpt lat="44.16177" lon="6.95409">
        <ele>2253</ele>
        <time>2009-07-05T04:16:22Z</time>
      </trkpt>
      <trkpt lat="44.16149" lon="6.9541">
        <ele>2253.9</ele>
        <time>2009-07-05T04:16:39Z</time>
      </trkpt>
      <trkpt lat="44.16123" lon="6.95423">
        <ele>2253.9</ele>
        <time>2009-07-05T04:16:53Z</time>
      </trkpt>
      <trkpt lat="44.16095" lon="6.95427">
        <ele>2255.9</ele>
        <time>2009-07-05T04:17:07Z</time>
      </trkpt>
      <trkpt lat="44.16065" lon="6.95439">
        <ele>2258.3</ele>
        <time>2009-07-05T04:17:22Z</time>
      </trkpt>
      <trkpt lat="44.16036" lon="6.95427">
        <ele>2265.5</ele>
        <time>2009-07-05T04:18:01Z</time>
      </trkpt>
      <trkpt lat="44.16013" lon="6.9542">
        <ele>2269.8</ele>
        <time>2009-07-05T04:18:23Z</time>
      </trkpt>
      <trkpt lat="44.1599" lon="6.95416">
        <ele>2274.6</ele>
        <time>2009-07-05T04:18:45Z</time>
      </trkpt>
      <trkpt lat="44.15959" lon="6.95407">
        <ele>2277.5</ele>
        <time>2009-07-05T04:19:06Z</time>
      </trkpt>
      <trkpt lat="44.15929" lon="6.95406">
        <ele>2276.5</ele>
        <time>2009-07-05T04:19:39Z</time>
      </trkpt>
      <trkpt lat="44.15903" lon="6.95409">
        <ele>2274.6</ele>
        <time>2009-07-05T04:19:59Z</time>
      </trkpt>
      <trkpt lat="44.15879" lon="6.95397">
        <ele>2273.7</ele>
        <time>2009-07-05T04:20:21Z</time>
      </trkpt>
      <trkpt lat="44.15853" lon="6.95386">
        <ele>2278</ele>
        <time>2009-07-05T04:20:48Z</time>
      </trkpt>
      <trkpt lat="44.15829" lon="6.95394">
        <ele>2253.5</ele>
        <time>2009-07-05T04:21:12Z</time>
      </trkpt>
      <trkpt lat="44.15798" lon="6.95383">
        <ele>2246.3</ele>
        <time>2009-07-05T04:21:49Z</time>
      </trkpt>
      <trkpt lat="44.15772" lon="6.95388">
        <ele>2253</ele>
        <time>2009-07-05T04:22:22Z</time>
      </trkpt>
      <trkpt lat="44.15746" lon="6.95408">
        <ele>2256.4</ele>
        <time>2009-07-05T04:22:49Z</time>
      </trkpt>
      <trkpt lat="44.15719" lon="6.95428">
        <ele>2259.2</ele>
        <time>2009-07-05T04:23:14Z</time>
      </trkpt>
      <trkpt lat="44.15694" lon="6.95425">
        <ele>2263.6</ele>
        <time>2009-07-05T04:23:43Z</time>
      </trkpt>
      <trkpt lat="44.15655" lon="6.95403">
        <ele>2278.5</ele>
        <time>2009-07-05T04:25:24Z</time>
      </trkpt>
      <trkpt lat="44.15632" lon="6.95412">
        <ele>2291.9</ele>
        <time>2009-07-05T04:26:42Z</time>
      </trkpt>
      <trkpt lat="44.15608" lon="6.95417">
        <ele>2307.3</ele>
        <time>2009-07-05T04:27:28Z</time>
      </trkpt>
      <trkpt lat="44.15587" lon="6.95418">
        <ele>2323.6</ele>
        <time>2009-07-05T04:28:09Z</time>
      </trkpt>
      <trkpt lat="44.15563" lon="6.95423">
        <ele>2327.5</ele>
        <time>2009-07-05T04:28:58Z</time>
      </trkpt>
      <trkpt lat="44.15523" lon="6.95424">
        <ele>2333.3</ele>
        <time>2009-07-05T04:36:46Z</time>
      </trkpt>
      <trkpt lat="44.15493" lon="6.95431">
        <ele>2342.9</ele>
        <time>2009-07-05T04:37:29Z</time>
      </trkpt>
      <trkpt lat="44.15457" lon="6.95428">
        <ele>2352.5</ele>
        <time>2009-07-05T04:38:26Z</time>
      </trkpt>
      <trkpt lat="44.15372" lon="6.95407">
        <ele>2378.9</ele>
        <time>2009-07-05T04:41:10Z</time>
      </trkpt>
      <trkpt lat="44.15344" lon="6.95389">
        <ele>2390</ele>
        <time>2009-07-05T04:42:07Z</time>
      </trkpt>
      <trkpt lat="44.1532" lon="6.95359">
        <ele>2403</ele>
        <time>2009-07-05T04:42:48Z</time>
      </trkpt>
      <trkpt lat="44.15299" lon="6.95324">
        <ele>2409.7</ele>
        <time>2009-07-05T04:43:32Z</time>
      </trkpt>
      <trkpt lat="44.15277" lon="6.95286">
        <ele>2405.4</ele>
        <time>2009-07-05T04:44:17Z</time>
      </trkpt>
      <trkpt lat="44.15247" lon="6.95231">
        <ele>2407.3</ele>
        <time>2009-07-05T04:45:28Z</time>
      </trkpt>
      <trkpt lat="44.15217" lon="6.95202">
        <ele>2408.2</ele>
        <time>2009-07-05T04:46:08Z</time>
      </trkpt>
      <trkpt lat="44.15188" lon="6.95195">
        <ele>2407.8</ele>
        <time>2009-07-05T04:46:53Z</time>
      </trkpt>
      <trkpt lat="44.15157" lon="6.95187">
        <ele>2408.7</ele>
        <time>2009-07-05T04:47:30Z</time>
      </trkpt>
      <trkpt lat="44.15128" lon="6.9517">
        <ele>2415.9</ele>
        <time>2009-07-05T04:48:06Z</time>
      </trkpt>
      <trkpt lat="44.151" lon="6.95149">
        <ele>2424.1</ele>
        <time>2009-07-05T04:48:41Z</time>
      </trkpt>
      <trkpt lat="44.15078" lon="6.95119">
        <ele>2432.3</ele>
        <time>2009-07-05T04:49:15Z</time>
      </trkpt>
      <trkpt lat="44.15042" lon="6.95104">
        <ele>2434.7</ele>
        <time>2009-07-05T04:49:53Z</time>
      </trkpt>
      <trkpt lat="44.15011" lon="6.95087">
        <ele>2440</ele>
        <time>2009-07-05T04:50:39Z</time>
      </trkpt>
      <trkpt lat="44.14973" lon="6.95056">
        <ele>2448.6</ele>
        <time>2009-07-05T04:51:53Z</time>
      </trkpt>
      <trkpt lat="44.14951" lon="6.95061">
        <ele>2465.4</ele>
        <time>2009-07-05T04:52:56Z</time>
      </trkpt>
      <trkpt lat="44.14915" lon="6.95052">
        <ele>2477.9</ele>
        <time>2009-07-05T04:54:04Z</time>
      </trkpt>
      <trkpt lat="44.14893" lon="6.9507">
        <ele>2477.9</ele>
        <time>2009-07-05T04:54:56Z</time>
      </trkpt>
      <trkpt lat="44.1487" lon="6.95085">
        <ele>2483.2</ele>
        <time>2009-07-05T04:55:20Z</time>
      </trkpt>
      <trkpt lat="44.14845" lon="6.95099">
        <ele>2495.7</ele>
        <time>2009-07-05T04:55:50Z</time>
      </trkpt>
      <trkpt lat="44.14824" lon="6.95113">
        <ele>2506.3</ele>
        <time>2009-07-05T04:56:22Z</time>
      </trkpt>
      <trkpt lat="44.14797" lon="6.95128">
        <ele>2509.7</ele>
        <time>2009-07-05T04:56:57Z</time>
      </trkpt>
      <trkpt lat="44.14769" lon="6.95145">
        <ele>2508.7</ele>
        <time>2009-07-05T04:57:36Z</time>
      </trkpt>
      <trkpt lat="44.14746" lon="6.95164">
        <ele>2511.1</ele>
        <time>2009-07-05T04:58:25Z</time>
      </trkpt>
      <trkpt lat="44.14697" lon="6.9517">
        <ele>2533.2</ele>
        <time>2009-07-05T04:59:56Z</time>
      </trkpt>
      <trkpt lat="44.14667" lon="6.95184">
        <ele>2545.2</ele>
        <time>2009-07-05T05:00:33Z</time>
      </trkpt>
      <trkpt lat="44.14636" lon="6.95197">
        <ele>2552</ele>
        <time>2009-07-05T05:01:09Z</time>
      </trkpt>
      <trkpt lat="44.1461" lon="6.95205">
        <ele>2557.7</ele>
        <time>2009-07-05T05:01:41Z</time>
      </trkpt>
      <trkpt lat="44.14571" lon="6.95216">
        <ele>2564.5</ele>
        <time>2009-07-05T05:02:29Z</time>
      </trkpt>
      <trkpt lat="44.14531" lon="6.95228">
        <ele>2577</ele>
        <time>2009-07-05T05:03:23Z</time>
      </trkpt>
      <trkpt lat="44.1449" lon="6.95245">
        <ele>2585.1</ele>
        <time>2009-07-05T05:04:22Z</time>
      </trkpt>
      <trkpt lat="44.14465" lon="6.95256">
        <ele>2585.6</ele>
        <time>2009-07-05T05:05:02Z</time>
      </trkpt>
      <trkpt lat="44.1446" lon="6.95278">
        <ele>2586.1</ele>
        <time>2009-07-05T05:05:47Z</time>
      </trkpt>
      <trkpt lat="44.14505" lon="6.95295">
        <ele>2595.2</ele>
        <time>2009-07-05T05:07:37Z</time>
      </trkpt>
      <trkpt lat="44.14535" lon="6.953">
        <ele>2599.5</ele>
        <time>2009-07-05T05:08:04Z</time>
      </trkpt>
      <trkpt lat="44.14561" lon="6.95306">
        <ele>2600.5</ele>
        <time>2009-07-05T05:08:30Z</time>
      </trkpt>
      <trkpt lat="44.14587" lon="6.95315">
        <ele>2602.4</ele>
        <time>2009-07-05T05:08:56Z</time>
      </trkpt>
      <trkpt lat="44.14616" lon="6.95324">
        <ele>2600.5</ele>
        <time>2009-07-05T05:09:23Z</time>
      </trkpt>
      <trkpt lat="44.14643" lon="6.95334">
        <ele>2605.8</ele>
        <time>2009-07-05T05:09:49Z</time>
      </trkpt>
      <trkpt lat="44.14668" lon="6.95344">
        <ele>2612.5</ele>
        <time>2009-07-05T05:10:18Z</time>
      </trkpt>
      <trkpt lat="44.14682" lon="6.95352">
        <ele>2616.8</ele>
        <time>2009-07-05T05:10:46Z</time>
      </trkpt>
      <trkpt lat="44.14712" lon="6.95367">
        <ele>2621.7</ele>
        <time>2009-07-05T05:11:30Z</time>
      </trkpt>
      <trkpt lat="44.14741" lon="6.95367">
        <ele>2630.3</ele>
        <time>2009-07-05T05:12:10Z</time>
      </trkpt>
      <trkpt lat="44.14751" lon="6.9538">
        <ele>2638.5</ele>
        <time>2009-07-05T05:12:57Z</time>
      </trkpt>
      <trkpt lat="44.14772" lon="6.95392">
        <ele>2642.8</ele>
        <time>2009-07-05T05:13:37Z</time>
      </trkpt>
      <trkpt lat="44.14792" lon="6.95411">
        <ele>2651.9</ele>
        <time>2009-07-05T05:14:13Z</time>
      </trkpt>
      <trkpt lat="44.14808" lon="6.95441">
        <ele>2657.2</ele>
        <time>2009-07-05T05:14:37Z</time>
      </trkpt>
      <trkpt lat="44.1482" lon="6.95476">
        <ele>2666.8</ele>
        <time>2009-07-05T05:14:59Z</time>
      </trkpt>
      <trkpt lat="44.14829" lon="6.95509">
        <ele>2672.6</ele>
        <time>2009-07-05T05:15:20Z</time>
      </trkpt>
      <trkpt lat="44.14839" lon="6.95546">
        <ele>2668.3</ele>
        <time>2009-07-05T05:15:42Z</time>
      </trkpt>
      <trkpt lat="44.14855" lon="6.95579">
        <ele>2661.1</ele>
        <time>2009-07-05T05:16:02Z</time>
      </trkpt>
      <trkpt lat="44.14874" lon="6.95615">
        <ele>2655.3</ele>
        <time>2009-07-05T05:16:22Z</time>
      </trkpt>
      <trkpt lat="44.1488" lon="6.95649">
        <ele>2656.3</ele>
        <time>2009-07-05T05:16:42Z</time>
      </trkpt>
      <trkpt lat="44.14872" lon="6.95682">
        <ele>2662.5</ele>
        <time>2009-07-05T05:17:03Z</time>
      </trkpt>
      <trkpt lat="44.14884" lon="6.95714">
        <ele>2664</ele>
        <time>2009-07-05T05:17:33Z</time>
      </trkpt>
      <trkpt lat="44.14906" lon="6.95742">
        <ele>2668.3</ele>
        <time>2009-07-05T05:18:05Z</time>
      </trkpt>
      <trkpt lat="44.14931" lon="6.95769">
        <ele>2673.6</ele>
        <time>2009-07-05T05:18:37Z</time>
      </trkpt>
      <trkpt lat="44.14951" lon="6.95794">
        <ele>2676.4</ele>
        <time>2009-07-05T05:19:06Z</time>
      </trkpt>
      <trkpt lat="44.1494" lon="6.95807">
        <ele>2683.2</ele>
        <time>2009-07-05T05:19:42Z</time>
      </trkpt>
      <trkpt lat="44.14909" lon="6.95813">
        <ele>2693.8</ele>
        <time>2009-07-05T05:20:17Z</time>
      </trkpt>
      <trkpt lat="44.14885" lon="6.95826">
        <ele>2699</ele>
        <time>2009-07-05T05:20:48Z</time>
      </trkpt>
      <trkpt lat="44.14905" lon="6.9585">
        <ele>2703.4</ele>
        <time>2009-07-05T05:21:20Z</time>
      </trkpt>
      <trkpt lat="44.14927" lon="6.95881">
        <ele>2710.6</ele>
        <time>2009-07-05T05:21:54Z</time>
      </trkpt>
      <trkpt lat="44.14951" lon="6.95906">
        <ele>2717.3</ele>
        <time>2009-07-05T05:22:33Z</time>
      </trkpt>
      <trkpt lat="44.14963" lon="6.95952">
        <ele>2724.5</ele>
        <time>2009-07-05T05:23:14Z</time>
      </trkpt>
      <trkpt lat="44.14983" lon="6.9602">
        <ele>2726</ele>
        <time>2009-07-05T05:23:55Z</time>
      </trkpt>
      <trkpt lat="44.14989" lon="6.96061">
        <ele>2728.4</ele>
        <time>2009-07-05T05:24:16Z</time>
      </trkpt>
      <trkpt lat="44.14986" lon="6.96096">
        <ele>2731.7</ele>
        <time>2009-07-05T05:24:35Z</time>
      </trkpt>
      <trkpt lat="44.14977" lon="6.96128">
        <ele>2734.6</ele>
        <time>2009-07-05T05:24:54Z</time>
      </trkpt>
      <trkpt lat="44.14983" lon="6.96151">
        <ele>2736.5</ele>
        <time>2009-07-05T05:25:15Z</time>
      </trkpt>
      <trkpt lat="44.15002" lon="6.9617">
        <ele>2735.1</ele>
        <time>2009-07-05T05:25:34Z</time>
      </trkpt>
      <trkpt lat="44.15019" lon="6.96191">
        <ele>2738.5</ele>
        <time>2009-07-05T05:25:52Z</time>
      </trkpt>
      <trkpt lat="44.15039" lon="6.96218">
        <ele>2739.9</ele>
        <time>2009-07-05T05:26:21Z</time>
      </trkpt>
      <trkpt lat="44.15059" lon="6.9625">
        <ele>2736.5</ele>
        <time>2009-07-05T05:26:47Z</time>
      </trkpt>
      <trkpt lat="44.15075" lon="6.96284">
        <ele>2732.2</ele>
        <time>2009-07-05T05:27:09Z</time>
      </trkpt>
      <trkpt lat="44.15096" lon="6.96315">
        <ele>2727.9</ele>
        <time>2009-07-05T05:27:32Z</time>
      </trkpt>
      <trkpt lat="44.15116" lon="6.96348">
        <ele>2719.7</ele>
        <time>2009-07-05T05:27:58Z</time>
      </trkpt>
      <trkpt lat="44.15134" lon="6.96378">
        <ele>2714.9</ele>
        <time>2009-07-05T05:28:22Z</time>
      </trkpt>
      <trkpt lat="44.1515" lon="6.96413">
        <ele>2712</ele>
        <time>2009-07-05T05:28:45Z</time>
      </trkpt>
      <trkpt lat="44.15165" lon="6.96445">
        <ele>2709.1</ele>
        <time>2009-07-05T05:29:07Z</time>
      </trkpt>
      <trkpt lat="44.1518" lon="6.96476">
        <ele>2711.5</ele>
        <time>2009-07-05T05:29:32Z</time>
      </trkpt>
      <trkpt lat="44.15193" lon="6.96506">
        <ele>2713.9</ele>
        <time>2009-07-05T05:29:56Z</time>
      </trkpt>
      <trkpt lat="44.15206" lon="6.96552">
        <ele>2714.4</ele>
        <time>2009-07-05T05:30:30Z</time>
      </trkpt>
      <trkpt lat="44.15224" lon="6.96598">
        <ele>2703.8</ele>
        <time>2009-07-05T05:34:15Z</time>
      </trkpt>
      <trkpt lat="44.1524" lon="6.96628">
        <ele>2712.5</ele>
        <time>2009-07-05T05:34:42Z</time>
      </trkpt>
      <trkpt lat="44.15257" lon="6.96657">
        <ele>2727.4</ele>
        <time>2009-07-05T05:35:14Z</time>
      </trkpt>
      <trkpt lat="44.15271" lon="6.96702">
        <ele>2729.8</ele>
        <time>2009-07-05T05:36:03Z</time>
      </trkpt>
      <trkpt lat="44.1528" lon="6.96738">
        <ele>2732.7</ele>
        <time>2009-07-05T05:36:41Z</time>
      </trkpt>
      <trkpt lat="44.15285" lon="6.9679">
        <ele>2730.3</ele>
        <time>2009-07-05T05:37:36Z</time>
      </trkpt>
      <trkpt lat="44.15296" lon="6.96851">
        <ele>2736</ele>
        <time>2009-07-05T05:39:15Z</time>
      </trkpt>
      <trkpt lat="44.15314" lon="6.96885">
        <ele>2744.2</ele>
        <time>2009-07-05T05:39:59Z</time>
      </trkpt>
      <trkpt lat="44.15331" lon="6.96928">
        <ele>2756.2</ele>
        <time>2009-07-05T05:40:47Z</time>
      </trkpt>
      <trkpt lat="44.15351" lon="6.96975">
        <ele>2769.2</ele>
        <time>2009-07-05T05:41:45Z</time>
      </trkpt>
      <trkpt lat="44.15366" lon="6.97012">
        <ele>2777.4</ele>
        <time>2009-07-05T05:42:38Z</time>
      </trkpt>
      <trkpt lat="44.15376" lon="6.97051">
        <ele>2783.2</ele>
        <time>2009-07-05T05:43:19Z</time>
      </trkpt>
      <trkpt lat="44.15402" lon="6.97118">
        <ele>2805.7</ele>
        <time>2009-07-05T05:44:55Z</time>
      </trkpt>
      <trkpt lat="44.15432" lon="6.97166">
        <ele>2822.6</ele>
        <time>2009-07-05T06:10:09Z</time>
      </trkpt>
      <trkpt lat="44.15405" lon="6.97128">
        <ele>2811</ele>
        <time>2009-07-05T06:10:56Z</time>
      </trkpt>
      <trkpt lat="44.15392" lon="6.97094">
        <ele>2799.5</ele>
        <time>2009-07-05T06:11:29Z</time>
      </trkpt>
      <trkpt lat="44.15378" lon="6.97055">
        <ele>2789.4</ele>
        <time>2009-07-05T06:11:58Z</time>
      </trkpt>
      <trkpt lat="44.15369" lon="6.97013">
        <ele>2779.8</ele>
        <time>2009-07-05T06:12:30Z</time>
      </trkpt>
      <trkpt lat="44.15353" lon="6.96978">
        <ele>2770.7</ele>
        <time>2009-07-05T06:12:56Z</time>
      </trkpt>
      <trkpt lat="44.15334" lon="6.96934">
        <ele>2761.5</ele>
        <time>2009-07-05T06:14:01Z</time>
      </trkpt>
      <trkpt lat="44.15314" lon="6.96899">
        <ele>2750.5</ele>
        <time>2009-07-05T06:14:38Z</time>
      </trkpt>
      <trkpt lat="44.15304" lon="6.96862">
        <ele>2746.6</ele>
        <time>2009-07-05T06:15:01Z</time>
      </trkpt>
      <trkpt lat="44.15292" lon="6.96828">
        <ele>2742.3</ele>
        <time>2009-07-05T06:15:22Z</time>
      </trkpt>
      <trkpt lat="44.15281" lon="6.96795">
        <ele>2731.7</ele>
        <time>2009-07-05T06:15:45Z</time>
      </trkpt>
      <trkpt lat="44.15276" lon="6.9675">
        <ele>2717.8</ele>
        <time>2009-07-05T06:16:29Z</time>
      </trkpt>
      <trkpt lat="44.15259" lon="6.96714">
        <ele>2709.1</ele>
        <time>2009-07-05T06:17:06Z</time>
      </trkpt>
      <trkpt lat="44.15249" lon="6.96675">
        <ele>2703.4</ele>
        <time>2009-07-05T06:17:39Z</time>
      </trkpt>
      <trkpt lat="44.15237" lon="6.96639">
        <ele>2700.5</ele>
        <time>2009-07-05T06:18:03Z</time>
      </trkpt>
      <trkpt lat="44.15221" lon="6.96605">
        <ele>2698.1</ele>
        <time>2009-07-05T06:18:27Z</time>
      </trkpt>
      <trkpt lat="44.15203" lon="6.96569">
        <ele>2700</ele>
        <time>2009-07-05T06:19:10Z</time>
      </trkpt>
      <trkpt lat="44.15195" lon="6.96535">
        <ele>2704.8</ele>
        <time>2009-07-05T06:19:44Z</time>
      </trkpt>
      <trkpt lat="44.15182" lon="6.96498">
        <ele>2703.8</ele>
        <time>2009-07-05T06:20:13Z</time>
      </trkpt>
      <trkpt lat="44.15168" lon="6.96461">
        <ele>2706.7</ele>
        <time>2009-07-05T06:20:38Z</time>
      </trkpt>
      <trkpt lat="44.15154" lon="6.96426">
        <ele>2710.1</ele>
        <time>2009-07-05T06:21:01Z</time>
      </trkpt>
      <trkpt lat="44.15142" lon="6.96395">
        <ele>2709.1</ele>
        <time>2009-07-05T06:21:23Z</time>
      </trkpt>
      <trkpt lat="44.15126" lon="6.96363">
        <ele>2709.1</ele>
        <time>2009-07-05T06:21:47Z</time>
      </trkpt>
      <trkpt lat="44.1511" lon="6.96332">
        <ele>2714.9</ele>
        <time>2009-07-05T06:22:11Z</time>
      </trkpt>
      <trkpt lat="44.15096" lon="6.96302">
        <ele>2720.2</ele>
        <time>2009-07-05T06:22:37Z</time>
      </trkpt>
      <trkpt lat="44.15077" lon="6.96276">
        <ele>2721.6</ele>
        <time>2009-07-05T06:23:05Z</time>
      </trkpt>
      <trkpt lat="44.15059" lon="6.96244">
        <ele>2730.3</ele>
        <time>2009-07-05T06:23:34Z</time>
      </trkpt>
      <trkpt lat="44.1504" lon="6.96218">
        <ele>2734.6</ele>
        <time>2009-07-05T06:24:01Z</time>
      </trkpt>
      <trkpt lat="44.15021" lon="6.96189">
        <ele>2736</ele>
        <time>2009-07-05T06:24:26Z</time>
      </trkpt>
      <trkpt lat="44.15002" lon="6.96159">
        <ele>2735.6</ele>
        <time>2009-07-05T06:24:41Z</time>
      </trkpt>
      <trkpt lat="44.14978" lon="6.96143">
        <ele>2737.5</ele>
        <time>2009-07-05T06:25:01Z</time>
      </trkpt>
      <trkpt lat="44.14983" lon="6.9611">
        <ele>2731.7</ele>
        <time>2009-07-05T06:25:22Z</time>
      </trkpt>
      <trkpt lat="44.14987" lon="6.9607">
        <ele>2726.9</ele>
        <time>2009-07-05T06:25:38Z</time>
      </trkpt>
      <trkpt lat="44.14985" lon="6.96034">
        <ele>2725</ele>
        <time>2009-07-05T06:25:54Z</time>
      </trkpt>
      <trkpt lat="44.14979" lon="6.95997">
        <ele>2724</ele>
        <time>2009-07-05T06:26:16Z</time>
      </trkpt>
      <trkpt lat="44.14969" lon="6.95962">
        <ele>2722.6</ele>
        <time>2009-07-05T06:26:39Z</time>
      </trkpt>
      <trkpt lat="44.1496" lon="6.95925">
        <ele>2718.7</ele>
        <time>2009-07-05T06:27:00Z</time>
      </trkpt>
      <trkpt lat="44.14944" lon="6.95902">
        <ele>2715.4</ele>
        <time>2009-07-05T06:27:20Z</time>
      </trkpt>
      <trkpt lat="44.14925" lon="6.95876">
        <ele>2710.1</ele>
        <time>2009-07-05T06:27:35Z</time>
      </trkpt>
      <trkpt lat="44.14909" lon="6.95847">
        <ele>2703.8</ele>
        <time>2009-07-05T06:27:49Z</time>
      </trkpt>
      <trkpt lat="44.14887" lon="6.95821">
        <ele>2700</ele>
        <time>2009-07-05T06:28:06Z</time>
      </trkpt>
      <trkpt lat="44.14907" lon="6.95807">
        <ele>2690.9</ele>
        <time>2009-07-05T06:28:23Z</time>
      </trkpt>
      <trkpt lat="44.14933" lon="6.95805">
        <ele>2681.7</ele>
        <time>2009-07-05T06:28:40Z</time>
      </trkpt>
      <trkpt lat="44.14961" lon="6.95803">
        <ele>2675.5</ele>
        <time>2009-07-05T06:28:59Z</time>
      </trkpt>
      <trkpt lat="44.14942" lon="6.95779">
        <ele>2673.6</ele>
        <time>2009-07-05T06:29:16Z</time>
      </trkpt>
      <trkpt lat="44.14918" lon="6.95754">
        <ele>2670.7</ele>
        <time>2009-07-05T06:29:29Z</time>
      </trkpt>
      <trkpt lat="44.14898" lon="6.95727">
        <ele>2666.4</ele>
        <time>2009-07-05T06:29:44Z</time>
      </trkpt>
      <trkpt lat="44.14876" lon="6.95702">
        <ele>2662.5</ele>
        <time>2009-07-05T06:29:58Z</time>
      </trkpt>
      <trkpt lat="44.14878" lon="6.95666">
        <ele>2655.3</ele>
        <time>2009-07-05T06:30:15Z</time>
      </trkpt>
      <trkpt lat="44.14878" lon="6.95629">
        <ele>2651.5</ele>
        <time>2009-07-05T06:30:28Z</time>
      </trkpt>
      <trkpt lat="44.1487" lon="6.95592">
        <ele>2648.6</ele>
        <time>2009-07-05T06:30:40Z</time>
      </trkpt>
      <trkpt lat="44.14853" lon="6.95565">
        <ele>2649.5</ele>
        <time>2009-07-05T06:30:59Z</time>
      </trkpt>
      <trkpt lat="44.14836" lon="6.95539">
        <ele>2651.9</ele>
        <time>2009-07-05T06:31:20Z</time>
      </trkpt>
      <trkpt lat="44.14824" lon="6.95507">
        <ele>2651.9</ele>
        <time>2009-07-05T06:31:41Z</time>
      </trkpt>
      <trkpt lat="44.14814" lon="6.95473">
        <ele>2658.2</ele>
        <time>2009-07-05T06:32:02Z</time>
      </trkpt>
      <trkpt lat="44.14805" lon="6.95438">
        <ele>2659.6</ele>
        <time>2009-07-05T06:32:22Z</time>
      </trkpt>
      <trkpt lat="44.14788" lon="6.95413">
        <ele>2656.3</ele>
        <time>2009-07-05T06:32:43Z</time>
      </trkpt>
      <trkpt lat="44.14766" lon="6.95392">
        <ele>2649.5</ele>
        <time>2009-07-05T06:33:06Z</time>
      </trkpt>
      <trkpt lat="44.14744" lon="6.95372">
        <ele>2634.1</ele>
        <time>2009-07-05T06:33:39Z</time>
      </trkpt>
      <trkpt lat="44.14722" lon="6.95368">
        <ele>2626</ele>
        <time>2009-07-05T06:34:04Z</time>
      </trkpt>
      <trkpt lat="44.14695" lon="6.95354">
        <ele>2618.8</ele>
        <time>2009-07-05T06:34:29Z</time>
      </trkpt>
      <trkpt lat="44.14664" lon="6.95341">
        <ele>2610.6</ele>
        <time>2009-07-05T06:34:58Z</time>
      </trkpt>
      <trkpt lat="44.14637" lon="6.95339">
        <ele>2606.3</ele>
        <time>2009-07-05T06:35:17Z</time>
      </trkpt>
      <trkpt lat="44.14606" lon="6.95337">
        <ele>2600.5</ele>
        <time>2009-07-05T06:35:43Z</time>
      </trkpt>
      <trkpt lat="44.14576" lon="6.95338">
        <ele>2593.8</ele>
        <time>2009-07-05T06:36:08Z</time>
      </trkpt>
      <trkpt lat="44.14548" lon="6.95338">
        <ele>2589</ele>
        <time>2009-07-05T06:36:24Z</time>
      </trkpt>
      <trkpt lat="44.14519" lon="6.95338">
        <ele>2586.6</ele>
        <time>2009-07-05T06:36:45Z</time>
      </trkpt>
      <trkpt lat="44.14485" lon="6.95345">
        <ele>2586.6</ele>
        <time>2009-07-05T06:37:13Z</time>
      </trkpt>
      <trkpt lat="44.1446" lon="6.95352">
        <ele>2580.8</ele>
        <time>2009-07-05T06:37:33Z</time>
      </trkpt>
      <trkpt lat="44.14431" lon="6.95359">
        <ele>2570.7</ele>
        <time>2009-07-05T06:38:01Z</time>
      </trkpt>
      <trkpt lat="44.14405" lon="6.95378">
        <ele>2557.2</ele>
        <time>2009-07-05T06:38:24Z</time>
      </trkpt>
      <trkpt lat="44.14373" lon="6.95398">
        <ele>2546.2</ele>
        <time>2009-07-05T06:40:31Z</time>
      </trkpt>
      <trkpt lat="44.14347" lon="6.95422">
        <ele>2531.3</ele>
        <time>2009-07-05T06:41:04Z</time>
      </trkpt>
      <trkpt lat="44.14317" lon="6.95437">
        <ele>2526</ele>
        <time>2009-07-05T06:41:29Z</time>
      </trkpt>
      <trkpt lat="44.14318" lon="6.9546">
        <ele>2518.8</ele>
        <time>2009-07-05T06:41:54Z</time>
      </trkpt>
      <trkpt lat="44.14293" lon="6.95481">
        <ele>2516.4</ele>
        <time>2009-07-05T06:42:18Z</time>
      </trkpt>
      <trkpt lat="44.1427" lon="6.9551">
        <ele>2505.8</ele>
        <time>2009-07-05T06:42:42Z</time>
      </trkpt>
      <trkpt lat="44.14252" lon="6.9554">
        <ele>2502</ele>
        <time>2009-07-05T06:43:05Z</time>
      </trkpt>
      <trkpt lat="44.14236" lon="6.9557">
        <ele>2490.4</ele>
        <time>2009-07-05T06:43:30Z</time>
      </trkpt>
      <trkpt lat="44.1422" lon="6.95602">
        <ele>2479.9</ele>
        <time>2009-07-05T06:43:56Z</time>
      </trkpt>
      <trkpt lat="44.14204" lon="6.95636">
        <ele>2475.1</ele>
        <time>2009-07-05T06:44:21Z</time>
      </trkpt>
      <trkpt lat="44.14186" lon="6.95665">
        <ele>2470.7</ele>
        <time>2009-07-05T06:44:44Z</time>
      </trkpt>
      <trkpt lat="44.14168" lon="6.95694">
        <ele>2464</ele>
        <time>2009-07-05T06:45:07Z</time>
      </trkpt>
      <trkpt lat="44.14154" lon="6.95729">
        <ele>2455.8</ele>
        <time>2009-07-05T06:45:31Z</time>
      </trkpt>
      <trkpt lat="44.14139" lon="6.95763">
        <ele>2449.1</ele>
        <time>2009-07-05T06:45:51Z</time>
      </trkpt>
      <trkpt lat="44.14125" lon="6.95797">
        <ele>2446.7</ele>
        <time>2009-07-05T06:46:13Z</time>
      </trkpt>
      <trkpt lat="44.14106" lon="6.95828">
        <ele>2445.7</ele>
        <time>2009-07-05T06:46:33Z</time>
      </trkpt>
      <trkpt lat="44.1409" lon="6.95861">
        <ele>2446.2</ele>
        <time>2009-07-05T06:46:55Z</time>
      </trkpt>
      <trkpt lat="44.14073" lon="6.95892">
        <ele>2443.8</ele>
        <time>2009-07-05T06:47:15Z</time>
      </trkpt>
      <trkpt lat="44.1406" lon="6.95922">
        <ele>2447.7</ele>
        <time>2009-07-05T06:47:34Z</time>
      </trkpt>
      <trkpt lat="44.14044" lon="6.95952">
        <ele>2448.1</ele>
        <time>2009-07-05T06:47:55Z</time>
      </trkpt>
      <trkpt lat="44.14031" lon="6.95982">
        <ele>2449.1</ele>
        <time>2009-07-05T06:48:18Z</time>
      </trkpt>
      <trkpt lat="44.1402" lon="6.96018">
        <ele>2448.1</ele>
        <time>2009-07-05T06:48:39Z</time>
      </trkpt>
      <trkpt lat="44.14006" lon="6.96052">
        <ele>2444.3</ele>
        <time>2009-07-05T06:48:58Z</time>
      </trkpt>
      <trkpt lat="44.1399" lon="6.96082">
        <ele>2444.8</ele>
        <time>2009-07-05T06:49:16Z</time>
      </trkpt>
      <trkpt lat="44.13979" lon="6.96116">
        <ele>2443.3</ele>
        <time>2009-07-05T06:49:34Z</time>
      </trkpt>
      <trkpt lat="44.13968" lon="6.96146">
        <ele>2441.9</ele>
        <time>2009-07-05T06:49:52Z</time>
      </trkpt>
      <trkpt lat="44.13956" lon="6.96174">
        <ele>2440.4</ele>
        <time>2009-07-05T06:50:10Z</time>
      </trkpt>
      <trkpt lat="44.13946" lon="6.9621">
        <ele>2443.3</ele>
        <time>2009-07-05T06:50:33Z</time>
      </trkpt>
      <trkpt lat="44.13937" lon="6.96246">
        <ele>2446.2</ele>
        <time>2009-07-05T06:50:53Z</time>
      </trkpt>
      <trkpt lat="44.13923" lon="6.96281">
        <ele>2451.5</ele>
        <time>2009-07-05T06:51:15Z</time>
      </trkpt>
      <trkpt lat="44.13916" lon="6.96311">
        <ele>2451.5</ele>
        <time>2009-07-05T06:51:35Z</time>
      </trkpt>
      <trkpt lat="44.13902" lon="6.9634">
        <ele>2451</ele>
        <time>2009-07-05T06:51:57Z</time>
      </trkpt>
      <trkpt lat="44.13882" lon="6.96374">
        <ele>2448.1</ele>
        <time>2009-07-05T06:52:19Z</time>
      </trkpt>
      <trkpt lat="44.13872" lon="6.96409">
        <ele>2448.6</ele>
        <time>2009-07-05T06:52:40Z</time>
      </trkpt>
      <trkpt lat="44.1386" lon="6.96442">
        <ele>2448.6</ele>
        <time>2009-07-05T06:52:59Z</time>
      </trkpt>
      <trkpt lat="44.13848" lon="6.96479">
        <ele>2447.2</ele>
        <time>2009-07-05T06:53:33Z</time>
      </trkpt>
      <trkpt lat="44.13837" lon="6.96514">
        <ele>2442.8</ele>
        <time>2009-07-05T06:53:52Z</time>
      </trkpt>
      <trkpt lat="44.13827" lon="6.96544">
        <ele>2435.2</ele>
        <time>2009-07-05T06:54:11Z</time>
      </trkpt>
      <trkpt lat="44.13828" lon="6.96573">
        <ele>2433.2</ele>
        <time>2009-07-05T06:54:29Z</time>
      </trkpt>
      <trkpt lat="44.13817" lon="6.96607">
        <ele>2431.3</ele>
        <time>2009-07-05T06:54:51Z</time>
      </trkpt>
      <trkpt lat="44.13805" lon="6.96643">
        <ele>2432.3</ele>
        <time>2009-07-05T06:55:15Z</time>
      </trkpt>
      <trkpt lat="44.13793" lon="6.96678">
        <ele>2434.7</ele>
        <time>2009-07-05T06:55:38Z</time>
      </trkpt>
      <trkpt lat="44.13762" lon="6.96688">
        <ele>2433.7</ele>
        <time>2009-07-05T07:02:11Z</time>
      </trkpt>
      <trkpt lat="44.13758" lon="6.96726">
        <ele>2426.5</ele>
        <time>2009-07-05T07:02:32Z</time>
      </trkpt>
      <trkpt lat="44.13761" lon="6.96764">
        <ele>2423.6</ele>
        <time>2009-07-05T07:02:55Z</time>
      </trkpt>
      <trkpt lat="44.13758" lon="6.96802">
        <ele>2425.1</ele>
        <time>2009-07-05T07:03:18Z</time>
      </trkpt>
      <trkpt lat="44.13747" lon="6.96838">
        <ele>2422.7</ele>
        <time>2009-07-05T07:03:42Z</time>
      </trkpt>
      <trkpt lat="44.13739" lon="6.96879">
        <ele>2417.9</ele>
        <time>2009-07-05T07:04:09Z</time>
      </trkpt>
      <trkpt lat="44.1373" lon="6.96915">
        <ele>2410.6</ele>
        <time>2009-07-05T07:04:32Z</time>
      </trkpt>
      <trkpt lat="44.13732" lon="6.96953">
        <ele>2406.8</ele>
        <time>2009-07-05T07:04:56Z</time>
      </trkpt>
      <trkpt lat="44.13741" lon="6.96986">
        <ele>2404.4</ele>
        <time>2009-07-05T07:05:17Z</time>
      </trkpt>
      <trkpt lat="44.13716" lon="6.97006">
        <ele>2403.9</ele>
        <time>2009-07-05T07:05:39Z</time>
      </trkpt>
      <trkpt lat="44.13693" lon="6.97031">
        <ele>2399.1</ele>
        <time>2009-07-05T07:06:04Z</time>
      </trkpt>
      <trkpt lat="44.13667" lon="6.97048">
        <ele>2396.2</ele>
        <time>2009-07-05T07:06:26Z</time>
      </trkpt>
      <trkpt lat="44.13642" lon="6.97068">
        <ele>2390.5</ele>
        <time>2009-07-05T07:06:49Z</time>
      </trkpt>
      <trkpt lat="44.13615" lon="6.97086">
        <ele>2386.1</ele>
        <time>2009-07-05T07:07:12Z</time>
      </trkpt>
      <trkpt lat="44.1359" lon="6.97095">
        <ele>2381.3</ele>
        <time>2009-07-05T07:07:36Z</time>
      </trkpt>
      <trkpt lat="44.13569" lon="6.97111">
        <ele>2373.2</ele>
        <time>2009-07-05T07:08:06Z</time>
      </trkpt>
      <trkpt lat="44.13545" lon="6.97128">
        <ele>2365.5</ele>
        <time>2009-07-05T07:08:36Z</time>
      </trkpt>
      <trkpt lat="44.13542" lon="6.97153">
        <ele>2354.4</ele>
        <time>2009-07-05T07:09:09Z</time>
      </trkpt>
      <trkpt lat="44.13568" lon="6.97166">
        <ele>2350.1</ele>
        <time>2009-07-05T07:09:37Z</time>
      </trkpt>
      <trkpt lat="44.13593" lon="6.97179">
        <ele>2343.8</ele>
        <time>2009-07-05T07:10:04Z</time>
      </trkpt>
      <trkpt lat="44.13567" lon="6.97198">
        <ele>2338.5</ele>
        <time>2009-07-05T07:12:44Z</time>
      </trkpt>
      <trkpt lat="44.1355" lon="6.97214">
        <ele>2333.3</ele>
        <time>2009-07-05T07:13:12Z</time>
      </trkpt>
      <trkpt lat="44.13548" lon="6.97234">
        <ele>2321.7</ele>
        <time>2009-07-05T07:13:36Z</time>
      </trkpt>
      <trkpt lat="44.13559" lon="6.97268">
        <ele>2309.7</ele>
        <time>2009-07-05T07:14:00Z</time>
      </trkpt>
      <trkpt lat="44.13556" lon="6.97303">
        <ele>2305.4</ele>
        <time>2009-07-05T07:14:25Z</time>
      </trkpt>
      <trkpt lat="44.13553" lon="6.97342">
        <ele>2301.5</ele>
        <time>2009-07-05T07:14:47Z</time>
      </trkpt>
      <trkpt lat="44.13537" lon="6.97372">
        <ele>2298.2</ele>
        <time>2009-07-05T07:15:07Z</time>
      </trkpt>
      <trkpt lat="44.13519" lon="6.97401">
        <ele>2296.7</ele>
        <time>2009-07-05T07:15:26Z</time>
      </trkpt>
      <trkpt lat="44.13518" lon="6.97436">
        <ele>2290</ele>
        <time>2009-07-05T07:15:47Z</time>
      </trkpt>
      <trkpt lat="44.1351" lon="6.9747">
        <ele>2286.2</ele>
        <time>2009-07-05T07:16:09Z</time>
      </trkpt>
      <trkpt lat="44.13498" lon="6.97501">
        <ele>2278.5</ele>
        <time>2009-07-05T07:16:28Z</time>
      </trkpt>
      <trkpt lat="44.1349" lon="6.97539">
        <ele>2264.5</ele>
        <time>2009-07-05T07:16:48Z</time>
      </trkpt>
      <trkpt lat="44.13483" lon="6.97577">
        <ele>2256.8</ele>
        <time>2009-07-05T07:17:07Z</time>
      </trkpt>
      <trkpt lat="44.13476" lon="6.97613">
        <ele>2250.1</ele>
        <time>2009-07-05T07:17:20Z</time>
      </trkpt>
      <trkpt lat="44.13467" lon="6.97652">
        <ele>2239.5</ele>
        <time>2009-07-05T07:17:36Z</time>
      </trkpt>
      <trkpt lat="44.13459" lon="6.97687">
        <ele>2229.9</ele>
        <time>2009-07-05T07:17:51Z</time>
      </trkpt>
      <trkpt lat="44.13451" lon="6.97725">
        <ele>2223.7</ele>
        <time>2009-07-05T07:18:07Z</time>
      </trkpt>
      <trkpt lat="44.13447" lon="6.97763">
        <ele>2217.9</ele>
        <time>2009-07-05T07:18:22Z</time>
      </trkpt>
      <trkpt lat="44.13441" lon="6.978">
        <ele>2206.4</ele>
        <time>2009-07-05T07:18:41Z</time>
      </trkpt>
      <trkpt lat="44.13435" lon="6.9784">
        <ele>2197.2</ele>
        <time>2009-07-05T07:19:01Z</time>
      </trkpt>
      <trkpt lat="44.1343" lon="6.97875">
        <ele>2188.1</ele>
        <time>2009-07-05T07:19:21Z</time>
      </trkpt>
      <trkpt lat="44.13422" lon="6.97911">
        <ele>2180.9</ele>
        <time>2009-07-05T07:19:41Z</time>
      </trkpt>
      <trkpt lat="44.13419" lon="6.97948">
        <ele>2172.2</ele>
        <time>2009-07-05T07:19:58Z</time>
      </trkpt>
      <trkpt lat="44.13412" lon="6.97986">
        <ele>2163.1</ele>
        <time>2009-07-05T07:20:19Z</time>
      </trkpt>
      <trkpt lat="44.1341" lon="6.98029">
        <ele>2160.2</ele>
        <time>2009-07-05T07:20:39Z</time>
      </trkpt>
      <trkpt lat="44.13401" lon="6.98066">
        <ele>2159.3</ele>
        <time>2009-07-05T07:20:57Z</time>
      </trkpt>
      <trkpt lat="44.13378" lon="6.98088">
        <ele>2154.9</ele>
        <time>2009-07-05T07:21:14Z</time>
      </trkpt>
      <trkpt lat="44.13354" lon="6.98107">
        <ele>2153</ele>
        <time>2009-07-05T07:21:35Z</time>
      </trkpt>
      <trkpt lat="44.13332" lon="6.98125">
        <ele>2147.7</ele>
        <time>2009-07-05T07:21:57Z</time>
      </trkpt>
      <trkpt lat="44.13308" lon="6.98149">
        <ele>2146.8</ele>
        <time>2009-07-05T07:22:17Z</time>
      </trkpt>
      <trkpt lat="44.13284" lon="6.98172">
        <ele>2144.8</ele>
        <time>2009-07-05T07:22:36Z</time>
      </trkpt>
      <trkpt lat="44.13267" lon="6.98194">
        <ele>2141.5</ele>
        <time>2009-07-05T07:22:56Z</time>
      </trkpt>
      <trkpt lat="44.13252" lon="6.98225">
        <ele>2138.6</ele>
        <time>2009-07-05T07:23:15Z</time>
      </trkpt>
      <trkpt lat="44.13248" lon="6.98255">
        <ele>2135.7</ele>
        <time>2009-07-05T07:23:34Z</time>
      </trkpt>
      <trkpt lat="44.13264" lon="6.98288">
        <ele>2132.8</ele>
        <time>2009-07-05T07:23:54Z</time>
      </trkpt>
      <trkpt lat="44.13279" lon="6.98319">
        <ele>2129.5</ele>
        <time>2009-07-05T07:24:15Z</time>
      </trkpt>
      <trkpt lat="44.13283" lon="6.98361">
        <ele>2124.7</ele>
        <time>2009-07-05T07:24:31Z</time>
      </trkpt>
      <trkpt lat="44.1327" lon="6.98395">
        <ele>2124.2</ele>
        <time>2009-07-05T07:24:44Z</time>
      </trkpt>
      <trkpt lat="44.1326" lon="6.98432">
        <ele>2121.3</ele>
        <time>2009-07-05T07:24:59Z</time>
      </trkpt>
      <trkpt lat="44.1325" lon="6.98467">
        <ele>2116.5</ele>
        <time>2009-07-05T07:25:15Z</time>
      </trkpt>
      <trkpt lat="44.13227" lon="6.98487">
        <ele>2111.7</ele>
        <time>2009-07-05T07:25:31Z</time>
      </trkpt>
      <trkpt lat="44.13206" lon="6.9851">
        <ele>2108.3</ele>
        <time>2009-07-05T07:25:44Z</time>
      </trkpt>
      <trkpt lat="44.13186" lon="6.98539">
        <ele>2102.1</ele>
        <time>2009-07-05T07:25:57Z</time>
      </trkpt>
      <trkpt lat="44.13173" lon="6.98574">
        <ele>2098.2</ele>
        <time>2009-07-05T07:26:12Z</time>
      </trkpt>
      <trkpt lat="44.13155" lon="6.98603">
        <ele>2090.5</ele>
        <time>2009-07-05T07:26:30Z</time>
      </trkpt>
      <trkpt lat="44.1315" lon="6.98639">
        <ele>2081.9</ele>
        <time>2009-07-05T07:26:45Z</time>
      </trkpt>
      <trkpt lat="44.13151" lon="6.98677">
        <ele>2075.6</ele>
        <time>2009-07-05T07:27:00Z</time>
      </trkpt>
      <trkpt lat="44.13158" lon="6.98714">
        <ele>2068.9</ele>
        <time>2009-07-05T07:27:15Z</time>
      </trkpt>
      <trkpt lat="44.13156" lon="6.98752">
        <ele>2063.6</ele>
        <time>2009-07-05T07:27:29Z</time>
      </trkpt>
      <trkpt lat="44.13157" lon="6.98789">
        <ele>2061.2</ele>
        <time>2009-07-05T07:27:46Z</time>
      </trkpt>
      <trkpt lat="44.13165" lon="6.9883">
        <ele>2056.4</ele>
        <time>2009-07-05T07:28:07Z</time>
      </trkpt>
      <trkpt lat="44.13169" lon="6.98869">
        <ele>2052.6</ele>
        <time>2009-07-05T07:28:24Z</time>
      </trkpt>
      <trkpt lat="44.13171" lon="6.98908">
        <ele>2049.7</ele>
        <time>2009-07-05T07:28:38Z</time>
      </trkpt>
      <trkpt lat="44.13175" lon="6.98947">
        <ele>2041.5</ele>
        <time>2009-07-05T07:28:51Z</time>
      </trkpt>
      <trkpt lat="44.13181" lon="6.98982">
        <ele>2037.7</ele>
        <time>2009-07-05T07:29:09Z</time>
      </trkpt>
      <trkpt lat="44.13185" lon="6.99018">
        <ele>2033.3</ele>
        <time>2009-07-05T07:29:28Z</time>
      </trkpt>
      <trkpt lat="44.13178" lon="6.99081">
        <ele>2025.6</ele>
        <time>2009-07-05T07:31:59Z</time>
      </trkpt>
      <trkpt lat="44.13161" lon="6.99116">
        <ele>2021.3</ele>
        <time>2009-07-05T07:32:12Z</time>
      </trkpt>
      <trkpt lat="44.13145" lon="6.99146">
        <ele>2014.6</ele>
        <time>2009-07-05T07:32:24Z</time>
      </trkpt>
      <trkpt lat="44.13135" lon="6.9918">
        <ele>2009.3</ele>
        <time>2009-07-05T07:32:37Z</time>
      </trkpt>
      <trkpt lat="44.13133" lon="6.99213">
        <ele>2008.8</ele>
        <time>2009-07-05T07:32:48Z</time>
      </trkpt>
      <trkpt lat="44.13145" lon="6.99245">
        <ele>2004</ele>
        <time>2009-07-05T07:33:01Z</time>
      </trkpt>
      <trkpt lat="44.13163" lon="6.99275">
        <ele>1998.7</ele>
        <time>2009-07-05T07:33:13Z</time>
      </trkpt>
      <trkpt lat="44.13185" lon="6.99295">
        <ele>1998.2</ele>
        <time>2009-07-05T07:33:27Z</time>
      </trkpt>
      <trkpt lat="44.13204" lon="6.99323">
        <ele>1994.4</ele>
        <time>2009-07-05T07:33:40Z</time>
      </trkpt>
      <trkpt lat="44.13221" lon="6.99357">
        <ele>1990.1</ele>
        <time>2009-07-05T07:33:53Z</time>
      </trkpt>
      <trkpt lat="44.13227" lon="6.99398">
        <ele>1989.1</ele>
        <time>2009-07-05T07:34:05Z</time>
      </trkpt>
      <trkpt lat="44.13225" lon="6.99437">
        <ele>1988.1</ele>
        <time>2009-07-05T07:34:18Z</time>
      </trkpt>
      <trkpt lat="44.13221" lon="6.99475">
        <ele>1986.2</ele>
        <time>2009-07-05T07:34:31Z</time>
      </trkpt>
      <trkpt lat="44.13209" lon="6.99511">
        <ele>1989.1</ele>
        <time>2009-07-05T07:34:47Z</time>
      </trkpt>
      <trkpt lat="44.13191" lon="6.99541">
        <ele>1988.1</ele>
        <time>2009-07-05T07:35:06Z</time>
      </trkpt>
      <trkpt lat="44.13174" lon="6.99572">
        <ele>1988.6</ele>
        <time>2009-07-05T07:35:20Z</time>
      </trkpt>
      <trkpt lat="44.13159" lon="6.99604">
        <ele>1984.8</ele>
        <time>2009-07-05T07:35:36Z</time>
      </trkpt>
      <trkpt lat="44.1314" lon="6.99629">
        <ele>1987.2</ele>
        <time>2009-07-05T07:35:56Z</time>
      </trkpt>
      <trkpt lat="44.13115" lon="6.99647">
        <ele>1990.5</ele>
        <time>2009-07-05T07:36:18Z</time>
      </trkpt>
      <trkpt lat="44.13083" lon="6.99654">
        <ele>1990.5</ele>
        <time>2009-07-05T07:36:45Z</time>
      </trkpt>
      <trkpt lat="44.13053" lon="6.99668">
        <ele>1996.8</ele>
        <time>2009-07-05T07:37:15Z</time>
      </trkpt>
      <trkpt lat="44.13033" lon="6.99695">
        <ele>2003.5</ele>
        <time>2009-07-05T07:37:43Z</time>
      </trkpt>
      <trkpt lat="44.1299" lon="6.99731">
        <ele>2017</ele>
        <time>2009-07-05T07:38:46Z</time>
      </trkpt>
      <trkpt lat="44.12948" lon="6.99778">
        <ele>2027.1</ele>
        <time>2009-07-05T07:39:32Z</time>
      </trkpt>
      <trkpt lat="44.12935" lon="6.99811">
        <ele>2029</ele>
        <time>2009-07-05T07:39:58Z</time>
      </trkpt>
      <trkpt lat="44.12918" lon="6.99842">
        <ele>2028.5</ele>
        <time>2009-07-05T07:40:22Z</time>
      </trkpt>
      <trkpt lat="44.12915" lon="6.99877">
        <ele>2028.5</ele>
        <time>2009-07-05T07:40:44Z</time>
      </trkpt>
      <trkpt lat="44.12903" lon="6.99911">
        <ele>2019.9</ele>
        <time>2009-07-05T07:41:07Z</time>
      </trkpt>
      <trkpt lat="44.12909" lon="6.9995">
        <ele>2011.2</ele>
        <time>2009-07-05T07:41:29Z</time>
      </trkpt>
      <trkpt lat="44.1292" lon="6.99988">
        <ele>2006.4</ele>
        <time>2009-07-05T07:41:50Z</time>
      </trkpt>
      <trkpt lat="44.1293" lon="7.00048">
        <ele>1995.8</ele>
        <time>2009-07-05T07:42:27Z</time>
      </trkpt>
      <trkpt lat="44.12928" lon="7.00087">
        <ele>1993.4</ele>
        <time>2009-07-05T07:42:48Z</time>
      </trkpt>
      <trkpt lat="44.12925" lon="7.00123">
        <ele>1991</ele>
        <time>2009-07-05T07:43:08Z</time>
      </trkpt>
      <trkpt lat="44.12908" lon="7.0016">
        <ele>1994.4</ele>
        <time>2009-07-05T07:43:34Z</time>
      </trkpt>
      <trkpt lat="44.12899" lon="7.00199">
        <ele>2005.9</ele>
        <time>2009-07-05T07:44:08Z</time>
      </trkpt>
      <trkpt lat="44.12888" lon="7.00233">
        <ele>2017.5</ele>
        <time>2009-07-05T07:45:00Z</time>
      </trkpt>
      <trkpt lat="44.12865" lon="7.00232">
        <ele>2021.8</ele>
        <time>2009-07-05T07:45:38Z</time>
      </trkpt>
      <trkpt lat="44.12839" lon="7.00257">
        <ele>2017</ele>
        <time>2009-07-05T07:46:03Z</time>
      </trkpt>
      <trkpt lat="44.1281" lon="7.00267">
        <ele>2013.1</ele>
        <time>2009-07-05T07:46:24Z</time>
      </trkpt>
      <trkpt lat="44.12782" lon="7.00307">
        <ele>2000.2</ele>
        <time>2009-07-05T07:46:53Z</time>
      </trkpt>
      <trkpt lat="44.1279" lon="7.00347">
        <ele>1995.4</ele>
        <time>2009-07-05T07:47:06Z</time>
      </trkpt>
      <trkpt lat="44.12802" lon="7.00386">
        <ele>1989.1</ele>
        <time>2009-07-05T07:47:19Z</time>
      </trkpt>
      <trkpt lat="44.12809" lon="7.00422">
        <ele>1981.9</ele>
        <time>2009-07-05T07:47:32Z</time>
      </trkpt>
      <trkpt lat="44.1281" lon="7.00464">
        <ele>1977.6</ele>
        <time>2009-07-05T07:47:45Z</time>
      </trkpt>
      <trkpt lat="44.12803" lon="7.00501">
        <ele>1974.2</ele>
        <time>2009-07-05T07:47:57Z</time>
      </trkpt>
      <trkpt lat="44.12779" lon="7.00522">
        <ele>1974.7</ele>
        <time>2009-07-05T07:48:09Z</time>
      </trkpt>
      <trkpt lat="44.12746" lon="7.0052">
        <ele>1972.8</ele>
        <time>2009-07-05T07:48:23Z</time>
      </trkpt>
      <trkpt lat="44.1272" lon="7.00525">
        <ele>1968.4</ele>
        <time>2009-07-05T07:48:37Z</time>
      </trkpt>
      <trkpt lat="44.1269" lon="7.00527">
        <ele>1967</ele>
        <time>2009-07-05T07:48:50Z</time>
      </trkpt>
      <trkpt lat="44.12662" lon="7.0053">
        <ele>1964.1</ele>
        <time>2009-07-05T07:49:04Z</time>
      </trkpt>
      <trkpt lat="44.12631" lon="7.00526">
        <ele>1961.2</ele>
        <time>2009-07-05T07:49:18Z</time>
      </trkpt>
      <trkpt lat="44.12603" lon="7.00534">
        <ele>1957.4</ele>
        <time>2009-07-05T07:49:32Z</time>
      </trkpt>
      <trkpt lat="44.12587" lon="7.00569">
        <ele>1953.5</ele>
        <time>2009-07-05T07:49:44Z</time>
      </trkpt>
      <trkpt lat="44.12572" lon="7.00602">
        <ele>1946.8</ele>
        <time>2009-07-05T07:49:55Z</time>
      </trkpt>
      <trkpt lat="44.1255" lon="7.00582">
        <ele>1945.4</ele>
        <time>2009-07-05T07:50:15Z</time>
      </trkpt>
      <trkpt lat="44.12523" lon="7.00559">
        <ele>1945.8</ele>
        <time>2009-07-05T07:50:39Z</time>
      </trkpt>
      <trkpt lat="44.12494" lon="7.00534">
        <ele>1944.9</ele>
        <time>2009-07-05T07:51:04Z</time>
      </trkpt>
      <trkpt lat="44.1247" lon="7.00507">
        <ele>1948.2</ele>
        <time>2009-07-05T07:51:23Z</time>
      </trkpt>
      <trkpt lat="44.12444" lon="7.00482">
        <ele>1954.5</ele>
        <time>2009-07-05T07:51:40Z</time>
      </trkpt>
      <trkpt lat="44.12418" lon="7.00469">
        <ele>1955.9</ele>
        <time>2009-07-05T07:51:55Z</time>
      </trkpt>
      <trkpt lat="44.12391" lon="7.00459">
        <ele>1955</ele>
        <time>2009-07-05T07:52:12Z</time>
      </trkpt>
      <trkpt lat="44.12368" lon="7.00445">
        <ele>1959.3</ele>
        <time>2009-07-05T07:52:32Z</time>
      </trkpt>
      <trkpt lat="44.12344" lon="7.00436">
        <ele>1960.3</ele>
        <time>2009-07-05T07:52:51Z</time>
      </trkpt>
      <trkpt lat="44.12319" lon="7.00432">
        <ele>1961.7</ele>
        <time>2009-07-05T07:53:12Z</time>
      </trkpt>
      <trkpt lat="44.12288" lon="7.00447">
        <ele>1958.3</ele>
        <time>2009-07-05T07:53:37Z</time>
      </trkpt>
      <trkpt lat="44.12251" lon="7.00473">
        <ele>1957.9</ele>
        <time>2009-07-05T07:54:10Z</time>
      </trkpt>
      <trkpt lat="44.1222" lon="7.00493">
        <ele>1956.4</ele>
        <time>2009-07-05T07:54:35Z</time>
      </trkpt>
      <trkpt lat="44.12188" lon="7.00508">
        <ele>1955.9</ele>
        <time>2009-07-05T07:54:57Z</time>
      </trkpt>
      <trkpt lat="44.12159" lon="7.0053">
        <ele>1956.9</ele>
        <time>2009-07-05T07:55:17Z</time>
      </trkpt>
      <trkpt lat="44.1213" lon="7.00532">
        <ele>1962.7</ele>
        <time>2009-07-05T07:55:44Z</time>
      </trkpt>
      <trkpt lat="44.12104" lon="7.00542">
        <ele>1964.1</ele>
        <time>2009-07-05T07:56:03Z</time>
      </trkpt>
      <trkpt lat="44.12074" lon="7.00559">
        <ele>1966.5</ele>
        <time>2009-07-05T07:56:21Z</time>
      </trkpt>
      <trkpt lat="44.12049" lon="7.00568">
        <ele>1973.7</ele>
        <time>2009-07-05T07:56:41Z</time>
      </trkpt>
      <trkpt lat="44.12025" lon="7.00588">
        <ele>1978.5</ele>
        <time>2009-07-05T07:57:03Z</time>
      </trkpt>
      <trkpt lat="44.12003" lon="7.00604">
        <ele>1979</ele>
        <time>2009-07-05T07:57:23Z</time>
      </trkpt>
      <trkpt lat="44.1198" lon="7.0062">
        <ele>1980.9</ele>
        <time>2009-07-05T07:57:47Z</time>
      </trkpt>
      <trkpt lat="44.11954" lon="7.00644">
        <ele>1966</ele>
        <time>2009-07-05T07:58:08Z</time>
      </trkpt>
      <trkpt lat="44.11928" lon="7.00658">
        <ele>1964.1</ele>
        <time>2009-07-05T07:58:31Z</time>
      </trkpt>
      <trkpt lat="44.11908" lon="7.00686">
        <ele>1968.4</ele>
        <time>2009-07-05T07:59:03Z</time>
      </trkpt>
      <trkpt lat="44.1188" lon="7.00714">
        <ele>1974.2</ele>
        <time>2009-07-05T07:59:32Z</time>
      </trkpt>
      <trkpt lat="44.11854" lon="7.00732">
        <ele>1972.8</ele>
        <time>2009-07-05T07:59:49Z</time>
      </trkpt>
      <trkpt lat="44.11829" lon="7.0072">
        <ele>1968</ele>
        <time>2009-07-05T08:00:01Z</time>
      </trkpt>
      <trkpt lat="44.11805" lon="7.00698">
        <ele>1962.7</ele>
        <time>2009-07-05T08:00:16Z</time>
      </trkpt>
      <trkpt lat="44.11778" lon="7.00683">
        <ele>1957.9</ele>
        <time>2009-07-05T08:00:28Z</time>
      </trkpt>
      <trkpt lat="44.11752" lon="7.00666">
        <ele>1954</ele>
        <time>2009-07-05T08:00:42Z</time>
      </trkpt>
      <trkpt lat="44.11729" lon="7.00649">
        <ele>1950.7</ele>
        <time>2009-07-05T08:00:58Z</time>
      </trkpt>
      <trkpt lat="44.11702" lon="7.00633">
        <ele>1945.4</ele>
        <time>2009-07-05T08:01:13Z</time>
      </trkpt>
      <trkpt lat="44.11683" lon="7.00652">
        <ele>1937.2</ele>
        <time>2009-07-05T08:01:49Z</time>
      </trkpt>
      <trkpt lat="44.11673" lon="7.00688">
        <ele>1935.8</ele>
        <time>2009-07-05T08:02:09Z</time>
      </trkpt>
      <trkpt lat="44.11667" lon="7.00725">
        <ele>1931.4</ele>
        <time>2009-07-05T08:02:23Z</time>
      </trkpt>
      <trkpt lat="44.11673" lon="7.0076">
        <ele>1933.3</ele>
        <time>2009-07-05T08:02:40Z</time>
      </trkpt>
      <trkpt lat="44.11669" lon="7.00796">
        <ele>1929.5</ele>
        <time>2009-07-05T08:02:54Z</time>
      </trkpt>
      <trkpt lat="44.1167" lon="7.00831">
        <ele>1928.5</ele>
        <time>2009-07-05T08:03:12Z</time>
      </trkpt>
      <trkpt lat="44.11676" lon="7.00867">
        <ele>1921.3</ele>
        <time>2009-07-05T08:03:31Z</time>
      </trkpt>
      <trkpt lat="44.11673" lon="7.00906">
        <ele>1919.4</ele>
        <time>2009-07-05T08:03:51Z</time>
      </trkpt>
      <trkpt lat="44.11678" lon="7.00945">
        <ele>1918.4</ele>
        <time>2009-07-05T08:04:13Z</time>
      </trkpt>
      <trkpt lat="44.11675" lon="7.00984">
        <ele>1918.4</ele>
        <time>2009-07-05T08:04:33Z</time>
      </trkpt>
      <trkpt lat="44.11673" lon="7.01024">
        <ele>1917</ele>
        <time>2009-07-05T08:04:51Z</time>
      </trkpt>
      <trkpt lat="44.11666" lon="7.01058">
        <ele>1921.3</ele>
        <time>2009-07-05T08:05:12Z</time>
      </trkpt>
      <trkpt lat="44.11636" lon="7.01078">
        <ele>1929.5</ele>
        <time>2009-07-05T08:05:39Z</time>
      </trkpt>
      <trkpt lat="44.11613" lon="7.01106">
        <ele>1935.8</ele>
        <time>2009-07-05T08:06:00Z</time>
      </trkpt>
      <trkpt lat="44.11587" lon="7.01141">
        <ele>1936.7</ele>
        <time>2009-07-05T08:06:29Z</time>
      </trkpt>
      <trkpt lat="44.11563" lon="7.01178">
        <ele>1929</ele>
        <time>2009-07-05T08:06:59Z</time>
      </trkpt>
      <trkpt lat="44.11541" lon="7.01215">
        <ele>1915.6</ele>
        <time>2009-07-05T08:07:26Z</time>
      </trkpt>
      <trkpt lat="44.11523" lon="7.01244">
        <ele>1910.8</ele>
        <time>2009-07-05T08:07:46Z</time>
      </trkpt>
      <trkpt lat="44.11505" lon="7.01277">
        <ele>1911.2</ele>
        <time>2009-07-05T08:08:05Z</time>
      </trkpt>
      <trkpt lat="44.11488" lon="7.01313">
        <ele>1915.6</ele>
        <time>2009-07-05T08:08:30Z</time>
      </trkpt>
      <trkpt lat="44.11478" lon="7.01347">
        <ele>1918.4</ele>
        <time>2009-07-05T08:08:45Z</time>
      </trkpt>
      <trkpt lat="44.1147" lon="7.01386">
        <ele>1922.3</ele>
        <time>2009-07-05T08:09:08Z</time>
      </trkpt>
      <trkpt lat="44.11466" lon="7.01423">
        <ele>1924.7</ele>
        <time>2009-07-05T08:09:28Z</time>
      </trkpt>
      <trkpt lat="44.11461" lon="7.01461">
        <ele>1924.2</ele>
        <time>2009-07-05T08:09:50Z</time>
      </trkpt>
      <trkpt lat="44.1146" lon="7.015">
        <ele>1926.6</ele>
        <time>2009-07-05T08:10:12Z</time>
      </trkpt>
      <trkpt lat="44.11464" lon="7.01537">
        <ele>1928.5</ele>
        <time>2009-07-05T08:10:27Z</time>
      </trkpt>
      <trkpt lat="44.11467" lon="7.01576">
        <ele>1930</ele>
        <time>2009-07-05T08:10:50Z</time>
      </trkpt>
      <trkpt lat="44.11463" lon="7.01611">
        <ele>1930.9</ele>
        <time>2009-07-05T08:11:12Z</time>
      </trkpt>
      <trkpt lat="44.11441" lon="7.01629">
        <ele>1916.5</ele>
        <time>2009-07-05T08:11:30Z</time>
      </trkpt>
      <trkpt lat="44.11418" lon="7.0165">
        <ele>1908.4</ele>
        <time>2009-07-05T08:11:49Z</time>
      </trkpt>
      <trkpt lat="44.11383" lon="7.01659">
        <ele>1908.8</ele>
        <time>2009-07-05T08:12:13Z</time>
      </trkpt>
      <trkpt lat="44.11354" lon="7.01676">
        <ele>1909.3</ele>
        <time>2009-07-05T08:13:16Z</time>
      </trkpt>
      <trkpt lat="44.1134" lon="7.01731">
        <ele>1895.4</ele>
        <time>2009-07-05T08:15:53Z</time>
      </trkpt>
      <trkpt lat="44.11339" lon="7.01772">
        <ele>1896.3</ele>
        <time>2009-07-05T08:16:18Z</time>
      </trkpt>
      <trkpt lat="44.11331" lon="7.01817">
        <ele>1890.1</ele>
        <time>2009-07-05T08:16:38Z</time>
      </trkpt>
      <trkpt lat="44.11323" lon="7.01856">
        <ele>1893.5</ele>
        <time>2009-07-05T08:17:00Z</time>
      </trkpt>
      <trkpt lat="44.11316" lon="7.01898">
        <ele>1889.6</ele>
        <time>2009-07-05T08:17:25Z</time>
      </trkpt>
      <trkpt lat="44.11301" lon="7.01939">
        <ele>1883.4</ele>
        <time>2009-07-05T08:17:47Z</time>
      </trkpt>
      <trkpt lat="44.11282" lon="7.01985">
        <ele>1868</ele>
        <time>2009-07-05T08:18:16Z</time>
      </trkpt>
      <trkpt lat="44.11253" lon="7.02025">
        <ele>1862.7</ele>
        <time>2009-07-05T08:18:41Z</time>
      </trkpt>
      <trkpt lat="44.1122" lon="7.02058">
        <ele>1856</ele>
        <time>2009-07-05T08:19:07Z</time>
      </trkpt>
      <trkpt lat="44.11187" lon="7.02083">
        <ele>1847.3</ele>
        <time>2009-07-05T08:19:32Z</time>
      </trkpt>
      <trkpt lat="44.11151" lon="7.02128">
        <ele>1839.1</ele>
        <time>2009-07-05T08:20:07Z</time>
      </trkpt>
      <trkpt lat="44.11132" lon="7.0216">
        <ele>1835.3</ele>
        <time>2009-07-05T08:20:35Z</time>
      </trkpt>
      <trkpt lat="44.11081" lon="7.02218">
        <ele>1836.7</ele>
        <time>2009-07-05T08:21:30Z</time>
      </trkpt>
      <trkpt lat="44.11044" lon="7.02237">
        <ele>1831.4</ele>
        <time>2009-07-05T08:21:55Z</time>
      </trkpt>
      <trkpt lat="44.10993" lon="7.02277">
        <ele>1827.1</ele>
        <time>2009-07-05T08:22:41Z</time>
      </trkpt>
      <trkpt lat="44.10968" lon="7.02321">
        <ele>1825.2</ele>
        <time>2009-07-05T08:23:08Z</time>
      </trkpt>
      <trkpt lat="44.10959" lon="7.02361">
        <ele>1818</ele>
        <time>2009-07-05T08:23:28Z</time>
      </trkpt>
      <trkpt lat="44.10948" lon="7.02397">
        <ele>1811.7</ele>
        <time>2009-07-05T08:23:48Z</time>
      </trkpt>
      <trkpt lat="44.10934" lon="7.02431">
        <ele>1813.2</ele>
        <time>2009-07-05T08:24:09Z</time>
      </trkpt>
      <trkpt lat="44.10919" lon="7.02464">
        <ele>1812.7</ele>
        <time>2009-07-05T08:24:29Z</time>
      </trkpt>
      <trkpt lat="44.10907" lon="7.02498">
        <ele>1812.2</ele>
        <time>2009-07-05T08:24:50Z</time>
      </trkpt>
      <trkpt lat="44.10892" lon="7.02531">
        <ele>1808.9</ele>
        <time>2009-07-05T08:25:10Z</time>
      </trkpt>
      <trkpt lat="44.10874" lon="7.0256">
        <ele>1808.9</ele>
        <time>2009-07-05T08:25:31Z</time>
      </trkpt>
      <trkpt lat="44.1087" lon="7.02597">
        <ele>1808.4</ele>
        <time>2009-07-05T08:25:51Z</time>
      </trkpt>
      <trkpt lat="44.10863" lon="7.02633">
        <ele>1805.5</ele>
        <time>2009-07-05T08:26:12Z</time>
      </trkpt>
      <trkpt lat="44.10844" lon="7.02658">
        <ele>1803.6</ele>
        <time>2009-07-05T08:26:30Z</time>
      </trkpt>
      <trkpt lat="44.10819" lon="7.02673">
        <ele>1802.1</ele>
        <time>2009-07-05T08:26:46Z</time>
      </trkpt>
      <trkpt lat="44.10787" lon="7.02683">
        <ele>1798.3</ele>
        <time>2009-07-05T08:26:56Z</time>
      </trkpt>
      <trkpt lat="44.10759" lon="7.02688">
        <ele>1792.5</ele>
        <time>2009-07-05T08:27:06Z</time>
      </trkpt>
      <trkpt lat="44.10731" lon="7.0268">
        <ele>1782.4</ele>
        <time>2009-07-05T08:27:17Z</time>
      </trkpt>
      <trkpt lat="44.10705" lon="7.02679">
        <ele>1775.2</ele>
        <time>2009-07-05T08:27:30Z</time>
      </trkpt>
      <trkpt lat="44.10675" lon="7.02678">
        <ele>1769.4</ele>
        <time>2009-07-05T08:27:45Z</time>
      </trkpt>
      <trkpt lat="44.10635" lon="7.02655">
        <ele>1759.8</ele>
        <time>2009-07-05T08:28:03Z</time>
      </trkpt>
      <trkpt lat="44.10597" lon="7.02636">
        <ele>1753.6</ele>
        <time>2009-07-05T08:28:20Z</time>
      </trkpt>
      <trkpt lat="44.10554" lon="7.02616">
        <ele>1748.3</ele>
        <time>2009-07-05T08:28:39Z</time>
      </trkpt>
      <trkpt lat="44.10518" lon="7.02613">
        <ele>1743.5</ele>
        <time>2009-07-05T08:28:53Z</time>
      </trkpt>
      <trkpt lat="44.10486" lon="7.0262">
        <ele>1741.1</ele>
        <time>2009-07-05T08:29:06Z</time>
      </trkpt>
      <trkpt lat="44.10452" lon="7.02626">
        <ele>1736.8</ele>
        <time>2009-07-05T08:29:17Z</time>
      </trkpt>
      <trkpt lat="44.10424" lon="7.02617">
        <ele>1733.4</ele>
        <time>2009-07-05T08:29:27Z</time>
      </trkpt>
      <trkpt lat="44.10399" lon="7.02595">
        <ele>1726.2</ele>
        <time>2009-07-05T08:29:38Z</time>
      </trkpt>
      <trkpt lat="44.10386" lon="7.02559">
        <ele>1723.8</ele>
        <time>2009-07-05T08:29:50Z</time>
      </trkpt>
      <trkpt lat="44.1038" lon="7.02521">
        <ele>1727.1</ele>
        <time>2009-07-05T08:30:02Z</time>
      </trkpt>
      <trkpt lat="44.10365" lon="7.02487">
        <ele>1729.5</ele>
        <time>2009-07-05T08:30:15Z</time>
      </trkpt>
      <trkpt lat="44.10349" lon="7.02449">
        <ele>1732.4</ele>
        <time>2009-07-05T08:30:28Z</time>
      </trkpt>
      <trkpt lat="44.10331" lon="7.02419">
        <ele>1732</ele>
        <time>2009-07-05T08:30:43Z</time>
      </trkpt>
      <trkpt lat="44.10308" lon="7.02385">
        <ele>1728.1</ele>
        <time>2009-07-05T08:30:56Z</time>
      </trkpt>
      <trkpt lat="44.10283" lon="7.02363">
        <ele>1724.7</ele>
        <time>2009-07-05T08:31:09Z</time>
      </trkpt>
      <trkpt lat="44.10258" lon="7.0234">
        <ele>1725.2</ele>
        <time>2009-07-05T08:31:22Z</time>
      </trkpt>
      <trkpt lat="44.10233" lon="7.02315">
        <ele>1721.9</ele>
        <time>2009-07-05T08:31:34Z</time>
      </trkpt>
      <trkpt lat="44.102" lon="7.02303">
        <ele>1717.5</ele>
        <time>2009-07-05T08:31:54Z</time>
      </trkpt>
      <trkpt lat="44.1016" lon="7.02297">
        <ele>1709.8</ele>
        <time>2009-07-05T08:32:11Z</time>
      </trkpt>
      <trkpt lat="44.10128" lon="7.02311">
        <ele>1706.5</ele>
        <time>2009-07-05T08:32:24Z</time>
      </trkpt>
      <trkpt lat="44.10099" lon="7.02317">
        <ele>1701.2</ele>
        <time>2009-07-05T08:32:37Z</time>
      </trkpt>
      <trkpt lat="44.10067" lon="7.02311">
        <ele>1696.4</ele>
        <time>2009-07-05T08:32:48Z</time>
      </trkpt>
      <trkpt lat="44.10038" lon="7.02317">
        <ele>1687.7</ele>
        <time>2009-07-05T08:33:01Z</time>
      </trkpt>
      <trkpt lat="44.10014" lon="7.02309">
        <ele>1682</ele>
        <time>2009-07-05T08:33:16Z</time>
      </trkpt>
      <trkpt lat="44.10003" lon="7.02276">
        <ele>1682.9</ele>
        <time>2009-07-05T08:41:00Z</time>
      </trkpt>
      <trkpt lat="44.09973" lon="7.02272">
        <ele>1689.7</ele>
        <time>2009-07-05T08:41:27Z</time>
      </trkpt>
      <trkpt lat="44.09951" lon="7.02286">
        <ele>1691.1</ele>
        <time>2009-07-05T08:41:51Z</time>
      </trkpt>
      <trkpt lat="44.09923" lon="7.02283">
        <ele>1688.7</ele>
        <time>2009-07-05T08:42:13Z</time>
      </trkpt>
      <trkpt lat="44.09893" lon="7.0227">
        <ele>1686.8</ele>
        <time>2009-07-05T08:42:42Z</time>
      </trkpt>
      <trkpt lat="44.09866" lon="7.02255">
        <ele>1691.1</ele>
        <time>2009-07-05T08:43:07Z</time>
      </trkpt>
      <trkpt lat="44.09841" lon="7.02237">
        <ele>1690.1</ele>
        <time>2009-07-05T08:43:30Z</time>
      </trkpt>
      <trkpt lat="44.09811" lon="7.02232">
        <ele>1690.1</ele>
        <time>2009-07-05T08:43:52Z</time>
      </trkpt>
      <trkpt lat="44.09784" lon="7.02242">
        <ele>1690.1</ele>
        <time>2009-07-05T08:44:15Z</time>
      </trkpt>
      <trkpt lat="44.09751" lon="7.0224">
        <ele>1687.7</ele>
        <time>2009-07-05T08:44:40Z</time>
      </trkpt>
      <trkpt lat="44.09719" lon="7.02235">
        <ele>1687.7</ele>
        <time>2009-07-05T08:44:58Z</time>
      </trkpt>
      <trkpt lat="44.09692" lon="7.02222">
        <ele>1685.8</ele>
        <time>2009-07-05T08:45:14Z</time>
      </trkpt>
      <trkpt lat="44.09678" lon="7.02253">
        <ele>1694.5</ele>
        <time>2009-07-05T08:45:34Z</time>
      </trkpt>
      <trkpt lat="44.09664" lon="7.02283">
        <ele>1702.2</ele>
        <time>2009-07-05T08:45:50Z</time>
      </trkpt>
      <trkpt lat="44.09646" lon="7.02307">
        <ele>1700.2</ele>
        <time>2009-07-05T08:46:08Z</time>
      </trkpt>
      <trkpt lat="44.09625" lon="7.02333">
        <ele>1690.6</ele>
        <time>2009-07-05T08:46:31Z</time>
      </trkpt>
      <trkpt lat="44.09595" lon="7.0236">
        <ele>1687.7</ele>
        <time>2009-07-05T08:47:02Z</time>
      </trkpt>
      <trkpt lat="44.0955" lon="7.02371">
        <ele>1682.9</ele>
        <time>2009-07-05T08:47:36Z</time>
      </trkpt>
      <trkpt lat="44.09511" lon="7.02398">
        <ele>1680</ele>
        <time>2009-07-05T08:48:02Z</time>
      </trkpt>
      <trkpt lat="44.09478" lon="7.02403">
        <ele>1676.7</ele>
        <time>2009-07-05T08:48:17Z</time>
      </trkpt>
      <trkpt lat="44.09441" lon="7.02409">
        <ele>1675.7</ele>
        <time>2009-07-05T08:48:33Z</time>
      </trkpt>
      <trkpt lat="44.0938" lon="7.02437">
        <ele>1682</ele>
        <time>2009-07-05T08:49:12Z</time>
      </trkpt>
      <trkpt lat="44.09361" lon="7.02402">
        <ele>1686.3</ele>
        <time>2009-07-05T08:49:26Z</time>
      </trkpt>
      <trkpt lat="44.09349" lon="7.02367">
        <ele>1685.8</ele>
        <time>2009-07-05T08:49:43Z</time>
      </trkpt>
      <trkpt lat="44.09335" lon="7.02333">
        <ele>1684.8</ele>
        <time>2009-07-05T08:50:02Z</time>
      </trkpt>
      <trkpt lat="44.09305" lon="7.02324">
        <ele>1689.2</ele>
        <time>2009-07-05T08:50:22Z</time>
      </trkpt>
      <trkpt lat="44.09295" lon="7.02343">
        <ele>1693</ele>
        <time>2009-07-05T08:50:40Z</time>
      </trkpt>
      <trkpt lat="44.0928" lon="7.02374">
        <ele>1695.4</ele>
        <time>2009-07-05T08:50:59Z</time>
      </trkpt>
      <trkpt lat="44.09263" lon="7.02406">
        <ele>1696.4</ele>
        <time>2009-07-05T08:51:19Z</time>
      </trkpt>
      <trkpt lat="44.0924" lon="7.02434">
        <ele>1696.9</ele>
        <time>2009-07-05T08:51:37Z</time>
      </trkpt>
      <trkpt lat="44.09218" lon="7.02464">
        <ele>1697.3</ele>
        <time>2009-07-05T08:51:56Z</time>
      </trkpt>
      <trkpt lat="44.09204" lon="7.02495">
        <ele>1699.3</ele>
        <time>2009-07-05T08:52:14Z</time>
      </trkpt>
      <trkpt lat="44.09192" lon="7.02533">
        <ele>1699.3</ele>
        <time>2009-07-05T08:52:36Z</time>
      </trkpt>
      <trkpt lat="44.09171" lon="7.02565">
        <ele>1698.8</ele>
        <time>2009-07-05T08:52:55Z</time>
      </trkpt>
      <trkpt lat="44.09149" lon="7.02594">
        <ele>1697.8</ele>
        <time>2009-07-05T08:53:14Z</time>
      </trkpt>
      <trkpt lat="44.09121" lon="7.02621">
        <ele>1696.4</ele>
        <time>2009-07-05T08:53:36Z</time>
      </trkpt>
      <trkpt lat="44.09084" lon="7.02646">
        <ele>1696.9</ele>
        <time>2009-07-05T08:54:06Z</time>
      </trkpt>
      <trkpt lat="44.09029" lon="7.0265">
        <ele>1701.7</ele>
        <time>2009-07-05T08:54:45Z</time>
      </trkpt>
      <trkpt lat="44.08988" lon="7.02643">
        <ele>1705.5</ele>
        <time>2009-07-05T08:55:06Z</time>
      </trkpt>
      <trkpt lat="44.08956" lon="7.02626">
        <ele>1708.4</ele>
        <time>2009-07-05T08:55:28Z</time>
      </trkpt>
      <trkpt lat="44.08922" lon="7.0261">
        <ele>1710.8</ele>
        <time>2009-07-05T08:55:45Z</time>
      </trkpt>
      <trkpt lat="44.08894" lon="7.02577">
        <ele>1704.6</ele>
        <time>2009-07-05T08:55:57Z</time>
      </trkpt>
      <trkpt lat="44.08867" lon="7.02578">
        <ele>1708.4</ele>
        <time>2009-07-05T08:56:12Z</time>
      </trkpt>
      <trkpt lat="44.08802" lon="7.02586">
        <ele>1712.2</ele>
        <time>2009-07-05T08:56:51Z</time>
      </trkpt>
      <trkpt lat="44.08769" lon="7.02583">
        <ele>1716.6</ele>
        <time>2009-07-05T08:57:15Z</time>
      </trkpt>
      <trkpt lat="44.08732" lon="7.02583">
        <ele>1719.9</ele>
        <time>2009-07-05T08:57:35Z</time>
      </trkpt>
      <trkpt lat="44.08706" lon="7.02553">
        <ele>1715.1</ele>
        <time>2009-07-05T08:57:55Z</time>
      </trkpt>
      <trkpt lat="44.08692" lon="7.02521">
        <ele>1712.2</ele>
        <time>2009-07-05T08:58:15Z</time>
      </trkpt>
      <trkpt lat="44.08659" lon="7.02512">
        <ele>1718</ele>
        <time>2009-07-05T08:58:40Z</time>
      </trkpt>
      <trkpt lat="44.08623" lon="7.02503">
        <ele>1723.8</ele>
        <time>2009-07-05T08:59:05Z</time>
      </trkpt>
      <trkpt lat="44.08596" lon="7.02474">
        <ele>1728.6</ele>
        <time>2009-07-05T08:59:27Z</time>
      </trkpt>
      <trkpt lat="44.08582" lon="7.02439">
        <ele>1726.2</ele>
        <time>2009-07-05T08:59:46Z</time>
      </trkpt>
      <trkpt lat="44.08556" lon="7.02424">
        <ele>1729.5</ele>
        <time>2009-07-05T09:00:00Z</time>
      </trkpt>
      <trkpt lat="44.08536" lon="7.02388">
        <ele>1722.8</ele>
        <time>2009-07-05T09:00:36Z</time>
      </trkpt>
      <trkpt lat="44.08525" lon="7.0239">
        <ele>1720.9</ele>
        <time>2009-07-05T09:02:58Z</time>
      </trkpt>
      <trkpt lat="44.08531" lon="7.02431">
        <ele>1719.5</ele>
        <time>2009-07-05T09:03:11Z</time>
      </trkpt>
      <trkpt lat="44.08528" lon="7.02471">
        <ele>1721.9</ele>
        <time>2009-07-05T09:03:24Z</time>
      </trkpt>
      <trkpt lat="44.08525" lon="7.02514">
        <ele>1726.2</ele>
        <time>2009-07-05T09:03:38Z</time>
      </trkpt>
      <trkpt lat="44.08503" lon="7.02545">
        <ele>1727.6</ele>
        <time>2009-07-05T09:03:53Z</time>
      </trkpt>
      <trkpt lat="44.08468" lon="7.02572">
        <ele>1728.6</ele>
        <time>2009-07-05T09:04:09Z</time>
      </trkpt>
      <trkpt lat="44.08435" lon="7.02582">
        <ele>1724.3</ele>
        <time>2009-07-05T09:04:24Z</time>
      </trkpt>
      <trkpt lat="44.08395" lon="7.02602">
        <ele>1719.5</ele>
        <time>2009-07-05T09:04:42Z</time>
      </trkpt>
      <trkpt lat="44.08351" lon="7.02616">
        <ele>1718</ele>
        <time>2009-07-05T09:05:01Z</time>
      </trkpt>
      <trkpt lat="44.0831" lon="7.02611">
        <ele>1712.7</ele>
        <time>2009-07-05T09:05:14Z</time>
      </trkpt>
      <trkpt lat="44.08273" lon="7.026">
        <ele>1707.4</ele>
        <time>2009-07-05T09:05:31Z</time>
      </trkpt>
      <trkpt lat="44.08244" lon="7.02593">
        <ele>1706.5</ele>
        <time>2009-07-05T09:05:45Z</time>
      </trkpt>
      <trkpt lat="44.08216" lon="7.02582">
        <ele>1705</ele>
        <time>2009-07-05T09:05:57Z</time>
      </trkpt>
      <trkpt lat="44.08191" lon="7.02573">
        <ele>1703.6</ele>
        <time>2009-07-05T09:06:09Z</time>
      </trkpt>
      <trkpt lat="44.08164" lon="7.02555">
        <ele>1694.9</ele>
        <time>2009-07-05T09:06:23Z</time>
      </trkpt>
      <trkpt lat="44.08138" lon="7.02551">
        <ele>1693</ele>
        <time>2009-07-05T09:06:41Z</time>
      </trkpt>
      <trkpt lat="44.08111" lon="7.02533">
        <ele>1695.9</ele>
        <time>2009-07-05T09:07:06Z</time>
      </trkpt>
      <trkpt lat="44.08079" lon="7.02557">
        <ele>1695.9</ele>
        <time>2009-07-05T09:07:31Z</time>
      </trkpt>
      <trkpt lat="44.08061" lon="7.02589">
        <ele>1694.9</ele>
        <time>2009-07-05T09:07:45Z</time>
      </trkpt>
      <trkpt lat="44.08056" lon="7.0263">
        <ele>1696.9</ele>
        <time>2009-07-05T09:07:59Z</time>
      </trkpt>
      <trkpt lat="44.08053" lon="7.0267">
        <ele>1698.8</ele>
        <time>2009-07-05T09:08:11Z</time>
      </trkpt>
      <trkpt lat="44.08037" lon="7.02703">
        <ele>1701.2</ele>
        <time>2009-07-05T09:08:24Z</time>
      </trkpt>
      <trkpt lat="44.08011" lon="7.02739">
        <ele>1698.8</ele>
        <time>2009-07-05T09:08:36Z</time>
      </trkpt>
      <trkpt lat="44.07989" lon="7.02767">
        <ele>1698.3</ele>
        <time>2009-07-05T09:08:48Z</time>
      </trkpt>
      <trkpt lat="44.0797" lon="7.02803">
        <ele>1697.8</ele>
        <time>2009-07-05T09:09:02Z</time>
      </trkpt>
      <trkpt lat="44.07943" lon="7.02833">
        <ele>1706</ele>
        <time>2009-07-05T09:09:18Z</time>
      </trkpt>
      <trkpt lat="44.07906" lon="7.02847">
        <ele>1707.9</ele>
        <time>2009-07-05T09:09:34Z</time>
      </trkpt>
      <trkpt lat="44.07855" lon="7.02851">
        <ele>1707</ele>
        <time>2009-07-05T09:10:00Z</time>
      </trkpt>
      <trkpt lat="44.07821" lon="7.02851">
        <ele>1698.8</ele>
        <time>2009-07-05T09:10:23Z</time>
      </trkpt>
      <trkpt lat="44.07787" lon="7.02858">
        <ele>1704.6</ele>
        <time>2009-07-05T09:10:49Z</time>
      </trkpt>
      <trkpt lat="44.07751" lon="7.02867">
        <ele>1712.7</ele>
        <time>2009-07-05T09:11:16Z</time>
      </trkpt>
      <trkpt lat="44.07728" lon="7.02876">
        <ele>1716.6</ele>
        <time>2009-07-05T09:11:40Z</time>
      </trkpt>
      <trkpt lat="44.0769" lon="7.02882">
        <ele>1719.5</ele>
        <time>2009-07-05T09:12:06Z</time>
      </trkpt>
      <trkpt lat="44.07663" lon="7.02899">
        <ele>1714.6</ele>
        <time>2009-07-05T09:12:30Z</time>
      </trkpt>
      <trkpt lat="44.07629" lon="7.02921">
        <ele>1714.2</ele>
        <time>2009-07-05T09:13:00Z</time>
      </trkpt>
      <trkpt lat="44.07591" lon="7.02915">
        <ele>1716.1</ele>
        <time>2009-07-05T09:13:19Z</time>
      </trkpt>
      <trkpt lat="44.07559" lon="7.02906">
        <ele>1719.5</ele>
        <time>2009-07-05T09:13:33Z</time>
      </trkpt>
      <trkpt lat="44.07528" lon="7.02901">
        <ele>1719.5</ele>
        <time>2009-07-05T09:13:46Z</time>
      </trkpt>
      <trkpt lat="44.07497" lon="7.02917">
        <ele>1720.4</ele>
        <time>2009-07-05T09:13:59Z</time>
      </trkpt>
      <trkpt lat="44.07464" lon="7.02916">
        <ele>1719</ele>
        <time>2009-07-05T09:14:12Z</time>
      </trkpt>
      <trkpt lat="44.07433" lon="7.02911">
        <ele>1715.1</ele>
        <time>2009-07-05T09:14:23Z</time>
      </trkpt>
      <trkpt lat="44.07403" lon="7.02902">
        <ele>1715.6</ele>
        <time>2009-07-05T09:14:36Z</time>
      </trkpt>
      <trkpt lat="44.07378" lon="7.02892">
        <ele>1710.8</ele>
        <time>2009-07-05T09:14:48Z</time>
      </trkpt>
      <trkpt lat="44.07353" lon="7.02873">
        <ele>1705.5</ele>
        <time>2009-07-05T09:15:01Z</time>
      </trkpt>
      <trkpt lat="44.07326" lon="7.02859">
        <ele>1701.7</ele>
        <time>2009-07-05T09:15:15Z</time>
      </trkpt>
      <trkpt lat="44.07327" lon="7.02892">
        <ele>1698.3</ele>
        <time>2009-07-05T09:15:35Z</time>
      </trkpt>
      <trkpt lat="44.07331" lon="7.02934">
        <ele>1700.2</ele>
        <time>2009-07-05T09:15:52Z</time>
      </trkpt>
      <trkpt lat="44.07336" lon="7.02978">
        <ele>1702.2</ele>
        <time>2009-07-05T09:16:08Z</time>
      </trkpt>
      <trkpt lat="44.07356" lon="7.03026">
        <ele>1701.2</ele>
        <time>2009-07-05T09:16:24Z</time>
      </trkpt>
      <trkpt lat="44.07367" lon="7.03072">
        <ele>1702.2</ele>
        <time>2009-07-05T09:16:37Z</time>
      </trkpt>
      <trkpt lat="44.07367" lon="7.03116">
        <ele>1700.7</ele>
        <time>2009-07-05T09:16:50Z</time>
      </trkpt>
      <trkpt lat="44.0735" lon="7.0315">
        <ele>1700.2</ele>
        <time>2009-07-05T09:17:07Z</time>
      </trkpt>
      <trkpt lat="44.07318" lon="7.03141">
        <ele>1701.7</ele>
        <time>2009-07-05T09:17:29Z</time>
      </trkpt>
      <trkpt lat="44.073" lon="7.03108">
        <ele>1704.6</ele>
        <time>2009-07-05T09:17:49Z</time>
      </trkpt>
      <trkpt lat="44.07287" lon="7.03074">
        <ele>1707</ele>
        <time>2009-07-05T09:18:09Z</time>
      </trkpt>
      <trkpt lat="44.07263" lon="7.0305">
        <ele>1708.4</ele>
        <time>2009-07-05T09:18:31Z</time>
      </trkpt>
      <trkpt lat="44.07237" lon="7.0303">
        <ele>1714.2</ele>
        <time>2009-07-05T09:18:50Z</time>
      </trkpt>
      <trkpt lat="44.07208" lon="7.03003">
        <ele>1717.1</ele>
        <time>2009-07-05T09:19:15Z</time>
      </trkpt>
      <trkpt lat="44.07184" lon="7.02977">
        <ele>1718.5</ele>
        <time>2009-07-05T09:19:36Z</time>
      </trkpt>
      <trkpt lat="44.07153" lon="7.02966">
        <ele>1715.6</ele>
        <time>2009-07-05T09:19:58Z</time>
      </trkpt>
      <trkpt lat="44.07126" lon="7.02969">
        <ele>1712.7</ele>
        <time>2009-07-05T09:20:21Z</time>
      </trkpt>
      <trkpt lat="44.07089" lon="7.02978">
        <ele>1707.4</ele>
        <time>2009-07-05T09:20:46Z</time>
      </trkpt>
      <trkpt lat="44.07055" lon="7.02966">
        <ele>1702.6</ele>
        <time>2009-07-05T09:21:02Z</time>
      </trkpt>
      <trkpt lat="44.07014" lon="7.02969">
        <ele>1699.3</ele>
        <time>2009-07-05T09:21:23Z</time>
      </trkpt>
      <trkpt lat="44.07008" lon="7.03008">
        <ele>1696.9</ele>
        <time>2009-07-05T09:21:38Z</time>
      </trkpt>
      <trkpt lat="44.06986" lon="7.03052">
        <ele>1703.6</ele>
        <time>2009-07-05T09:21:52Z</time>
      </trkpt>
      <trkpt lat="44.06959" lon="7.03083">
        <ele>1706.5</ele>
        <time>2009-07-05T09:22:07Z</time>
      </trkpt>
      <trkpt lat="44.06923" lon="7.03105">
        <ele>1707</ele>
        <time>2009-07-05T09:22:29Z</time>
      </trkpt>
      <trkpt lat="44.06878" lon="7.03149">
        <ele>1713.2</ele>
        <time>2009-07-05T09:23:15Z</time>
      </trkpt>
      <trkpt lat="44.06849" lon="7.03191">
        <ele>1717.5</ele>
        <time>2009-07-05T09:23:40Z</time>
      </trkpt>
      <trkpt lat="44.06824" lon="7.03219">
        <ele>1718.5</ele>
        <time>2009-07-05T09:24:02Z</time>
      </trkpt>
      <trkpt lat="44.06801" lon="7.03246">
        <ele>1719.9</ele>
        <time>2009-07-05T09:24:25Z</time>
      </trkpt>
      <trkpt lat="44.0678" lon="7.03277">
        <ele>1722.8</ele>
        <time>2009-07-05T09:24:45Z</time>
      </trkpt>
      <trkpt lat="44.06769" lon="7.03319">
        <ele>1726.2</ele>
        <time>2009-07-05T09:25:00Z</time>
      </trkpt>
      <trkpt lat="44.06779" lon="7.03369">
        <ele>1729.1</ele>
        <time>2009-07-05T09:25:13Z</time>
      </trkpt>
      <trkpt lat="44.0677" lon="7.03411">
        <ele>1734.8</ele>
        <time>2009-07-05T09:25:28Z</time>
      </trkpt>
      <trkpt lat="44.06739" lon="7.03445">
        <ele>1733.9</ele>
        <time>2009-07-05T09:25:43Z</time>
      </trkpt>
      <trkpt lat="44.06731" lon="7.03488">
        <ele>1737.7</ele>
        <time>2009-07-05T09:25:59Z</time>
      </trkpt>
      <trkpt lat="44.06723" lon="7.03538">
        <ele>1737.2</ele>
        <time>2009-07-05T09:26:13Z</time>
      </trkpt>
      <trkpt lat="44.06708" lon="7.03576">
        <ele>1737.7</ele>
        <time>2009-07-05T09:26:28Z</time>
      </trkpt>
      <trkpt lat="44.06679" lon="7.03622">
        <ele>1727.6</ele>
        <time>2009-07-05T09:26:39Z</time>
      </trkpt>
      <trkpt lat="44.06657" lon="7.03642">
        <ele>1720.9</ele>
        <time>2009-07-05T09:26:50Z</time>
      </trkpt>
      <trkpt lat="44.06661" lon="7.03691">
        <ele>1719</ele>
        <time>2009-07-05T09:27:07Z</time>
      </trkpt>
      <trkpt lat="44.0665" lon="7.03754">
        <ele>1707.9</ele>
        <time>2009-07-05T09:27:37Z</time>
      </trkpt>
      <trkpt lat="44.06658" lon="7.0381">
        <ele>1705.5</ele>
        <time>2009-07-05T09:28:09Z</time>
      </trkpt>
      <trkpt lat="44.06647" lon="7.0385">
        <ele>1704.1</ele>
        <time>2009-07-05T09:28:30Z</time>
      </trkpt>
      <trkpt lat="44.06627" lon="7.03877">
        <ele>1703.1</ele>
        <time>2009-07-05T09:28:50Z</time>
      </trkpt>
      <trkpt lat="44.06613" lon="7.03909">
        <ele>1707.9</ele>
        <time>2009-07-05T09:29:11Z</time>
      </trkpt>
      <trkpt lat="44.06589" lon="7.03941">
        <ele>1706</ele>
        <time>2009-07-05T09:29:34Z</time>
      </trkpt>
      <trkpt lat="44.06563" lon="7.03957">
        <ele>1704.1</ele>
        <time>2009-07-05T09:29:59Z</time>
      </trkpt>
      <trkpt lat="44.06525" lon="7.03951">
        <ele>1707.9</ele>
        <time>2009-07-05T09:30:27Z</time>
      </trkpt>
      <trkpt lat="44.06489" lon="7.03932">
        <ele>1719.5</ele>
        <time>2009-07-05T09:30:59Z</time>
      </trkpt>
      <trkpt lat="44.06444" lon="7.03911">
        <ele>1729.1</ele>
        <time>2009-07-05T09:31:36Z</time>
      </trkpt>
      <trkpt lat="44.064" lon="7.0389">
        <ele>1732</ele>
        <time>2009-07-05T09:32:09Z</time>
      </trkpt>
      <trkpt lat="44.06363" lon="7.03913">
        <ele>1730.5</ele>
        <time>2009-07-05T09:32:35Z</time>
      </trkpt>
      <trkpt lat="44.06324" lon="7.03933">
        <ele>1727.6</ele>
        <time>2009-07-05T09:32:58Z</time>
      </trkpt>
      <trkpt lat="44.06281" lon="7.03943">
        <ele>1728.1</ele>
        <time>2009-07-05T09:33:20Z</time>
      </trkpt>
      <trkpt lat="44.06244" lon="7.03943">
        <ele>1730.5</ele>
        <time>2009-07-05T09:33:49Z</time>
      </trkpt>
      <trkpt lat="44.06205" lon="7.03978">
        <ele>1727.1</ele>
        <time>2009-07-05T09:34:35Z</time>
      </trkpt>
      <trkpt lat="44.06207" lon="7.04041">
        <ele>1735.8</ele>
        <time>2009-07-05T09:35:14Z</time>
      </trkpt>
      <trkpt lat="44.06212" lon="7.04116">
        <ele>1741.1</ele>
        <time>2009-07-05T09:35:50Z</time>
      </trkpt>
      <trkpt lat="44.06188" lon="7.04189">
        <ele>1743.5</ele>
        <time>2009-07-05T09:36:35Z</time>
      </trkpt>
      <trkpt lat="44.06143" lon="7.04267">
        <ele>1739.6</ele>
        <time>2009-07-05T09:38:22Z</time>
      </trkpt>
      <trkpt lat="44.06145" lon="7.04347">
        <ele>1740.1</ele>
        <time>2009-07-05T09:38:57Z</time>
      </trkpt>
      <trkpt lat="44.06124" lon="7.04395">
        <ele>1737.7</ele>
        <time>2009-07-05T09:39:20Z</time>
      </trkpt>
      <trkpt lat="44.06118" lon="7.04438">
        <ele>1738.2</ele>
        <time>2009-07-05T09:39:40Z</time>
      </trkpt>
      <trkpt lat="44.06091" lon="7.04469">
        <ele>1738.2</ele>
        <time>2009-07-05T09:40:08Z</time>
      </trkpt>
      <trkpt lat="44.06075" lon="7.04511">
        <ele>1737.2</ele>
        <time>2009-07-05T09:40:32Z</time>
      </trkpt>
      <trkpt lat="44.06076" lon="7.04553">
        <ele>1733.4</ele>
        <time>2009-07-05T09:40:45Z</time>
      </trkpt>
      <trkpt lat="44.06083" lon="7.04596">
        <ele>1729.1</ele>
        <time>2009-07-05T09:40:58Z</time>
      </trkpt>
      <trkpt lat="44.0609" lon="7.04638">
        <ele>1726.7</ele>
        <time>2009-07-05T09:41:11Z</time>
      </trkpt>
      <trkpt lat="44.06092" lon="7.04681">
        <ele>1718</ele>
        <time>2009-07-05T09:41:24Z</time>
      </trkpt>
      <trkpt lat="44.06083" lon="7.04717">
        <ele>1715.6</ele>
        <time>2009-07-05T09:41:38Z</time>
      </trkpt>
      <trkpt lat="44.06054" lon="7.04727">
        <ele>1714.2</ele>
        <time>2009-07-05T09:48:38Z</time>
      </trkpt>
      <trkpt lat="44.06032" lon="7.0475">
        <ele>1720.9</ele>
        <time>2009-07-05T09:49:14Z</time>
      </trkpt>
      <trkpt lat="44.06007" lon="7.04763">
        <ele>1728.1</ele>
        <time>2009-07-05T09:49:44Z</time>
      </trkpt>
      <trkpt lat="44.05979" lon="7.04773">
        <ele>1731</ele>
        <time>2009-07-05T09:50:12Z</time>
      </trkpt>
      <trkpt lat="44.05956" lon="7.04785">
        <ele>1737.7</ele>
        <time>2009-07-05T09:50:42Z</time>
      </trkpt>
      <trkpt lat="44.05928" lon="7.04789">
        <ele>1746.4</ele>
        <time>2009-07-05T09:51:18Z</time>
      </trkpt>
      <trkpt lat="44.059" lon="7.04794">
        <ele>1752.1</ele>
        <time>2009-07-05T09:51:54Z</time>
      </trkpt>
      <trkpt lat="44.05872" lon="7.04795">
        <ele>1754.5</ele>
        <time>2009-07-05T09:52:19Z</time>
      </trkpt>
      <trkpt lat="44.05845" lon="7.04798">
        <ele>1754.1</ele>
        <time>2009-07-05T09:52:43Z</time>
      </trkpt>
      <trkpt lat="44.05818" lon="7.04794">
        <ele>1755</ele>
        <time>2009-07-05T09:53:09Z</time>
      </trkpt>
      <trkpt lat="44.05792" lon="7.04803">
        <ele>1751.2</ele>
        <time>2009-07-05T09:53:35Z</time>
      </trkpt>
      <trkpt lat="44.05766" lon="7.04821">
        <ele>1749.3</ele>
        <time>2009-07-05T09:53:59Z</time>
      </trkpt>
      <trkpt lat="44.05743" lon="7.04846">
        <ele>1749.7</ele>
        <time>2009-07-05T09:54:27Z</time>
      </trkpt>
      <trkpt lat="44.05712" lon="7.04875">
        <ele>1751.2</ele>
        <time>2009-07-05T09:55:02Z</time>
      </trkpt>
      <trkpt lat="44.05698" lon="7.04902">
        <ele>1755.5</ele>
        <time>2009-07-05T09:55:33Z</time>
      </trkpt>
      <trkpt lat="44.0569" lon="7.04932">
        <ele>1754.5</ele>
        <time>2009-07-05T09:56:03Z</time>
      </trkpt>
      <trkpt lat="44.05669" lon="7.04958">
        <ele>1751.7</ele>
        <time>2009-07-05T09:56:45Z</time>
      </trkpt>
      <trkpt lat="44.05638" lon="7.04954">
        <ele>1748.3</ele>
        <time>2009-07-05T09:57:16Z</time>
      </trkpt>
      <trkpt lat="44.05611" lon="7.04958">
        <ele>1753.6</ele>
        <time>2009-07-05T09:57:40Z</time>
      </trkpt>
      <trkpt lat="44.05584" lon="7.04969">
        <ele>1756</ele>
        <time>2009-07-05T09:58:05Z</time>
      </trkpt>
      <trkpt lat="44.05559" lon="7.04979">
        <ele>1756.9</ele>
        <time>2009-07-05T09:58:31Z</time>
      </trkpt>
      <trkpt lat="44.05537" lon="7.05001">
        <ele>1760.3</ele>
        <time>2009-07-05T09:58:55Z</time>
      </trkpt>
      <trkpt lat="44.05516" lon="7.05023">
        <ele>1766.6</ele>
        <time>2009-07-05T09:59:20Z</time>
      </trkpt>
      <trkpt lat="44.05493" lon="7.05043">
        <ele>1772.3</ele>
        <time>2009-07-05T09:59:46Z</time>
      </trkpt>
      <trkpt lat="44.05471" lon="7.05059">
        <ele>1776.2</ele>
        <time>2009-07-05T10:00:10Z</time>
      </trkpt>
      <trkpt lat="44.05446" lon="7.05082">
        <ele>1779.5</ele>
        <time>2009-07-05T10:00:36Z</time>
      </trkpt>
      <trkpt lat="44.05423" lon="7.051">
        <ele>1781.5</ele>
        <time>2009-07-05T10:01:05Z</time>
      </trkpt>
      <trkpt lat="44.05395" lon="7.05117">
        <ele>1781.9</ele>
        <time>2009-07-05T10:01:39Z</time>
      </trkpt>
      <trkpt lat="44.05368" lon="7.05127">
        <ele>1787.7</ele>
        <time>2009-07-05T10:02:17Z</time>
      </trkpt>
      <trkpt lat="44.05341" lon="7.05124">
        <ele>1794.4</ele>
        <time>2009-07-05T10:02:44Z</time>
      </trkpt>
      <trkpt lat="44.05312" lon="7.05124">
        <ele>1804.5</ele>
        <time>2009-07-05T10:03:13Z</time>
      </trkpt>
      <trkpt lat="44.05283" lon="7.05126">
        <ele>1811.3</ele>
        <time>2009-07-05T10:03:44Z</time>
      </trkpt>
      <trkpt lat="44.05256" lon="7.05123">
        <ele>1822.8</ele>
        <time>2009-07-05T10:04:14Z</time>
      </trkpt>
      <trkpt lat="44.05229" lon="7.05123">
        <ele>1826.2</ele>
        <time>2009-07-05T10:04:41Z</time>
      </trkpt>
      <trkpt lat="44.05201" lon="7.05119">
        <ele>1830</ele>
        <time>2009-07-05T10:05:08Z</time>
      </trkpt>
      <trkpt lat="44.05173" lon="7.05111">
        <ele>1835.3</ele>
        <time>2009-07-05T10:05:37Z</time>
      </trkpt>
      <trkpt lat="44.05144" lon="7.05104">
        <ele>1837.2</ele>
        <time>2009-07-05T10:06:08Z</time>
      </trkpt>
      <trkpt lat="44.05117" lon="7.05093">
        <ele>1840.6</ele>
        <time>2009-07-05T10:06:35Z</time>
      </trkpt>
      <trkpt lat="44.05093" lon="7.0508">
        <ele>1844.4</ele>
        <time>2009-07-05T10:07:07Z</time>
      </trkpt>
      <trkpt lat="44.05068" lon="7.05067">
        <ele>1845.4</ele>
        <time>2009-07-05T10:07:37Z</time>
      </trkpt>
      <trkpt lat="44.05049" lon="7.051">
        <ele>1852.6</ele>
        <time>2009-07-05T10:08:47Z</time>
      </trkpt>
      <trkpt lat="44.05063" lon="7.05135">
        <ele>1859.3</ele>
        <time>2009-07-05T10:09:27Z</time>
      </trkpt>
      <trkpt lat="44.05072" lon="7.0517">
        <ele>1865.6</ele>
        <time>2009-07-05T10:10:01Z</time>
      </trkpt>
      <trkpt lat="44.05065" lon="7.05208">
        <ele>1868.5</ele>
        <time>2009-07-05T10:11:25Z</time>
      </trkpt>
      <trkpt lat="44.05037" lon="7.05229">
        <ele>1862.7</ele>
        <time>2009-07-05T10:11:49Z</time>
      </trkpt>
      <trkpt lat="44.05024" lon="7.05261">
        <ele>1854.5</ele>
        <time>2009-07-05T10:12:11Z</time>
      </trkpt>
      <trkpt lat="44.05004" lon="7.05288">
        <ele>1848.3</ele>
        <time>2009-07-05T10:12:27Z</time>
      </trkpt>
      <trkpt lat="44.04979" lon="7.0531">
        <ele>1841.5</ele>
        <time>2009-07-05T10:12:43Z</time>
      </trkpt>
      <trkpt lat="44.04952" lon="7.05332">
        <ele>1837.7</ele>
        <time>2009-07-05T10:12:59Z</time>
      </trkpt>
      <trkpt lat="44.04928" lon="7.05352">
        <ele>1833.4</ele>
        <time>2009-07-05T10:13:15Z</time>
      </trkpt>
      <trkpt lat="44.04903" lon="7.0537">
        <ele>1829.5</ele>
        <time>2009-07-05T10:13:30Z</time>
      </trkpt>
      <trkpt lat="44.0488" lon="7.05393">
        <ele>1819.4</ele>
        <time>2009-07-05T10:13:45Z</time>
      </trkpt>
      <trkpt lat="44.04857" lon="7.05415">
        <ele>1812.7</ele>
        <time>2009-07-05T10:14:00Z</time>
      </trkpt>
      <trkpt lat="44.0483" lon="7.05434">
        <ele>1807.4</ele>
        <time>2009-07-05T10:14:15Z</time>
      </trkpt>
      <trkpt lat="44.04805" lon="7.05462">
        <ele>1806</ele>
        <time>2009-07-05T10:14:39Z</time>
      </trkpt>
      <trkpt lat="44.04778" lon="7.05468">
        <ele>1805.5</ele>
        <time>2009-07-05T10:14:56Z</time>
      </trkpt>
      <trkpt lat="44.04749" lon="7.05474">
        <ele>1803.6</ele>
        <time>2009-07-05T10:15:10Z</time>
      </trkpt>
      <trkpt lat="44.04722" lon="7.05476">
        <ele>1806</ele>
        <time>2009-07-05T10:15:24Z</time>
      </trkpt>
      <trkpt lat="44.04697" lon="7.05481">
        <ele>1804.1</ele>
        <time>2009-07-05T10:15:38Z</time>
      </trkpt>
      <trkpt lat="44.04674" lon="7.05504">
        <ele>1798.8</ele>
        <time>2009-07-05T10:15:53Z</time>
      </trkpt>
      <trkpt lat="44.04651" lon="7.05527">
        <ele>1797.3</ele>
        <time>2009-07-05T10:16:07Z</time>
      </trkpt>
      <trkpt lat="44.04627" lon="7.05547">
        <ele>1792.5</ele>
        <time>2009-07-05T10:16:24Z</time>
      </trkpt>
      <trkpt lat="44.04605" lon="7.05568">
        <ele>1785.8</ele>
        <time>2009-07-05T10:16:43Z</time>
      </trkpt>
      <trkpt lat="44.04586" lon="7.05595">
        <ele>1777.6</ele>
        <time>2009-07-05T10:17:03Z</time>
      </trkpt>
      <trkpt lat="44.04566" lon="7.05626">
        <ele>1775.2</ele>
        <time>2009-07-05T10:17:18Z</time>
      </trkpt>
      <trkpt lat="44.04543" lon="7.05644">
        <ele>1779.5</ele>
        <time>2009-07-05T10:17:33Z</time>
      </trkpt>
      <trkpt lat="44.04523" lon="7.05674">
        <ele>1785.8</ele>
        <time>2009-07-05T10:17:59Z</time>
      </trkpt>
      <trkpt lat="44.04507" lon="7.05695">
        <ele>1781.5</ele>
        <time>2009-07-05T10:18:19Z</time>
      </trkpt>
      <trkpt lat="44.045" lon="7.05731">
        <ele>1778.1</ele>
        <time>2009-07-05T10:18:46Z</time>
      </trkpt>
      <trkpt lat="44.04494" lon="7.05773">
        <ele>1774.3</ele>
        <time>2009-07-05T10:19:16Z</time>
      </trkpt>
      <trkpt lat="44.04498" lon="7.05822">
        <ele>1777.6</ele>
        <time>2009-07-05T10:19:52Z</time>
      </trkpt>
      <trkpt lat="44.04494" lon="7.05866">
        <ele>1770.9</ele>
        <time>2009-07-05T10:20:17Z</time>
      </trkpt>
      <trkpt lat="44.04488" lon="7.05906">
        <ele>1761.8</ele>
        <time>2009-07-05T10:20:39Z</time>
      </trkpt>
      <trkpt lat="44.0447" lon="7.05937">
        <ele>1759.8</ele>
        <time>2009-07-05T10:21:03Z</time>
      </trkpt>
      <trkpt lat="44.04447" lon="7.05955">
        <ele>1756.9</ele>
        <time>2009-07-05T10:21:28Z</time>
      </trkpt>
      <trkpt lat="44.04419" lon="7.05981">
        <ele>1754.5</ele>
        <time>2009-07-05T10:21:58Z</time>
      </trkpt>
      <trkpt lat="44.04404" lon="7.06003">
        <ele>1754.1</ele>
        <time>2009-07-05T10:22:23Z</time>
      </trkpt>
      <trkpt lat="44.04384" lon="7.06027">
        <ele>1750.2</ele>
        <time>2009-07-05T10:22:45Z</time>
      </trkpt>
      <trkpt lat="44.04368" lon="7.06058">
        <ele>1747.8</ele>
        <time>2009-07-05T10:23:11Z</time>
      </trkpt>
      <trkpt lat="44.04351" lon="7.0609">
        <ele>1744</ele>
        <time>2009-07-05T10:23:33Z</time>
      </trkpt>
      <trkpt lat="44.04334" lon="7.06122">
        <ele>1741.6</ele>
        <time>2009-07-05T10:23:57Z</time>
      </trkpt>
      <trkpt lat="44.04322" lon="7.06147">
        <ele>1742.5</ele>
        <time>2009-07-05T10:24:27Z</time>
      </trkpt>
      <trkpt lat="44.04315" lon="7.06185">
        <ele>1732.4</ele>
        <time>2009-07-05T10:24:57Z</time>
      </trkpt>
      <trkpt lat="44.04294" lon="7.06215">
        <ele>1724.3</ele>
        <time>2009-07-05T10:25:40Z</time>
      </trkpt>
      <trkpt lat="44.04289" lon="7.06252">
        <ele>1715.6</ele>
        <time>2009-07-05T10:26:03Z</time>
      </trkpt>
      <trkpt lat="44.04286" lon="7.0629">
        <ele>1707.4</ele>
        <time>2009-07-05T10:26:28Z</time>
      </trkpt>
      <trkpt lat="44.04261" lon="7.06311">
        <ele>1700.2</ele>
        <time>2009-07-05T10:27:08Z</time>
      </trkpt>
      <trkpt lat="44.04266" lon="7.06349">
        <ele>1694</ele>
        <time>2009-07-05T10:27:30Z</time>
      </trkpt>
      <trkpt lat="44.04281" lon="7.06385">
        <ele>1689.2</ele>
        <time>2009-07-05T10:27:51Z</time>
      </trkpt>
      <trkpt lat="44.04297" lon="7.06413">
        <ele>1687.7</ele>
        <time>2009-07-05T10:28:12Z</time>
      </trkpt>
      <trkpt lat="44.04313" lon="7.06445">
        <ele>1686.3</ele>
        <time>2009-07-05T10:28:36Z</time>
      </trkpt>
      <trkpt lat="44.04328" lon="7.06475">
        <ele>1682.9</ele>
        <time>2009-07-05T10:29:01Z</time>
      </trkpt>
      <trkpt lat="44.04345" lon="7.06504">
        <ele>1682</ele>
        <time>2009-07-05T10:29:27Z</time>
      </trkpt>
      <trkpt lat="44.04357" lon="7.06541">
        <ele>1673.3</ele>
        <time>2009-07-05T10:30:03Z</time>
      </trkpt>
      <trkpt lat="44.04347" lon="7.06579">
        <ele>1654.6</ele>
        <time>2009-07-05T10:30:36Z</time>
      </trkpt>
      <trkpt lat="44.04349" lon="7.06634">
        <ele>1637.3</ele>
        <time>2009-07-05T10:31:39Z</time>
      </trkpt>
      <trkpt lat="44.04341" lon="7.06671">
        <ele>1628.1</ele>
        <time>2009-07-05T10:32:03Z</time>
      </trkpt>
      <trkpt lat="44.04322" lon="7.06706">
        <ele>1626.7</ele>
        <time>2009-07-05T10:32:27Z</time>
      </trkpt>
      <trkpt lat="44.04295" lon="7.06712">
        <ele>1626.2</ele>
        <time>2009-07-05T10:32:42Z</time>
      </trkpt>
      <trkpt lat="44.04266" lon="7.06706">
        <ele>1623.3</ele>
        <time>2009-07-05T10:33:00Z</time>
      </trkpt>
      <trkpt lat="44.04241" lon="7.06703">
        <ele>1620.4</ele>
        <time>2009-07-05T10:33:14Z</time>
      </trkpt>
      <trkpt lat="44.04215" lon="7.06701">
        <ele>1617.1</ele>
        <time>2009-07-05T10:33:29Z</time>
      </trkpt>
      <trkpt lat="44.04188" lon="7.06701">
        <ele>1612.3</ele>
        <time>2009-07-05T10:33:45Z</time>
      </trkpt>
      <trkpt lat="44.04162" lon="7.067">
        <ele>1608.4</ele>
        <time>2009-07-05T10:33:59Z</time>
      </trkpt>
      <trkpt lat="44.04136" lon="7.06714">
        <ele>1600.7</ele>
        <time>2009-07-05T10:34:15Z</time>
      </trkpt>
      <trkpt lat="44.04111" lon="7.06727">
        <ele>1599.3</ele>
        <time>2009-07-05T10:34:31Z</time>
      </trkpt>
      <trkpt lat="44.04086" lon="7.06737">
        <ele>1597.4</ele>
        <time>2009-07-05T10:34:47Z</time>
      </trkpt>
      <trkpt lat="44.04061" lon="7.06742">
        <ele>1594.5</ele>
        <time>2009-07-05T10:35:05Z</time>
      </trkpt>
      <trkpt lat="44.04032" lon="7.06751">
        <ele>1590.6</ele>
        <time>2009-07-05T10:35:22Z</time>
      </trkpt>
      <trkpt lat="44.04004" lon="7.06757">
        <ele>1585.4</ele>
        <time>2009-07-05T10:35:37Z</time>
      </trkpt>
      <trkpt lat="44.03977" lon="7.06759">
        <ele>1580.5</ele>
        <time>2009-07-05T10:35:56Z</time>
      </trkpt>
      <trkpt lat="44.03947" lon="7.06776">
        <ele>1574.3</ele>
        <time>2009-07-05T10:36:15Z</time>
      </trkpt>
      <trkpt lat="44.03921" lon="7.0678">
        <ele>1570.5</ele>
        <time>2009-07-05T10:36:32Z</time>
      </trkpt>
      <trkpt lat="44.03896" lon="7.0679">
        <ele>1565.2</ele>
        <time>2009-07-05T10:36:51Z</time>
      </trkpt>
      <trkpt lat="44.03883" lon="7.06816">
        <ele>1558</ele>
        <time>2009-07-05T10:38:42Z</time>
      </trkpt>
      <trkpt lat="44.03885" lon="7.0685">
        <ele>1553.6</ele>
        <time>2009-07-05T10:39:01Z</time>
      </trkpt>
      <trkpt lat="44.03912" lon="7.06856">
        <ele>1551.7</ele>
        <time>2009-07-05T10:39:28Z</time>
      </trkpt>
      <trkpt lat="44.03943" lon="7.06864">
        <ele>1548.8</ele>
        <time>2009-07-05T10:39:44Z</time>
      </trkpt>
      <trkpt lat="44.03976" lon="7.06877">
        <ele>1543.5</ele>
        <time>2009-07-05T10:40:03Z</time>
      </trkpt>
      <trkpt lat="44.04017" lon="7.06883">
        <ele>1540.2</ele>
        <time>2009-07-05T10:40:30Z</time>
      </trkpt>
      <trkpt lat="44.04049" lon="7.06896">
        <ele>1537.8</ele>
        <time>2009-07-05T10:40:50Z</time>
      </trkpt>
      <trkpt lat="44.04085" lon="7.06901">
        <ele>1533</ele>
        <time>2009-07-05T10:41:09Z</time>
      </trkpt>
      <trkpt lat="44.04112" lon="7.06938">
        <ele>1538.2</ele>
        <time>2009-07-05T10:41:27Z</time>
      </trkpt>
      <trkpt lat="44.04142" lon="7.06965">
        <ele>1539.2</ele>
        <time>2009-07-05T10:41:45Z</time>
      </trkpt>
      <trkpt lat="44.04169" lon="7.06989">
        <ele>1539.7</ele>
        <time>2009-07-05T10:42:00Z</time>
      </trkpt>
      <trkpt lat="44.04191" lon="7.06972">
        <ele>1538.7</ele>
        <time>2009-07-05T10:42:15Z</time>
      </trkpt>
      <trkpt lat="44.04219" lon="7.06982">
        <ele>1540.6</ele>
        <time>2009-07-05T10:42:41Z</time>
      </trkpt>
      <trkpt lat="44.04243" lon="7.06999">
        <ele>1537.3</ele>
        <time>2009-07-05T10:43:07Z</time>
      </trkpt>
      <trkpt lat="44.04273" lon="7.07014">
        <ele>1543.1</ele>
        <time>2009-07-05T10:43:31Z</time>
      </trkpt>
      <trkpt lat="44.04303" lon="7.07026">
        <ele>1544</ele>
        <time>2009-07-05T10:43:52Z</time>
      </trkpt>
      <trkpt lat="44.04332" lon="7.07029">
        <ele>1546.9</ele>
        <time>2009-07-05T10:44:11Z</time>
      </trkpt>
      <trkpt lat="44.0436" lon="7.07042">
        <ele>1543.5</ele>
        <time>2009-07-05T10:44:33Z</time>
      </trkpt>
      <trkpt lat="44.04389" lon="7.07049">
        <ele>1541.1</ele>
        <time>2009-07-05T10:44:51Z</time>
      </trkpt>
      <trkpt lat="44.04414" lon="7.0706">
        <ele>1538.7</ele>
        <time>2009-07-05T10:45:09Z</time>
      </trkpt>
      <trkpt lat="44.04441" lon="7.07066">
        <ele>1537.8</ele>
        <time>2009-07-05T10:45:33Z</time>
      </trkpt>
      <trkpt lat="44.04467" lon="7.07073">
        <ele>1536.3</ele>
        <time>2009-07-05T10:45:55Z</time>
      </trkpt>
      <trkpt lat="44.04494" lon="7.0707">
        <ele>1534.4</ele>
        <time>2009-07-05T10:46:17Z</time>
      </trkpt>
      <trkpt lat="44.04522" lon="7.07067">
        <ele>1533</ele>
        <time>2009-07-05T10:46:41Z</time>
      </trkpt>
      <trkpt lat="44.0455" lon="7.07066">
        <ele>1528.6</ele>
        <time>2009-07-05T10:47:03Z</time>
      </trkpt>
      <trkpt lat="44.0458" lon="7.07067">
        <ele>1530.1</ele>
        <time>2009-07-05T10:47:18Z</time>
      </trkpt>
      <trkpt lat="44.04604" lon="7.07079">
        <ele>1531</ele>
        <time>2009-07-05T10:47:35Z</time>
      </trkpt>
      <trkpt lat="44.04632" lon="7.07085">
        <ele>1531.5</ele>
        <time>2009-07-05T10:47:56Z</time>
      </trkpt>
      <trkpt lat="44.0466" lon="7.07085">
        <ele>1533</ele>
        <time>2009-07-05T10:48:16Z</time>
      </trkpt>
      <trkpt lat="44.04685" lon="7.07077">
        <ele>1534.9</ele>
        <time>2009-07-05T10:48:39Z</time>
      </trkpt>
      <trkpt lat="44.04713" lon="7.07082">
        <ele>1540.6</ele>
        <time>2009-07-05T10:49:08Z</time>
      </trkpt>
      <trkpt lat="44.04742" lon="7.07094">
        <ele>1546.9</ele>
        <time>2009-07-05T10:49:30Z</time>
      </trkpt>
      <trkpt lat="44.04769" lon="7.07103">
        <ele>1554.1</ele>
        <time>2009-07-05T10:49:51Z</time>
      </trkpt>
      <trkpt lat="44.048" lon="7.07114">
        <ele>1556</ele>
        <time>2009-07-05T10:50:09Z</time>
      </trkpt>
      <trkpt lat="44.04825" lon="7.07109">
        <ele>1554.6</ele>
        <time>2009-07-05T10:50:28Z</time>
      </trkpt>
      <trkpt lat="44.04852" lon="7.07109">
        <ele>1551.2</ele>
        <time>2009-07-05T10:50:45Z</time>
      </trkpt>
      <trkpt lat="44.04877" lon="7.07111">
        <ele>1545.5</ele>
        <time>2009-07-05T10:51:02Z</time>
      </trkpt>
      <trkpt lat="44.04904" lon="7.07111">
        <ele>1539.7</ele>
        <time>2009-07-05T10:51:21Z</time>
      </trkpt>
      <trkpt lat="44.04934" lon="7.07118">
        <ele>1536.3</ele>
        <time>2009-07-05T10:51:43Z</time>
      </trkpt>
      <trkpt lat="44.04962" lon="7.0713">
        <ele>1535.8</ele>
        <time>2009-07-05T10:52:06Z</time>
      </trkpt>
      <trkpt lat="44.0499" lon="7.0714">
        <ele>1535.4</ele>
        <time>2009-07-05T10:52:28Z</time>
      </trkpt>
      <trkpt lat="44.05019" lon="7.0715">
        <ele>1533.4</ele>
        <time>2009-07-05T10:52:51Z</time>
      </trkpt>
      <trkpt lat="44.05048" lon="7.07159">
        <ele>1533.9</ele>
        <time>2009-07-05T10:53:12Z</time>
      </trkpt>
      <trkpt lat="44.05075" lon="7.07168">
        <ele>1535.4</ele>
        <time>2009-07-05T10:53:31Z</time>
      </trkpt>
      <trkpt lat="44.05105" lon="7.07177">
        <ele>1537.8</ele>
        <time>2009-07-05T10:53:53Z</time>
      </trkpt>
      <trkpt lat="44.05133" lon="7.07177">
        <ele>1537.8</ele>
        <time>2009-07-05T10:54:15Z</time>
      </trkpt>
      <trkpt lat="44.05159" lon="7.07184">
        <ele>1540.2</ele>
        <time>2009-07-05T10:54:38Z</time>
      </trkpt>
      <trkpt lat="44.05186" lon="7.07176">
        <ele>1540.6</ele>
        <time>2009-07-05T10:55:01Z</time>
      </trkpt>
      <trkpt lat="44.05213" lon="7.07178">
        <ele>1542.1</ele>
        <time>2009-07-05T10:55:22Z</time>
      </trkpt>
      <trkpt lat="44.05244" lon="7.07182">
        <ele>1544.5</ele>
        <time>2009-07-05T10:55:48Z</time>
      </trkpt>
      <trkpt lat="44.05272" lon="7.07195">
        <ele>1546.9</ele>
        <time>2009-07-05T10:56:11Z</time>
      </trkpt>
      <trkpt lat="44.05303" lon="7.07204">
        <ele>1545.5</ele>
        <time>2009-07-05T10:56:42Z</time>
      </trkpt>
      <trkpt lat="44.05333" lon="7.07207">
        <ele>1544</ele>
        <time>2009-07-05T10:57:10Z</time>
      </trkpt>
      <trkpt lat="44.05361" lon="7.07208">
        <ele>1544.5</ele>
        <time>2009-07-05T10:57:31Z</time>
      </trkpt>
      <trkpt lat="44.05392" lon="7.07215">
        <ele>1550.7</ele>
        <time>2009-07-05T10:57:56Z</time>
      </trkpt>
      <trkpt lat="44.05419" lon="7.07209">
        <ele>1552.7</ele>
        <time>2009-07-05T10:58:19Z</time>
      </trkpt>
      <trkpt lat="44.05454" lon="7.07199">
        <ele>1555.6</ele>
        <time>2009-07-05T10:58:48Z</time>
      </trkpt>
      <trkpt lat="44.05469" lon="7.07165">
        <ele>1556</ele>
        <time>2009-07-05T10:59:08Z</time>
      </trkpt>
      <trkpt lat="44.05505" lon="7.07167">
        <ele>1557.5</ele>
        <time>2009-07-05T10:59:41Z</time>
      </trkpt>
      <trkpt lat="44.05529" lon="7.07162">
        <ele>1551.7</ele>
        <time>2009-07-05T11:00:06Z</time>
      </trkpt>
      <trkpt lat="44.05547" lon="7.07118">
        <ele>1553.1</ele>
        <time>2009-07-05T11:00:46Z</time>
      </trkpt>
      <trkpt lat="44.0558" lon="7.07127">
        <ele>1560.4</ele>
        <time>2009-07-05T11:01:14Z</time>
      </trkpt>
      <trkpt lat="44.05608" lon="7.07176">
        <ele>1554.6</ele>
        <time>2009-07-05T11:05:12Z</time>
      </trkpt>
      <trkpt lat="44.05625" lon="7.07255">
        <ele>1545</ele>
        <time>2009-07-05T11:06:21Z</time>
      </trkpt>
      <trkpt lat="44.05632" lon="7.07289">
        <ele>1545.5</ele>
        <time>2009-07-05T11:06:52Z</time>
      </trkpt>
      <trkpt lat="44.05657" lon="7.07359">
        <ele>1548.8</ele>
        <time>2009-07-05T11:07:36Z</time>
      </trkpt>
      <trkpt lat="44.05654" lon="7.07421">
        <ele>1542.6</ele>
        <time>2009-07-05T11:08:06Z</time>
      </trkpt>
      <trkpt lat="44.05649" lon="7.07516">
        <ele>1543.1</ele>
        <time>2009-07-05T11:09:18Z</time>
      </trkpt>
      <trkpt lat="44.05651" lon="7.07558">
        <ele>1535.4</ele>
        <time>2009-07-05T11:09:47Z</time>
      </trkpt>
      <trkpt lat="44.05652" lon="7.07628">
        <ele>1521.9</ele>
        <time>2009-07-05T11:11:06Z</time>
      </trkpt>
      <trkpt lat="44.05654" lon="7.07675">
        <ele>1505.6</ele>
        <time>2009-07-05T11:11:41Z</time>
      </trkpt>
      <trkpt lat="44.05745" lon="7.07807">
        <ele>1452.2</ele>
        <time>2009-07-05T11:23:13Z</time>
      </trkpt>
      <trkpt lat="44.05754" lon="7.07851">
        <ele>1455.6</ele>
        <time>2009-07-05T11:23:45Z</time>
      </trkpt>
      <trkpt lat="44.05765" lon="7.07894">
        <ele>1455.6</ele>
        <time>2009-07-05T11:24:11Z</time>
      </trkpt>
      <trkpt lat="44.05777" lon="7.07957">
        <ele>1447.4</ele>
        <time>2009-07-05T11:24:58Z</time>
      </trkpt>
      <trkpt lat="44.0579" lon="7.08009">
        <ele>1434.4</ele>
        <time>2009-07-05T11:25:24Z</time>
      </trkpt>
      <trkpt lat="44.05809" lon="7.08035">
        <ele>1416.6</ele>
        <time>2009-07-05T11:26:04Z</time>
      </trkpt>
      <trkpt lat="44.05817" lon="7.08074">
        <ele>1406.1</ele>
        <time>2009-07-05T11:26:44Z</time>
      </trkpt>
      <trkpt lat="44.05878" lon="7.08109">
        <ele>1393.6</ele>
        <time>2009-07-05T11:28:18Z</time>
      </trkpt>
      <trkpt lat="44.05886" lon="7.08266">
        <ele>1399.3</ele>
        <time>2009-07-05T11:35:32Z</time>
      </trkpt>
      <trkpt lat="44.05883" lon="7.08313">
        <ele>1393.1</ele>
        <time>2009-07-05T11:37:03Z</time>
      </trkpt>
      <trkpt lat="44.05892" lon="7.08358">
        <ele>1386.4</ele>
        <time>2009-07-05T11:37:51Z</time>
      </trkpt>
      <trkpt lat="44.05912" lon="7.08379">
        <ele>1382</ele>
        <time>2009-07-05T11:38:39Z</time>
      </trkpt>
      <trkpt lat="44.05941" lon="7.08395">
        <ele>1386.4</ele>
        <time>2009-07-05T11:40:07Z</time>
      </trkpt>
      <trkpt lat="44.05944" lon="7.08429">
        <ele>1380.6</ele>
        <time>2009-07-05T11:44:10Z</time>
      </trkpt>
      <trkpt lat="44.05922" lon="7.0847">
        <ele>1365.7</ele>
        <time>2009-07-05T11:45:13Z</time>
      </trkpt>
      <trkpt lat="44.05885" lon="7.08489">
        <ele>1351.8</ele>
        <time>2009-07-05T11:46:32Z</time>
      </trkpt>
      <trkpt lat="44.05857" lon="7.08511">
        <ele>1332.5</ele>
        <time>2009-07-05T11:48:48Z</time>
      </trkpt>
      <trkpt lat="44.05844" lon="7.08544">
        <ele>1316.7</ele>
        <time>2009-07-05T11:50:17Z</time>
      </trkpt>
      <trkpt lat="44.05829" lon="7.08589">
        <ele>1302.2</ele>
        <time>2009-07-05T11:51:37Z</time>
      </trkpt>
      <trkpt lat="44.05812" lon="7.0862">
        <ele>1287.8</ele>
        <time>2009-07-05T11:52:33Z</time>
      </trkpt>
      <trkpt lat="44.05778" lon="7.08659">
        <ele>1266.2</ele>
        <time>2009-07-05T11:54:34Z</time>
      </trkpt>
      <trkpt lat="44.05756" lon="7.08687">
        <ele>1244.6</ele>
        <time>2009-07-05T11:55:47Z</time>
      </trkpt>
      <trkpt lat="44.05729" lon="7.08729">
        <ele>1231.1</ele>
        <time>2009-07-05T11:57:21Z</time>
      </trkpt>
      <trkpt lat="44.0571" lon="7.08763">
        <ele>1227.7</ele>
        <time>2009-07-05T11:58:05Z</time>
      </trkpt>
      <trkpt lat="44.05721" lon="7.08798">
        <ele>1224.4</ele>
        <time>2009-07-05T12:00:26Z</time>
      </trkpt>
      <trkpt lat="44.05745" lon="7.08825">
        <ele>1220.1</ele>
        <time>2009-07-05T12:00:50Z</time>
      </trkpt>
      <trkpt lat="44.05769" lon="7.08843">
        <ele>1216.2</ele>
        <time>2009-07-05T12:01:12Z</time>
      </trkpt>
      <trkpt lat="44.05791" lon="7.08864">
        <ele>1216.7</ele>
        <time>2009-07-05T12:01:36Z</time>
      </trkpt>
      <trkpt lat="44.05803" lon="7.08904">
        <ele>1227.3</ele>
        <time>2009-07-05T12:02:00Z</time>
      </trkpt>
      <trkpt lat="44.05821" lon="7.08931">
        <ele>1229.2</ele>
        <time>2009-07-05T12:02:23Z</time>
      </trkpt>
      <trkpt lat="44.05845" lon="7.08941">
        <ele>1230.1</ele>
        <time>2009-07-05T12:02:47Z</time>
      </trkpt>
      <trkpt lat="44.05865" lon="7.08966">
        <ele>1230.1</ele>
        <time>2009-07-05T12:03:10Z</time>
      </trkpt>
      <trkpt lat="44.05872" lon="7.09005">
        <ele>1234.5</ele>
        <time>2009-07-05T12:03:35Z</time>
      </trkpt>
      <trkpt lat="44.05889" lon="7.09037">
        <ele>1238.3</ele>
        <time>2009-07-05T12:04:01Z</time>
      </trkpt>
      <trkpt lat="44.05904" lon="7.09067">
        <ele>1240.7</ele>
        <time>2009-07-05T12:04:34Z</time>
      </trkpt>
      <trkpt lat="44.05926" lon="7.09083">
        <ele>1241.7</ele>
        <time>2009-07-05T12:05:00Z</time>
      </trkpt>
      <trkpt lat="44.05945" lon="7.09114">
        <ele>1248.9</ele>
        <time>2009-07-05T12:05:28Z</time>
      </trkpt>
      <trkpt lat="44.05963" lon="7.09144">
        <ele>1259</ele>
        <time>2009-07-05T12:05:57Z</time>
      </trkpt>
      <trkpt lat="44.05986" lon="7.09155">
        <ele>1263.3</ele>
        <time>2009-07-05T12:06:25Z</time>
      </trkpt>
      <trkpt lat="44.06012" lon="7.09166">
        <ele>1266.2</ele>
        <time>2009-07-05T12:06:54Z</time>
      </trkpt>
      <trkpt lat="44.06035" lon="7.09188">
        <ele>1270.5</ele>
        <time>2009-07-05T12:07:20Z</time>
      </trkpt>
      <trkpt lat="44.06056" lon="7.09216">
        <ele>1274.4</ele>
        <time>2009-07-05T12:07:45Z</time>
      </trkpt>
      <trkpt lat="44.06076" lon="7.09244">
        <ele>1275.8</ele>
        <time>2009-07-05T12:08:09Z</time>
      </trkpt>
      <trkpt lat="44.06097" lon="7.09273">
        <ele>1277.7</ele>
        <time>2009-07-05T12:08:33Z</time>
      </trkpt>
      <trkpt lat="44.06116" lon="7.09299">
        <ele>1282.5</ele>
        <time>2009-07-05T12:08:57Z</time>
      </trkpt>
      <trkpt lat="44.06133" lon="7.09325">
        <ele>1282.5</ele>
        <time>2009-07-05T12:09:21Z</time>
      </trkpt>
      <trkpt lat="44.06148" lon="7.09334">
        <ele>1289.3</ele>
        <time>2009-07-05T12:10:12Z</time>
      </trkpt>
      <trkpt lat="44.06241" lon="7.09044">
        <ele>1220.1</ele>
        <time>2009-07-05T12:19:08Z</time>
      </trkpt>
      <trkpt lat="44.06324" lon="7.08961">
        <ele>1171</ele>
        <time>2009-07-05T12:22:45Z</time>
      </trkpt>
      <trkpt lat="44.06328" lon="7.09086">
        <ele>1150.4</ele>
        <time>2009-07-05T12:24:33Z</time>
      </trkpt>
      <trkpt lat="44.06313" lon="7.09107">
        <ele>1142.2</ele>
        <time>2009-07-05T12:24:51Z</time>
      </trkpt>
      <trkpt lat="44.06328" lon="7.09132">
        <ele>1135.5</ele>
        <time>2009-07-05T12:25:11Z</time>
      </trkpt>
      <trkpt lat="44.06313" lon="7.09151">
        <ele>1132.1</ele>
        <time>2009-07-05T12:25:30Z</time>
      </trkpt>
      <trkpt lat="44.06313" lon="7.09198">
        <ele>1123.4</ele>
        <time>2009-07-05T12:26:13Z</time>
      </trkpt>
      <trkpt lat="44.0643" lon="7.09309">
        <ele>1102.8</ele>
        <time>2009-07-05T12:27:55Z</time>
      </trkpt>
      <trkpt lat="44.06489" lon="7.09439">
        <ele>1087.4</ele>
        <time>2009-07-05T12:30:37Z</time>
      </trkpt>
      <trkpt lat="44.06498" lon="7.09468">
        <ele>1082.1</ele>
        <time>2009-07-05T12:31:03Z</time>
      </trkpt>
      <trkpt lat="44.06569" lon="7.09579">
        <ele>1067.7</ele>
        <time>2009-07-05T12:33:01Z</time>
      </trkpt>
      <trkpt lat="44.066" lon="7.09462">
        <ele>1048</ele>
        <time>2009-07-05T12:39:43Z</time>
      </trkpt>
      <trkpt lat="44.0661" lon="7.0937">
        <ele>997.5</ele>
        <time>2009-07-05T12:44:45Z</time>
      </trkpt>
      <trkpt lat="44.06795" lon="7.09467">
        <ele>946.6</ele>
        <time>2009-07-05T12:50:58Z</time>
      </trkpt>
      <trkpt lat="44.06868" lon="7.09467">
        <ele>937.9</ele>
        <time>2009-07-05T12:52:22Z</time>
      </trkpt>
      <trkpt lat="44.06991" lon="7.09487">
        <ele>933.1</ele>
        <time>2009-07-05T12:54:37Z</time>
      </trkpt>
      <trkpt lat="44.07051" lon="7.0959">
        <ele>909.1</ele>
        <time>2009-07-05T12:57:54Z</time>
      </trkpt>
      <trkpt lat="44.07081" lon="7.09757">
        <ele>899.5</ele>
        <time>2009-07-05T12:59:57Z</time>
      </trkpt>
      <trkpt lat="44.07079" lon="7.09826">
        <ele>889.8</ele>
        <time>2009-07-05T13:01:01Z</time>
      </trkpt>
      <trkpt lat="44.07076" lon="7.09859">
        <ele>885</ele>
        <time>2009-07-05T13:01:23Z</time>
      </trkpt>
      <trkpt lat="44.07114" lon="7.09961">
        <ele>858.1</ele>
        <time>2009-07-05T13:02:57Z</time>
      </trkpt>
      <trkpt lat="44.07129" lon="7.10024">
        <ele>852.8</ele>
        <time>2009-07-05T13:03:33Z</time>
      </trkpt>
      <trkpt lat="44.07159" lon="7.10054">
        <ele>850.9</ele>
        <time>2009-07-05T13:04:02Z</time>
      </trkpt>
      <trkpt lat="44.07171" lon="7.10153">
        <ele>828.3</ele>
        <time>2009-07-05T13:11:46Z</time>
      </trkpt>
      <trkpt lat="44.07227" lon="7.10189">
        <ele>818.7</ele>
        <time>2009-07-05T13:13:10Z</time>
      </trkpt>
      <trkpt lat="44.07257" lon="7.10208">
        <ele>808.1</ele>
        <time>2009-07-05T13:13:52Z</time>
      </trkpt>
      <trkpt lat="44.07263" lon="7.10256">
        <ele>786</ele>
        <time>2009-07-05T13:15:31Z</time>
      </trkpt>
      <trkpt lat="44.07251" lon="7.10292">
        <ele>773</ele>
        <time>2009-07-05T13:16:34Z</time>
      </trkpt>
      <trkpt lat="44.07275" lon="7.10329">
        <ele>753.8</ele>
        <time>2009-07-05T13:18:10Z</time>
      </trkpt>
      <trkpt lat="44.07339" lon="7.10318">
        <ele>735.1</ele>
        <time>2009-07-05T13:20:11Z</time>
      </trkpt>
      <trkpt lat="44.07368" lon="7.10306">
        <ele>713.4</ele>
        <time>2009-07-05T13:21:18Z</time>
      </trkpt>
      <trkpt lat="44.07392" lon="7.10418">
        <ele>675</ele>
        <time>2009-07-05T13:24:25Z</time>
      </trkpt>
      <trkpt lat="44.07387" lon="7.10501">
        <ele>647.6</ele>
        <time>2009-07-05T13:26:31Z</time>
      </trkpt>
      <trkpt lat="44.07368" lon="7.10551">
        <ele>635.1</ele>
        <time>2009-07-05T13:27:52Z</time>
      </trkpt>
      <trkpt lat="44.07436" lon="7.10535">
        <ele>628.4</ele>
        <time>2009-07-05T13:30:12Z</time>
      </trkpt>
      <trkpt lat="44.07511" lon="7.10432">
        <ele>599.5</ele>
        <time>2009-07-05T13:32:31Z</time>
      </trkpt>
      <trkpt lat="44.07579" lon="7.10351">
        <ele>595.7</ele>
        <time>2009-07-05T13:34:18Z</time>
      </trkpt>
      <trkpt lat="44.07645" lon="7.10412">
        <ele>547.1</ele>
        <time>2009-07-05T13:37:26Z</time>
      </trkpt>
      <trkpt lat="44.07696" lon="7.10422">
        <ele>536.1</ele>
        <time>2009-07-05T13:38:19Z</time>
      </trkpt>
      <trkpt lat="44.07746" lon="7.1039">
        <ele>485.6</ele>
        <time>2009-07-05T13:39:50Z</time>
      </trkpt>
      <trkpt lat="44.0778" lon="7.10367">
        <ele>479.4</ele>
        <time>2009-07-05T13:41:23Z</time>
      </trkpt>
      <trkpt lat="44.07811" lon="7.10378">
        <ele>475.5</ele>
        <time>2009-07-05T13:42:07Z</time>
      </trkpt>
      <trkpt lat="44.07844" lon="7.10355">
        <ele>476.5</ele>
        <time>2009-07-05T13:42:48Z</time>
      </trkpt>
      <trkpt lat="44.07866" lon="7.10372">
        <ele>477.4</ele>
        <time>2009-07-05T13:43:11Z</time>
      </trkpt>
      <trkpt lat="44.07897" lon="7.10387">
        <ele>475.5</ele>
        <time>2009-07-05T13:43:38Z</time>
      </trkpt>
      <trkpt lat="44.07919" lon="7.10406">
        <ele>475</ele>
        <time>2009-07-05T13:44:05Z</time>
      </trkpt>
      <trkpt lat="44.07948" lon="7.10421">
        <ele>473.1</ele>
        <time>2009-07-05T13:44:36Z</time>
      </trkpt>
      <trkpt lat="44.07973" lon="7.10437">
        <ele>470.2</ele>
        <time>2009-07-05T13:45:02Z</time>
      </trkpt>
      <trkpt lat="44.08002" lon="7.10459">
        <ele>472.1</ele>
        <time>2009-07-05T13:45:32Z</time>
      </trkpt>
      <trkpt lat="44.08012" lon="7.10484">
        <ele>477</ele>
        <time>2009-07-05T13:46:03Z</time>
      </trkpt>
      <trkpt lat="44.08" lon="7.10522">
        <ele>481.8</ele>
        <time>2009-07-05T13:46:32Z</time>
      </trkpt>
      <trkpt lat="44.08025" lon="7.10532">
        <ele>490.9</ele>
        <time>2009-07-05T13:47:00Z</time>
      </trkpt>
      <trkpt lat="44.08055" lon="7.10557">
        <ele>477.9</ele>
        <time>2009-07-05T13:47:26Z</time>
      </trkpt>
      <trkpt lat="44.08082" lon="7.1056">
        <ele>474.5</ele>
        <time>2009-07-05T13:47:49Z</time>
      </trkpt>
      <trkpt lat="44.08109" lon="7.10564">
        <ele>471.7</ele>
        <time>2009-07-05T13:48:12Z</time>
      </trkpt>
      <trkpt lat="44.08135" lon="7.10559">
        <ele>472.1</ele>
        <time>2009-07-05T13:48:35Z</time>
      </trkpt>
      <trkpt lat="44.08162" lon="7.10554">
        <ele>470.7</ele>
        <time>2009-07-05T13:49:00Z</time>
      </trkpt>
      <trkpt lat="44.08189" lon="7.10546">
        <ele>476.5</ele>
        <time>2009-07-05T13:49:27Z</time>
      </trkpt>
      <trkpt lat="44.08222" lon="7.10494">
        <ele>480.8</ele>
        <time>2009-07-05T13:50:21Z</time>
      </trkpt>
      <trkpt lat="44.08249" lon="7.10446">
        <ele>484.6</ele>
        <time>2009-07-05T13:50:57Z</time>
      </trkpt>
      <trkpt lat="44.08282" lon="7.10395">
        <ele>489</ele>
        <time>2009-07-05T13:51:39Z</time>
      </trkpt>
      <trkpt lat="44.08306" lon="7.1037">
        <ele>487</ele>
        <time>2009-07-05T13:52:06Z</time>
      </trkpt>
      <trkpt lat="44.08351" lon="7.10336">
        <ele>480.8</ele>
        <time>2009-07-05T13:53:04Z</time>
      </trkpt>
      <trkpt lat="44.08383" lon="7.10349">
        <ele>484.2</ele>
        <time>2009-07-05T13:53:42Z</time>
      </trkpt>
      <trkpt lat="44.08395" lon="7.10387">
        <ele>487.5</ele>
        <time>2009-07-05T13:54:08Z</time>
      </trkpt>
      <trkpt lat="44.08405" lon="7.10422">
        <ele>486.1</ele>
        <time>2009-07-05T13:54:31Z</time>
      </trkpt>
      <trkpt lat="44.08449" lon="7.10457">
        <ele>475</ele>
        <time>2009-07-05T13:56:32Z</time>
      </trkpt>
      <trkpt lat="44.08421" lon="7.10494">
        <ele>483.7</ele>
        <time>2009-07-05T13:57:59Z</time>
      </trkpt>
      <trkpt lat="44.08435" lon="7.10525">
        <ele>488.5</ele>
        <time>2009-07-05T13:58:32Z</time>
      </trkpt>
      <trkpt lat="44.08456" lon="7.10541">
        <ele>496.7</ele>
        <time>2009-07-05T13:59:03Z</time>
      </trkpt>
      <trkpt lat="44.08489" lon="7.10556">
        <ele>500</ele>
        <time>2009-07-05T13:59:37Z</time>
      </trkpt>
      <trkpt lat="44.08519" lon="7.1055">
        <ele>507.7</ele>
        <time>2009-07-05T14:00:05Z</time>
      </trkpt>
      <trkpt lat="44.08544" lon="7.10533">
        <ele>517.3</ele>
        <time>2009-07-05T14:00:24Z</time>
      </trkpt>
      <trkpt lat="44.08579" lon="7.10494">
        <ele>520.7</ele>
        <time>2009-07-05T14:01:08Z</time>
      </trkpt>
      <trkpt lat="44.08562" lon="7.10458">
        <ele>521.2</ele>
        <time>2009-07-05T14:03:20Z</time>
      </trkpt>
    </trkseg>
  </trk>
</gpx>